Provisional Data: Little Juniata River near Tipton, PA


Please select a monitoring station.
Please select start date.
Please select start date.

Toggle Unit: C/F Toggle Unit: C/F
Sample Time Temperature (C) Temperature (F) Specific Conductivity (mS/cm) pH   Turbidity (NTU+) DO (mg/L)
8/1/2022 12:00:00 AM 19.95 67.91 0.448 8.06 7.13 8.01
8/1/2022 12:15:00 AM 19.95 67.91 0.448 8.06 4.01 8.01
8/1/2022 12:30:00 AM 19.94 67.892 0.448 8.05 3.65 8.01
8/1/2022 12:45:00 AM 19.93 67.874 0.448 8.04 3.96 8
8/1/2022 1:00:00 AM 19.92 67.856 0.448 8.04 3.45 8.01
8/1/2022 1:15:00 AM 19.9 67.82 0.448 8.03 3.74 8.01
8/1/2022 1:30:00 AM 19.89 67.802 0.448 8.02 3.92 8.01
8/1/2022 1:45:00 AM 19.87 67.766 0.448 8.02 3.92 8.01
8/1/2022 2:00:00 AM 19.85 67.73 0.448 8 4.84 8
8/1/2022 2:15:00 AM 19.83 67.694 0.448 8 3.79 8
8/1/2022 2:30:00 AM 19.81 67.658 0.448 7.99 3.66 8
8/1/2022 2:45:00 AM 19.79 67.622 0.448 7.99 3.6 8
8/1/2022 3:00:00 AM 19.77 67.586 0.448 7.98 4.65 8
8/1/2022 3:15:00 AM 19.74 67.532 0.448 7.97 3.55 8.01
8/1/2022 3:30:00 AM 19.71 67.478 0.449 7.97 4.02 8.03
8/1/2022 3:45:00 AM 19.69 67.442 0.449 7.96 5.64 8.05
8/1/2022 4:00:00 AM 19.66 67.388 0.45 7.95 4.48 8.06
8/1/2022 4:15:00 AM 19.63 67.334 0.45 7.95 4.76 8.06
8/1/2022 4:30:00 AM 19.6 67.28 0.451 7.95 5.19 8.07
8/1/2022 4:45:00 AM 19.57 67.226 0.451 7.94 5.01 8.09
8/1/2022 5:00:00 AM 19.55 67.19 0.452 7.93 5.47 8.11
8/1/2022 5:15:00 AM 19.52 67.136 0.451 7.94 6.26 8.11
8/1/2022 5:30:00 AM 19.5 67.1 0.451 7.94 5.64 8.13
8/1/2022 5:45:00 AM 19.48 67.064 0.45 7.93 5.95 8.14
8/1/2022 6:00:00 AM 19.46 67.028 0.45 7.92 7.17 8.15
8/1/2022 6:15:00 AM 19.44 66.992 0.449 7.93 5.35 8.15
8/1/2022 6:30:00 AM 19.42 66.956 0.449 7.91 5.97 8.15
8/1/2022 6:45:00 AM 19.41 66.938 0.448 7.92 5.5 8.18
8/1/2022 7:00:00 AM 19.39 66.902 0.447 7.92 4.71 8.22
8/1/2022 7:15:00 AM 19.39 66.902 0.447 7.93 4.6 8.25
8/1/2022 7:30:00 AM 19.39 66.902 0.447 7.94 4.1 8.35
8/1/2022 7:45:00 AM 19.4 66.92 0.447 7.96 3.89 8.44
8/1/2022 8:00:00 AM 19.42 66.956 0.447 7.98 3.64 8.56
8/1/2022 8:15:00 AM 19.43 66.974 0.448 7.98 3.61 8.7
8/1/2022 8:30:00 AM 19.48 67.064 0.448 8.03 3.45 8.93
8/1/2022 8:45:00 AM 19.5 67.1 0.449 8.05 3.44 9.05
8/1/2022 9:00:00 AM 19.58 67.244 0.449 8.1 4.58 9.3
8/1/2022 9:15:00 AM 19.59 67.262 0.45 8.12 3.42 9.38
8/1/2022 9:30:00 AM 19.59 67.262 0.452 8.11 3.96 9.35
8/1/2022 9:45:00 AM 19.8 67.64 0.453 8.18 6.31 9.78
8/1/2022 10:00:00 AM 19.72 67.496 0.455 8.17 3.05 9.59
8/1/2022 10:15:00 AM 19.97 67.946 0.457 8.26 3.02 10.05
8/1/2022 10:30:00 AM 20.13 68.234 0.459 8.28 2.91 10.15
8/1/2022 10:45:00 AM 20.13 68.234 0.461 8.31 2.88 10.18
8/1/2022 11:00:00 AM 20.44 68.792 0.462 8.38 2.89 10.51
8/1/2022 11:15:00 AM 20.46 68.828 0.464 8.41 2.74 10.71
8/1/2022 11:30:00 AM 20.63 69.134 0.465 8.46 2.79 10.84
8/1/2022 11:45:00 AM 20.6 69.08 0.467 8.48 2.68 10.89
8/1/2022 12:00:00 PM 21.1 69.98 0.468 8.54 2.58 11.24
8/1/2022 12:15:00 PM 20.88 69.584 0.47 8.53 2.66 11.02
8/1/2022 12:30:00 PM 20.88 69.584 0.472 8.55 2.62 11
8/1/2022 12:45:00 PM 20.97 69.746 0.473 8.58 2.57 11.08
8/1/2022 1:00:00 PM 20.97 69.746 0.475 8.58 2.62 11.1
8/1/2022 1:15:00 PM 20.99 69.782 0.476 8.6 2.58 11.09
8/1/2022 1:30:00 PM 21.12 70.016 0.477 8.64 2.54 11.33
8/1/2022 1:45:00 PM 21.35 70.43 0.478 8.67 2.56 11.48
8/1/2022 2:00:00 PM 21.57 70.826 0.479 8.69 2.48 11.63
8/1/2022 2:15:00 PM 21.61 70.898 0.48 8.71 2.55 11.58
8/1/2022 2:30:00 PM 21.74 71.132 0.481 8.72 2.51 11.58
8/1/2022 2:45:00 PM 21.77 71.186 0.481 8.74 2.81 11.57
8/1/2022 3:00:00 PM 21.74 71.132 0.482 8.74 2.66 11.33
8/1/2022 3:15:00 PM 21.78 71.204 0.482 8.76 2.62 11.35
8/1/2022 3:30:00 PM 21.78 71.204 0.483 8.76 2.81 11.19
8/1/2022 3:45:00 PM 21.79 71.222 0.483 8.76 2.46 11
8/1/2022 4:00:00 PM 21.82 71.276 0.484 8.74 2.46 10.82
8/1/2022 4:15:00 PM 21.9 71.42 0.484 8.75 2.42 10.72
8/1/2022 4:30:00 PM 21.98 71.564 0.485 8.74 2.45 10.68
8/1/2022 4:45:00 PM 22.03 71.654 0.485 8.75 2.52 10.63
8/1/2022 5:00:00 PM 22.13 71.834 0.485 8.76 2.39 10.71
8/1/2022 5:15:00 PM 22.16 71.888 0.485 8.77 2.58 10.59
8/1/2022 5:30:00 PM 22.18 71.924 0.485 8.77 2.55 10.44
8/1/2022 5:45:00 PM 22.16 71.888 0.486 8.74 2.54 10.2
8/1/2022 6:00:00 PM 22.17 71.906 0.487 8.74 2.49 10.13
8/1/2022 6:15:00 PM 22.13 71.834 0.488 8.71 2.52 9.87
8/1/2022 6:30:00 PM 22.09 71.762 0.488 8.68 2.51 9.63
8/1/2022 6:45:00 PM 22.1 71.78 0.489 8.67 2.47 9.57
8/1/2022 7:00:00 PM 22.08 71.744 0.489 8.65 2.48 9.33
8/1/2022 7:15:00 PM 22.06 71.708 0.49 8.63 2.36 9.19
8/1/2022 7:30:00 PM 22.03 71.654 0.49 8.6 2.67 9.02
8/1/2022 7:45:00 PM 21.99 71.582 0.491 8.57 2.77 8.8
8/1/2022 8:00:00 PM 21.95 71.51 0.492 8.53 2.77 8.59
8/1/2022 8:15:00 PM 21.91 71.438 0.493 8.47 2.84 8.4
8/1/2022 8:30:00 PM 21.87 71.366 0.493 8.45 2.88 8.25
8/1/2022 8:45:00 PM 21.84 71.312 0.494 8.41 3.03 8.14
8/1/2022 9:00:00 PM 21.81 71.258 0.495 8.38 3.17 8.04
8/1/2022 9:15:00 PM 21.79 71.222 0.495 8.34 4 7.95
8/1/2022 9:30:00 PM 21.77 71.186 0.496 8.32 3.26 7.88
8/1/2022 9:45:00 PM 21.76 71.168 0.497 8.3 3.36 7.82
8/1/2022 10:00:00 PM 21.73 71.114 0.497 8.28 3.43 7.78
8/1/2022 10:15:00 PM 21.71 71.078 0.498 8.24 4.72 7.73
8/1/2022 10:30:00 PM 21.69 71.042 0.498 8.23 4.46 7.7
8/1/2022 10:45:00 PM 21.68 71.024 0.499 8.21 3.99 7.68
8/1/2022 11:00:00 PM 21.64 70.952 0.499 8.19 4.63 7.65
8/1/2022 11:15:00 PM 21.61 70.898 0.5 8.17 9.7 7.64
8/1/2022 11:30:00 PM 21.58 70.844 0.5 8.16 4.17 7.63
8/1/2022 11:45:00 PM 21.55 70.79 0.501 8.13 4.75 7.62
8/2/2022 12:00:00 AM 21.51 70.718 0.501 8.12 3.75 7.62
8/2/2022 12:15:00 AM 21.47 70.646 0.501 8.11 4.37 7.6
8/2/2022 12:30:00 AM 21.43 70.574 0.502 8.09 4.26 7.6
8/2/2022 12:45:00 AM 21.38 70.484 0.502 8.06 3.95 7.59
8/2/2022 1:00:00 AM 21.33 70.394 0.502 8.06 4.16 7.58
8/2/2022 1:15:00 AM 21.28 70.304 0.502 8.03 3.97 7.58
8/2/2022 1:30:00 AM 21.23 70.214 0.502 8.02 4.67 7.58
8/2/2022 1:45:00 AM 21.17 70.106 0.502 8.01 4.04 7.57
8/2/2022 2:00:00 AM 21.13 70.034 0.502 8 4.4 7.58
8/2/2022 2:15:00 AM 21.07 69.926 0.502 7.99 4.45 7.59
8/2/2022 2:30:00 AM 21.02 69.836 0.502 7.97 13.97 7.57
8/2/2022 2:45:00 AM 20.97 69.746 0.502 7.96 5.17 7.59
8/2/2022 3:00:00 AM 20.93 69.674 0.502 7.96 4.61 7.6
8/2/2022 3:15:00 AM 20.89 69.602 0.501 7.95 4.37 7.6
8/2/2022 3:30:00 AM 20.86 69.548 0.5 7.94 4.18 7.6
8/2/2022 3:45:00 AM 20.82 69.476 0.5 7.93 5.2 7.61
8/2/2022 4:00:00 AM 20.79 69.422 0.499 7.93 4.16 7.63
8/2/2022 4:15:00 AM 20.77 69.386 0.498 7.93 4.14 7.63
8/2/2022 4:30:00 AM 20.75 69.35 0.497 7.92 4.56 7.63
8/2/2022 4:45:00 AM 20.74 69.332 0.496 7.92 3.82 7.62
8/2/2022 5:00:00 AM 20.72 69.296 0.495 7.91 4.28 7.64
8/2/2022 5:15:00 AM 20.7 69.26 0.494 7.91 3.77 7.65
8/2/2022 5:30:00 AM 20.67 69.206 0.493 7.9 3.92 7.64
8/2/2022 5:45:00 AM 20.65 69.17 0.492 7.9 5.18 7.63
8/2/2022 6:00:00 AM 20.63 69.134 0.491 7.9 4.3 7.64
8/2/2022 6:15:00 AM 20.61 69.098 0.49 7.89 3.85 7.65
8/2/2022 6:30:00 AM 20.59 69.062 0.489 7.9 3.57 7.66
8/2/2022 6:45:00 AM 20.58 69.044 0.488 7.89 3.46 7.69
8/2/2022 7:00:00 AM 20.56 69.008 0.486 7.89 3.28 7.72
8/2/2022 7:15:00 AM 20.55 68.99 0.485 7.9 3.22 7.74
8/2/2022 7:30:00 AM 20.55 68.99 0.484 7.91 3.16 7.86
8/2/2022 7:45:00 AM 20.56 69.008 0.483 7.91 3.53 7.94
8/2/2022 8:00:00 AM 20.56 69.008 0.482 7.92 3.02 8.03
8/2/2022 8:15:00 AM 20.61 69.098 0.481 7.95 2.99 8.3
8/2/2022 8:30:00 AM 20.61 69.098 0.48 7.98 2.95 8.31
8/2/2022 8:45:00 AM 20.64 69.152 0.479 8 2.93 8.55
8/2/2022 9:00:00 AM 20.72 69.296 0.477 8.05 2.87 8.87
8/2/2022 9:15:00 AM 20.79 69.422 0.476 8.09 2.85 9.09
8/2/2022 9:30:00 AM 20.82 69.476 0.474 8.12 2.84 9.24
8/2/2022 9:45:00 AM 20.92 69.656 0.473 8.16 2.79 9.48
8/2/2022 10:00:00 AM 20.94 69.692 0.472 8.19 2.9 9.48
8/2/2022 10:15:00 AM 21.07 69.926 0.47 8.23 2.64 9.77
8/2/2022 10:30:00 AM 21.28 70.304 0.469 8.29 2.59 10.02
8/2/2022 10:45:00 AM 21.24 70.232 0.468 8.28 2.67 9.84
8/2/2022 11:00:00 AM 21.62 70.916 0.466 8.36 2.48 10.4
8/2/2022 11:15:00 AM 21.48 70.664 0.466 8.34 2.61 10.03
8/2/2022 11:30:00 AM 21.67 71.006 0.464 8.42 2.42 10.47
8/2/2022 11:45:00 AM 21.76 71.168 0.463 8.43 2.45 10.47
8/2/2022 12:00:00 PM 22.32 72.176 0.462 8.5 3.87 10.89
8/2/2022 12:15:00 PM 22.22 71.996 0.46 8.53 2.51 10.84
8/2/2022 12:30:00 PM 22.48 72.464 0.46 8.57 2.46 11.09
8/2/2022 12:45:00 PM 22.39 72.302 0.459 8.58 2.57 10.86
8/2/2022 1:00:00 PM 22.54 72.57201 0.458 8.6 2.43 11.06
8/2/2022 1:15:00 PM 22.77 72.986 0.458 8.63 2.45 11.18
8/2/2022 1:30:00 PM 22.95 73.31 0.457 8.67 2.46 11.27
8/2/2022 1:45:00 PM 23.21 73.778 0.457 8.69 2.41 11.36
8/2/2022 2:00:00 PM 23.3 73.94 0.456 8.72 2.4 11.41
8/2/2022 2:15:00 PM 23.57 74.426 0.456 8.75 2.39 11.49
8/2/2022 2:30:00 PM 23.62 74.516 0.456 8.75 2.36 11.27
8/2/2022 2:45:00 PM 23.68 74.624 0.456 8.75 2.35 11.12
8/2/2022 3:00:00 PM 23.83 74.894 0.456 8.77 2.31 11.09
8/2/2022 3:15:00 PM 23.93 75.074 0.456 8.77 2.35 10.99
8/2/2022 3:30:00 PM 24.06 75.308 0.456 8.77 2.33 10.95
8/2/2022 3:45:00 PM 24.12 75.416 0.456 8.8 2.39 10.98
8/2/2022 4:00:00 PM 24.16 75.488 0.456 8.79 2.3 10.81
8/2/2022 4:15:00 PM 24.13 75.434 0.456 8.79 2.54 10.65
8/2/2022 4:30:00 PM 24.14 75.452 0.456 8.79 2.6 10.61
8/2/2022 4:45:00 PM 24.04 75.272 0.457 8.76 2.42 10.28
8/2/2022 5:00:00 PM 24.01 75.218 0.457 8.76 2.42 10.18
8/2/2022 5:15:00 PM 23.91 75.038 0.458 8.72 2.44 9.89
8/2/2022 5:30:00 PM 23.87 74.966 0.459 8.71 2.42 9.77
8/2/2022 5:45:00 PM 23.83 74.894 0.459 8.69 2.4 9.62
8/2/2022 6:00:00 PM 23.77 74.786 0.46 8.67 2.52 9.5
8/2/2022 6:15:00 PM 23.72 74.696 0.46 8.66 2.6 9.41
8/2/2022 6:30:00 PM 23.66 74.588 0.461 8.64 2.97 9.25
8/2/2022 6:45:00 PM 23.55 74.39 0.462 8.59 3.85 8.99
8/2/2022 7:00:00 PM 23.45 74.21 0.463 8.55 3.28 8.82
8/2/2022 7:15:00 PM 23.34 74.012 0.464 8.51 3.18 8.57
8/2/2022 7:30:00 PM 23.25 73.85 0.464 8.48 3.74 8.44
8/2/2022 7:45:00 PM 23.17 73.706 0.465 8.44 2.68 8.28
8/2/2022 8:00:00 PM 23.11 73.598 0.465 8.42 4.21 8.17
8/2/2022 8:15:00 PM 23.05 73.49 0.465 8.39 2.82 8.05
8/2/2022 8:30:00 PM 23 73.4 0.466 8.36 4.28 7.94
8/2/2022 8:45:00 PM 22.94 73.292 0.466 8.33 3.04 7.82
8/2/2022 9:00:00 PM 22.89 73.202 0.465 8.31 3.99 7.73
8/2/2022 9:15:00 PM 22.83 73.094 0.465 8.28 3.41 7.64
8/2/2022 9:30:00 PM 22.77 72.986 0.465 8.26 3.7 7.56
8/2/2022 9:45:00 PM 22.71 72.878 0.464 8.24 4.66 7.5
8/2/2022 10:00:00 PM 22.65 72.77 0.464 8.21 6.8 7.45
8/2/2022 10:15:00 PM 22.58 72.644 0.463 8.18 5.12 7.42
8/2/2022 10:30:00 PM 22.51 72.518 0.462 8.17 5.81 7.38
8/2/2022 10:45:00 PM 22.44 72.392 0.462 8.16 4.14 7.38
8/2/2022 11:00:00 PM 22.37 72.266 0.461 8.14 4.65 7.37
8/2/2022 11:15:00 PM 22.31 72.158 0.461 8.12 4.94 7.37
8/2/2022 11:30:00 PM 22.23 72.014 0.46 8.12 3.84 7.38
8/2/2022 11:45:00 PM 22.16 71.888 0.46 8.1 4.71 7.37
8/3/2022 12:00:00 AM 22.09 71.762 0.46 8.09 15.31 7.36
8/3/2022 12:15:00 AM 22 71.6 0.459 8.07 7.17 7.37
8/3/2022 12:30:00 AM 21.93 71.474 0.459 8.07 3.69 7.37
8/3/2022 12:45:00 AM 21.84 71.312 0.459 8.05 9.11 7.35
8/3/2022 1:00:00 AM 21.77 71.186 0.46 8.04 9.46 7.35
8/3/2022 1:15:00 AM 21.68 71.024 0.46 8.04 4.54 7.39
8/3/2022 1:30:00 AM 21.59 70.862 0.46 8.03 5.46 7.4
8/3/2022 1:45:00 AM 21.51 70.718 0.46 8.02 3.83 7.41
8/3/2022 2:00:00 AM 21.44 70.592 0.46 8 4.03 7.42
8/3/2022 2:15:00 AM 21.36 70.448 0.461 7.99 3.91 7.45
8/3/2022 2:30:00 AM 21.27 70.286 0.461 7.99 3.73 7.47
8/3/2022 2:45:00 AM 21.18 70.124 0.462 7.98 3.71 7.48
8/3/2022 3:00:00 AM 21.09 69.962 0.463 7.98 3.6 7.51
8/3/2022 3:15:00 AM 21 69.8 0.463 7.96 3.89 7.52
8/3/2022 3:30:00 AM 20.92 69.656 0.464 7.95 4.11 7.53
8/3/2022 3:45:00 AM 20.84 69.512 0.465 7.94 4.08 7.54
8/3/2022 4:00:00 AM 20.75 69.35 0.466 7.94 3.93 7.58
8/3/2022 4:15:00 AM 20.66 69.188 0.466 7.93 4.04 7.58
8/3/2022 4:30:00 AM 20.57 69.026 0.467 7.92 5.42 7.6
8/3/2022 4:45:00 AM 20.47 68.846 0.468 7.91 6.66 7.61
8/3/2022 5:00:00 AM 20.38 68.684 0.469 7.91 4.14 7.64
8/3/2022 5:15:00 AM 20.29 68.522 0.47 7.91 4.39 7.65
8/3/2022 5:30:00 AM 20.2 68.36 0.47 7.9 4.31 7.69
8/3/2022 5:45:00 AM 20.11 68.198 0.471 7.89 5.08 7.68
8/3/2022 6:00:00 AM 20.02 68.036 0.468 7.89 6.11 7.72
8/3/2022 6:15:00 AM 19.93 67.874 0.473 7.88 3.85 7.73
8/3/2022 6:30:00 AM 19.84 67.712 0.473 7.88 3.61 7.74
8/3/2022 6:45:00 AM 19.76 67.568 0.474 7.88 3.8 7.78
8/3/2022 7:00:00 AM 19.69 67.442 0.474 7.88 3.57 7.85
8/3/2022 7:15:00 AM 19.64 67.352 0.475 7.9 3.43 7.95
8/3/2022 7:30:00 AM 19.58 67.244 0.475 7.91 2.91 8.03
8/3/2022 7:45:00 AM 19.54 67.172 0.475 7.92 3.08 8.13
8/3/2022 8:00:00 AM 19.5 67.1 0.475 7.94 3.18 8.21
8/3/2022 8:15:00 AM 19.48 67.064 0.475 7.95 2.72 8.34
8/3/2022 8:30:00 AM 19.48 67.064 0.475 7.97 2.73 8.49
8/3/2022 8:45:00 AM 19.51 67.118 0.474 7.99 2.67 8.66
8/3/2022 9:00:00 AM 19.56 67.208 0.474 8.03 2.52 8.86
8/3/2022 9:15:00 AM 19.66 67.388 0.474 8.07 2.59 9.09
8/3/2022 9:30:00 AM 19.77 67.586 0.474 8.11 2.56 9.29
8/3/2022 9:45:00 AM 19.9 67.82 0.473 8.14 2.64 9.49
8/3/2022 10:00:00 AM 20.04 68.07201 0.473 8.19 2.87 9.66
8/3/2022 10:15:00 AM 20.24 68.432 0.473 8.23 2.41 9.9
8/3/2022 10:30:00 AM 20.49 68.882 0.472 8.28 2.47 10.12
8/3/2022 10:45:00 AM 20.79 69.422 0.472 8.33 2.29 10.37
8/3/2022 11:00:00 AM 21.14 70.052 0.472 8.38 2.51 10.61
8/3/2022 11:15:00 AM 21.48 70.664 0.471 8.43 2.32 10.84
8/3/2022 11:30:00 AM 21.83 71.294 0.471 8.49 2.35 11.07
8/3/2022 11:45:00 AM 22.22 71.996 0.471 8.52 2.42 11.26
8/3/2022 12:00:00 PM 22.51 72.518 0.471 8.58 2.35 11.4
8/3/2022 12:15:00 PM 22.57 72.626 0.471 8.61 2.33 11.36
8/3/2022 12:30:00 PM 22.87 73.166 0.471 8.64 2.4 11.58
8/3/2022 12:45:00 PM 22.88 73.184 0.471 8.65 2.33 11.51
8/3/2022 1:00:00 PM 22.81 73.058 0.471 8.66 2.33 11.38
8/3/2022 1:15:00 PM 22.94 73.292 0.471 8.68 2.35 11.49
8/3/2022 1:30:00 PM 23.09 73.562 0.471 8.7 2.3 11.5
8/3/2022 1:45:00 PM 23.23 73.814 0.471 8.72 2.32 11.48
8/3/2022 2:00:00 PM 23.35 74.03 0.471 8.73 2.33 11.46
8/3/2022 2:15:00 PM 23.49 74.282 0.472 8.74 2.28 11.38
8/3/2022 2:30:00 PM 23.59 74.462 0.472 8.75 2.3 11.27
8/3/2022 2:45:00 PM 23.68 74.624 0.473 8.76 2.2 11.15
8/3/2022 3:00:00 PM 23.75 74.75 0.473 8.76 2.31 11
8/3/2022 3:15:00 PM 23.82 74.876 0.474 8.76 2.25 10.89
8/3/2022 3:30:00 PM 23.91 75.038 0.474 8.77 2.31 10.81
8/3/2022 3:45:00 PM 23.99 75.182 0.474 8.77 2.32 10.74
8/3/2022 4:00:00 PM 24.08 75.344 0.475 8.77 2.3 10.66
8/3/2022 4:15:00 PM 24.16 75.488 0.475 8.78 2.31 10.59
8/3/2022 4:30:00 PM 24.21 75.578 0.475 8.77 2.3 10.48
8/3/2022 4:45:00 PM 24.25 75.65 0.476 8.77 2.41 10.34
8/3/2022 5:00:00 PM 24.25 75.65 0.476 8.76 2.5 10.17
8/3/2022 5:15:00 PM 24.24 75.632 0.477 8.74 2.59 10.02
8/3/2022 5:30:00 PM 24.24 75.632 0.477 8.73 2.46 9.86
8/3/2022 5:45:00 PM 24.2 75.56 0.478 8.71 2.49 9.7
8/3/2022 6:00:00 PM 24.13 75.434 0.478 8.68 2.53 9.52
8/3/2022 6:15:00 PM 24.07 75.326 0.478 8.66 2.43 9.34
8/3/2022 6:30:00 PM 23.99 75.182 0.479 8.63 2.8 9.15
8/3/2022 6:45:00 PM 23.89 75.002 0.479 8.59 2.62 8.93
8/3/2022 7:00:00 PM 23.82 74.876 0.479 8.54 14.79 8.71
8/3/2022 7:15:00 PM 23.71 74.67799 0.48 8.51 3.54 8.52
8/3/2022 7:30:00 PM 23.64 74.552 0.48 8.47 6.04 8.34
8/3/2022 7:45:00 PM 23.57 74.426 0.48 8.44 2.74 8.21
8/3/2022 8:00:00 PM 23.52 74.336 0.48 8.4 2.8 8.05
8/3/2022 8:15:00 PM 23.47 74.246 0.479 8.37 3.65 7.89
8/3/2022 8:30:00 PM 23.43 74.174 0.48 8.34 2.72 7.8
8/3/2022 8:45:00 PM 23.38 74.084 0.48 8.3 2.85 7.69
8/3/2022 9:00:00 PM 23.33 73.994 0.481 8.28 3.37 7.59
8/3/2022 9:15:00 PM 23.29 73.922 0.482 8.25 2.98 7.5
8/3/2022 9:30:00 PM 23.25 73.85 0.482 8.23 3.05 7.44
8/3/2022 9:45:00 PM 23.21 73.778 0.482 8.22 3.56 7.37
8/3/2022 10:00:00 PM 23.17 73.706 0.481 8.19 4.46 7.33
8/3/2022 10:15:00 PM 23.12 73.616 0.481 8.17 4.08 7.27
8/3/2022 10:30:00 PM 23.09 73.562 0.48 8.16 4.1 7.25
8/3/2022 10:45:00 PM 23.05 73.49 0.479 8.14 3.87 7.24
8/3/2022 11:00:00 PM 23.01 73.418 0.478 8.13 3.79 7.2
8/3/2022 11:15:00 PM 22.97 73.346 0.478 8.12 4.37 7.19
8/3/2022 11:30:00 PM 22.92 73.256 0.477 8.1 22.46 7.17
8/3/2022 11:45:00 PM 22.88 73.184 0.476 8.09 3.74 7.18
8/4/2022 12:00:00 AM 22.83 73.094 0.476 8.08 5.15 7.16
8/4/2022 12:15:00 AM 22.79 73.022 0.475 8.08 4.5 7.16
8/4/2022 12:30:00 AM 22.75 72.95 0.475 8.06 5.06 7.14
8/4/2022 12:45:00 AM 22.7 72.86 0.474 8.06 3.98 7.15
8/4/2022 1:00:00 AM 22.64 72.752 0.474 8.04 4.09 7.14
8/4/2022 1:15:00 AM 22.59 72.662 0.474 8.03 4.64 7.13
8/4/2022 1:30:00 AM 22.54 72.57201 0.474 8.03 3.8 7.16
8/4/2022 1:45:00 AM 22.48 72.464 0.474 8.02 3.73 7.15
8/4/2022 2:00:00 AM 22.42 72.356 0.473 8.01 5.66 7.15
8/4/2022 2:15:00 AM 22.36 72.248 0.473 8 4.58 7.17
8/4/2022 2:30:00 AM 22.3 72.14 0.473 7.99 5.98 7.18
8/4/2022 2:45:00 AM 22.23 72.014 0.474 7.98 7.13 7.2
8/4/2022 3:00:00 AM 22.16 71.888 0.474 7.97 4.54 7.2
8/4/2022 3:15:00 AM 22.09 71.762 0.474 7.97 4.25 7.22
8/4/2022 3:30:00 AM 22.03 71.654 0.474 7.95 4.04 7.22
8/4/2022 3:45:00 AM 21.96 71.528 0.475 7.95 4.23 7.23
8/4/2022 4:00:00 AM 21.89 71.402 0.475 7.95 3.86 7.25
8/4/2022 4:15:00 AM 21.82 71.276 0.476 7.94 4.99 7.26
8/4/2022 4:30:00 AM 21.74 71.132 0.476 7.94 4.21 7.29
8/4/2022 4:45:00 AM 21.67 71.006 0.477 7.93 3.87 7.3
8/4/2022 5:00:00 AM 21.6 70.88 0.477 7.93 3.9 7.33
8/4/2022 5:15:00 AM 21.53 70.754 0.478 7.92 4.11 7.36
8/4/2022 5:30:00 AM 21.46 70.628 0.478 7.92 3.94 7.38
8/4/2022 5:45:00 AM 21.39 70.502 0.478 7.9 3.89 7.39
8/4/2022 6:00:00 AM 21.32 70.376 0.479 7.9 4.29 7.39
8/4/2022 6:15:00 AM 21.26 70.268 0.479 7.9 3.59 7.41
8/4/2022 6:30:00 AM 21.19 70.142 0.48 7.89 3.71 7.44
8/4/2022 6:45:00 AM 21.14 70.052 0.48 7.9 3.72 7.5
8/4/2022 7:00:00 AM 21.09 69.962 0.48 7.9 3.74 7.56
8/4/2022 7:15:00 AM 21.04 69.872 0.481 7.9 5.24 7.6
8/4/2022 7:30:00 AM 21.01 69.818 0.481 7.92 11 7.73
8/4/2022 7:45:00 AM 20.99 69.782 0.481 7.92 3.26 7.87
8/4/2022 8:00:00 AM 20.97 69.746 0.48 7.94 3.27 7.98
8/4/2022 8:15:00 AM 20.97 69.746 0.48 7.95 3.02 8.11
8/4/2022 8:30:00 AM 20.98 69.764 0.48 7.97 3.57 8.25
8/4/2022 8:45:00 AM 21.02 69.836 0.48 8 2.88 8.43
8/4/2022 9:00:00 AM 21.09 69.962 0.479 8.03 2.9 8.63
8/4/2022 9:15:00 AM 21.2 70.16 0.479 8.06 2.81 8.84
8/4/2022 9:30:00 AM 21.3 70.34 0.478 8.09 2.9 9.06
8/4/2022 9:45:00 AM 21.44 70.592 0.477 8.14 2.81 9.28
8/4/2022 10:00:00 AM 21.6 70.88 0.477 8.19 2.77 9.48
8/4/2022 10:15:00 AM 21.84 71.312 0.476 8.23 2.72 9.72
8/4/2022 10:30:00 AM 22.12 71.816 0.475 8.29 2.63 10.02
8/4/2022 10:45:00 AM 22.37 72.266 0.474 8.34 2.57 10.24
8/4/2022 11:00:00 AM 22.54 72.57201 0.474 8.37 2.64 10.32
8/4/2022 11:15:00 AM 22.54 72.57201 0.474 8.38 2.6 10.21
8/4/2022 11:30:00 AM 22.88 73.184 0.473 8.44 2.74 10.51
8/4/2022 11:45:00 AM 22.74 72.932 0.473 8.41 2.74 10.15
8/4/2022 12:00:00 PM 23.27 73.886 0.473 8.48 2.75 10.72
8/4/2022 12:15:00 PM 23.39 74.102 0.472 8.53 2.96 10.8
8/4/2022 12:30:00 PM 23.37 74.066 0.472 8.53 2.48 10.8
8/4/2022 12:45:00 PM 23.51 74.318 0.471 8.57 2.54 10.9
8/4/2022 1:00:00 PM 23.86 74.948 0.47 8.62 2.74 11.18
8/4/2022 1:15:00 PM 23.67 74.606 0.471 8.61 2.56 10.77
8/4/2022 1:30:00 PM 23.77 74.786 0.47 8.64 2.66 11.1
8/4/2022 1:45:00 PM 24.2 75.56 0.47 8.69 2.51 11.53
8/4/2022 2:00:00 PM 24.39 75.902 0.47 8.71 2.43 11.46
8/4/2022 2:15:00 PM 24.36 75.848 0.47 8.73 2.48 11.4
8/4/2022 2:30:00 PM 24.48 76.064 0.469 8.76 2.58 11.47
8/4/2022 2:45:00 PM 24.54 76.172 0.47 8.78 2.54 11.41
8/4/2022 3:00:00 PM 24.56 76.208 0.47 8.79 2.49 11.34
8/4/2022 3:15:00 PM 24.46 76.028 0.47 8.78 2.58 10.93
8/4/2022 3:30:00 PM 24.17 75.506 0.467 8.73 2.92 10.18
8/4/2022 3:45:00 PM 24.02 75.236 0.468 8.7 3.24 9.94
8/4/2022 4:00:00 PM 23.9 75.02 0.47 8.67 2.85 9.65
8/4/2022 4:15:00 PM 23.75 74.75 0.47 8.63 2.89 9.41
8/4/2022 4:30:00 PM 23.63 74.534 0.471 8.59 2.59 9.22
8/4/2022 4:45:00 PM 23.54 74.372 0.473 8.57 2.64 9.2
8/4/2022 5:00:00 PM 23.5 74.3 0.474 8.57 2.64 9.32
8/4/2022 5:15:00 PM 23.45 74.21 0.475 8.55 2.72 9.26
8/4/2022 5:30:00 PM 23.37 74.066 0.477 8.53 2.75 9.19
8/4/2022 5:45:00 PM 23.3 73.94 0.477 8.52 2.72 9.08
8/4/2022 6:00:00 PM 23.23 73.814 0.478 8.49 2.71 8.92
8/4/2022 6:15:00 PM 23.14 73.652 0.479 8.45 2.7 8.63
8/4/2022 6:30:00 PM 23.04 73.472 0.479 8.41 2.81 8.47
8/4/2022 6:45:00 PM 22.96 73.328 0.478 8.37 2.9 8.31
8/4/2022 7:00:00 PM 22.88 73.184 0.478 8.32 3.04 8.14
8/4/2022 7:15:00 PM 22.79 73.022 0.472 8.24 3.82 7.98
8/4/2022 7:30:00 PM 22.7 72.86 0.469 8.21 4.2 7.92
8/4/2022 7:45:00 PM 22.65 72.77 0.467 8.19 4.2 7.89
8/4/2022 8:00:00 PM 22.61 72.698 0.466 8.18 4.74 7.87
8/4/2022 8:15:00 PM 22.58 72.644 0.465 8.17 5.11 7.79
8/4/2022 8:30:00 PM 22.55 72.59 0.466 8.15 5.6 7.71
8/4/2022 8:45:00 PM 22.52 72.536 0.465 8.14 5.88 7.65
8/4/2022 9:00:00 PM 22.49 72.482 0.466 8.12 6.41 7.58
8/4/2022 9:15:00 PM 22.47 72.446 0.466 8.11 6.8 7.53
8/4/2022 9:30:00 PM 22.44 72.392 0.467 8.1 8.21 7.47
8/4/2022 9:45:00 PM 22.41 72.338 0.468 8.1 7.34 7.47
8/4/2022 10:00:00 PM 22.38 72.284 0.469 8.08 8.95 7.43
8/4/2022 10:15:00 PM 22.35 72.23 0.47 8.08 6.88 7.44
8/4/2022 10:30:00 PM 22.32 72.176 0.471 8.06 15.31 7.42
8/4/2022 10:45:00 PM 22.28 72.104 0.471 8.06 19.48 7.44
8/4/2022 11:00:00 PM 22.24 72.032 0.472 8.05 7.73 7.45
8/4/2022 11:15:00 PM 22.19 71.942 0.473 8.04 8.76 7.44
8/4/2022 11:30:00 PM 22.15 71.87 0.472 8.04 7.96 7.46
8/4/2022 11:45:00 PM 22.11 71.798 0.472 8.03 7.34 7.46
8/5/2022 12:00:00 AM 22.08 71.744 0.472 8.03 6.32 7.47
8/5/2022 12:15:00 AM 22.04 71.672 0.47 8.02 6.67 7.45
8/5/2022 12:30:00 AM 22.01 71.618 0.471 8.01 6.19 7.45
8/5/2022 12:45:00 AM 21.99 71.582 0.47 8 6.08 7.44
8/5/2022 1:00:00 AM 21.97 71.546 0.47 8 5.98 7.43
8/5/2022 1:15:00 AM 21.93 71.474 0.467 8 6.07 7.52
8/5/2022 1:30:00 AM 21.88 71.384 0.462 7.99 6.89 7.53
8/5/2022 1:45:00 AM 21.87 71.366 0.464 7.98 6.82 7.49
8/5/2022 2:00:00 AM 21.83 71.294 0.463 7.97 5.74 7.52
8/5/2022 2:15:00 AM 21.8 71.24 0.464 7.97 6.98 7.52
8/5/2022 2:30:00 AM 21.76 71.168 0.466 7.96 7.99 7.52
8/5/2022 2:45:00 AM 21.71 71.078 0.469 7.95 10 7.53
8/5/2022 3:00:00 AM 21.65 70.97 0.471 7.94 8.98 7.55
8/5/2022 3:15:00 AM 21.6 70.88 0.473 7.94 10.67 7.58
8/5/2022 3:30:00 AM 21.54 70.772 0.474 7.93 8.98 7.61
8/5/2022 3:45:00 AM 21.49 70.682 0.474 7.93 10.03 7.64
8/5/2022 4:00:00 AM 21.43 70.574 0.469 7.93 9.96 7.67
8/5/2022 4:15:00 AM 21.35 70.43 0.458 7.92 10.53 7.71
8/5/2022 4:30:00 AM 21.3 70.34 0.456 7.91 11.26 7.75
8/5/2022 4:45:00 AM 21.27 70.286 0.456 7.91 12.02 7.76
8/5/2022 5:00:00 AM 21.25 70.25 0.458 7.9 9.25 7.78
8/5/2022 5:15:00 AM 21.22 70.196 0.461 7.91 8.37 7.8
8/5/2022 5:30:00 AM 21.19 70.142 0.463 7.91 9.01 7.81
8/5/2022 5:45:00 AM 21.16 70.088 0.467 7.91 8.64 7.83
8/5/2022 6:00:00 AM 21.12 70.016 0.468 7.91 8.93 7.84
8/5/2022 6:15:00 AM 21.08 69.944 0.471 7.91 8.24 7.83
8/5/2022 6:30:00 AM 21.05 69.89 0.471 7.91 7.92 7.88
8/5/2022 6:45:00 AM 21.02 69.836 0.471 7.91 6.97 7.9
8/5/2022 7:00:00 AM 20.99 69.782 0.47 7.91 7.06 7.93
8/5/2022 7:15:00 AM 20.97 69.746 0.471 7.91 6.58 7.97
8/5/2022 7:30:00 AM 20.95 69.71 0.47 7.91 6.43 7.99
8/5/2022 7:45:00 AM 20.94 69.692 0.47 7.92 6.03 8.04
8/5/2022 8:00:00 AM 20.94 69.692 0.469 7.94 6.25 8.08
8/5/2022 8:15:00 AM 20.95 69.71 0.468 7.95 5.83 8.29
8/5/2022 8:30:00 AM 20.95 69.71 0.467 7.96 5.95 8.36
8/5/2022 8:45:00 AM 20.95 69.71 0.466 7.98 5.12 8.43
8/5/2022 9:00:00 AM 20.96 69.728 0.466 8 4.81 8.55
8/5/2022 9:15:00 AM 20.97 69.746 0.465 8.01 4.7 8.6
8/5/2022 9:30:00 AM 20.98 69.764 0.464 8.03 4.68 8.72
8/5/2022 9:45:00 AM 21.02 69.836 0.463 8.06 4.29 8.91
8/5/2022 10:00:00 AM 21.05 69.89 0.462 8.08 4.26 8.99
8/5/2022 10:15:00 AM 21.13 70.034 0.461 8.13 4.36 9.27
8/5/2022 10:30:00 AM 21.19 70.142 0.46 8.17 3.85 9.45
8/5/2022 10:45:00 AM 21.29 70.32201 0.458 8.22 3.66 9.73
8/5/2022 11:00:00 AM 21.38 70.484 0.457 8.26 3.66 9.9
8/5/2022 11:15:00 AM 21.55 70.79 0.455 8.32 4.01 10.16
8/5/2022 11:30:00 AM 21.7 71.06 0.453 8.37 3.34 10.37
8/5/2022 11:45:00 AM 22.17 71.906 0.453 8.43 3.34 10.64
8/5/2022 12:00:00 PM 22.29 72.122 0.452 8.47 3.23 10.75
8/5/2022 12:15:00 PM 22.31 72.158 0.451 8.5 3.54 10.77
8/5/2022 12:30:00 PM 22.48 72.464 0.45 8.55 3.23 10.95
8/5/2022 12:45:00 PM 22.57 72.626 0.448 8.58 9.38 10.98
8/5/2022 1:00:00 PM 22.73 72.914 0.448 8.61 3.04 11.18
8/5/2022 1:15:00 PM 22.94 73.292 0.447 8.64 3.24 11.27
8/5/2022 1:30:00 PM 23.23 73.814 0.446 8.68 3.07 11.33
8/5/2022 1:45:00 PM 23.36 74.048 0.446 8.7 3.13 11.32
8/5/2022 2:00:00 PM 23.52 74.336 0.445 8.73 2.97 11.27
8/5/2022 2:15:00 PM 23.48 74.264 0.443 8.7 3.02 10.79
8/5/2022 2:30:00 PM 23.48 74.264 0.442 8.71 3.25 10.71
8/5/2022 2:45:00 PM 23.35 74.03 0.442 8.67 3.39 10.25
8/5/2022 3:00:00 PM 23.27 73.886 0.437 8.63 5.49 9.89
8/5/2022 3:15:00 PM 23.17 73.706 0.434 8.59 3.36 9.53
8/5/2022 3:30:00 PM 23.07 73.526 0.434 8.54 3.27 9.24
8/5/2022 3:45:00 PM 22.97 73.346 0.433 8.49 3.25 9.01
8/5/2022 4:00:00 PM 22.94 73.292 0.433 8.47 3.37 9.04
8/5/2022 4:15:00 PM 23 73.4 0.433 8.48 3.36 9.26
8/5/2022 4:30:00 PM 22.95 73.31 0.433 8.45 4.39 9.13
8/5/2022 4:45:00 PM 23.01 73.418 0.432 8.48 3.29 9.32
8/5/2022 5:00:00 PM 23.01 73.418 0.431 8.47 3.47 9.3
8/5/2022 5:15:00 PM 22.99 73.382 0.431 8.48 3.3 9.3
8/5/2022 5:30:00 PM 22.94 73.292 0.432 8.47 3.41 9.21
8/5/2022 5:45:00 PM 22.89 73.202 0.432 8.45 3.58 9.09
8/5/2022 6:00:00 PM 22.82 73.076 0.432 8.41 3.56 8.89
8/5/2022 6:15:00 PM 22.76 72.968 0.428 8.36 3.55 8.71
8/5/2022 6:30:00 PM 22.74 72.932 0.425 8.34 4.13 8.62
8/5/2022 6:45:00 PM 22.78 73.004 0.424 8.34 3.86 8.7
8/5/2022 7:00:00 PM 22.79 73.022 0.425 8.34 4.15 8.65
8/5/2022 7:15:00 PM 22.78 73.004 0.424 8.33 4.19 8.54
8/5/2022 7:30:00 PM 22.76 72.968 0.425 8.31 3.74 8.43
8/5/2022 7:45:00 PM 22.72 72.896 0.427 8.27 3.85 8.29
8/5/2022 8:00:00 PM 22.68 72.824 0.428 8.24 4.03 8.18
8/5/2022 8:15:00 PM 22.63 72.734 0.429 8.2 4.03 8.07
8/5/2022 8:30:00 PM 22.58 72.644 0.429 8.17 4.65 7.97
8/5/2022 8:45:00 PM 22.53 72.554 0.429 8.14 4.83 7.88
8/5/2022 9:00:00 PM 22.47 72.446 0.431 8.12 23.56 7.9
8/5/2022 9:15:00 PM 22.43 72.374 0.435 8.11 27.74 7.96
8/5/2022 9:30:00 PM 22.38 72.284 0.436 8.09 27.11 8.02
8/5/2022 9:45:00 PM 22.35 72.23 0.434 8.07 23.26 8.03
8/5/2022 10:00:00 PM 22.3 72.14 0.432 8.04 22.79 8.02
8/5/2022 10:15:00 PM 22.23 72.014 0.428 8.01 19.53 8
8/5/2022 10:30:00 PM 22.14 71.852 0.426 7.98 20 7.99
8/5/2022 10:45:00 PM 22.05 71.69 0.426 7.96 18.95 7.99
8/5/2022 11:00:00 PM 21.95 71.51 0.431 7.94 18.03 8.01
8/5/2022 11:15:00 PM 21.87 71.366 0.442 7.92 19.59 7.99
8/5/2022 11:30:00 PM 21.8 71.24 0.452 7.92 15.32 8.01
8/5/2022 11:45:00 PM 21.73 71.114 0.464 7.92 15.3 8.01
8/6/2022 12:00:00 AM 21.66 70.988 0.472 7.92 15.44 8.01
8/6/2022 12:15:00 AM 21.61 70.898 0.477 7.92 20.48 8.01
8/6/2022 12:30:00 AM 21.56 70.808 0.479 7.91 14.06 8.02
8/6/2022 12:45:00 AM 21.52 70.736 0.479 7.91 15.22 8.01
8/6/2022 1:00:00 AM 21.48 70.664 0.477 7.92 14.28 8.01
8/6/2022 1:15:00 AM 21.45 70.61 0.473 7.91 14.11 8.01
8/6/2022 1:30:00 AM 21.42 70.556 0.467 7.91 13.99 8.01
8/6/2022 1:45:00 AM 21.41 70.538 0.46 7.91 14.17 8
8/6/2022 2:00:00 AM 21.39 70.502 0.453 7.9 14.22 7.99
8/6/2022 2:15:00 AM 21.38 70.484 0.445 7.89 15.14 7.98
8/6/2022 2:30:00 AM 21.37 70.466 0.437 7.89 14.16 7.98
8/6/2022 2:45:00 AM 21.36 70.448 0.429 7.88 15.19 7.97
8/6/2022 3:00:00 AM 21.35 70.43 0.42 7.87 15.45 7.97
8/6/2022 3:15:00 AM 21.34 70.412 0.413 7.86 15.87 7.96
8/6/2022 3:30:00 AM 21.32 70.376 0.405 7.85 17.42 7.95
8/6/2022 3:45:00 AM 21.29 70.32201 0.398 7.84 20.15 7.95
8/6/2022 4:00:00 AM 21.26 70.268 0.392 7.83 20.91 7.93
8/6/2022 4:15:00 AM 21.23 70.214 0.386 7.83 22.76 7.92
8/6/2022 4:30:00 AM 21.2 70.16 0.381 7.82 24.08 7.92
8/6/2022 4:45:00 AM 21.17 70.106 0.376 7.81 25.43 7.93
8/6/2022 5:00:00 AM 21.14 70.052 0.373 7.81 24.88 7.93
8/6/2022 5:15:00 AM 21.11 69.998 0.371 7.8 27.91 7.91
8/6/2022 5:30:00 AM 21.08 69.944 0.37 7.79 29.45 7.93
8/6/2022 5:45:00 AM 21.06 69.908 0.369 7.78 31.24 7.91
8/6/2022 6:00:00 AM 21.04 69.872 0.369 7.79 33.7 7.91
8/6/2022 6:15:00 AM 21.02 69.836 0.369 7.79 37.45 7.9
8/6/2022 6:30:00 AM 21 69.8 0.369 7.78 33.7 7.92
8/6/2022 6:45:00 AM 20.99 69.782 0.37 7.78 32.19 7.92
8/6/2022 7:00:00 AM 20.97 69.746 0.37 7.78 33.07 7.94
8/6/2022 7:15:00 AM 20.96 69.728 0.371 7.79 33.39 7.98
8/6/2022 7:30:00 AM 20.96 69.728 0.371 7.8 33.84 8.04
8/6/2022 7:45:00 AM 20.97 69.746 0.371 7.81 32.39 8.09
8/6/2022 8:00:00 AM 20.98 69.764 0.372 7.82 31.28 8.16
8/6/2022 8:15:00 AM 20.99 69.782 0.372 7.83 30.97 8.2
8/6/2022 8:30:00 AM 21.01 69.818 0.372 7.84 30.48 8.28
8/6/2022 8:45:00 AM 21.03 69.854 0.372 7.86 28.77 8.36
8/6/2022 9:00:00 AM 21.06 69.908 0.373 7.87 28.97 8.42
8/6/2022 9:15:00 AM 21.08 69.944 0.373 7.88 29.1 8.47
8/6/2022 9:30:00 AM 21.12 70.016 0.374 7.9 27.63 8.57
8/6/2022 9:45:00 AM 21.17 70.106 0.374 7.92 25.33 8.68
8/6/2022 10:00:00 AM 21.2 70.16 0.375 7.94 25.95 8.74
8/6/2022 10:15:00 AM 21.28 70.304 0.376 7.97 23.85 8.91
8/6/2022 10:30:00 AM 21.45 70.61 0.377 8.03 22.44 9.17
8/6/2022 10:45:00 AM 21.59 70.862 0.379 8.07 22.12 9.4
8/6/2022 11:00:00 AM 21.76 71.168 0.38 8.13 20.61 9.58
8/6/2022 11:15:00 AM 21.91 71.438 0.38 8.18 20.05 9.72
8/6/2022 11:30:00 AM 22.14 71.852 0.381 8.22 19.22 9.9
8/6/2022 11:45:00 AM 22.43 72.374 0.381 8.28 19.16 10.06
8/6/2022 12:00:00 PM 22.71 72.878 0.381 8.32 17.25 10.21
8/6/2022 12:15:00 PM 22.85 73.13 0.381 8.38 16.53 10.34
8/6/2022 12:30:00 PM 22.96 73.328 0.38 8.43 15.77 10.42
8/6/2022 12:45:00 PM 22.93 73.274 0.379 8.44 14.79 10.37
8/6/2022 1:00:00 PM 22.91 73.238 0.379 8.45 14.83 10.3
8/6/2022 1:15:00 PM 23.09 73.562 0.378 8.48 13.6 10.49
8/6/2022 1:30:00 PM 23.14 73.652 0.377 8.5 13.4 10.39
8/6/2022 1:45:00 PM 23.33 73.994 0.376 8.54 12.28 10.48
8/6/2022 2:00:00 PM 23.5 74.3 0.375 8.56 12.12 10.54
8/6/2022 2:15:00 PM 23.41 74.138 0.375 8.54 11.84 10.22
8/6/2022 2:30:00 PM 23.5 74.3 0.374 8.57 11.49 10.38
8/6/2022 2:45:00 PM 23.51 74.318 0.374 8.58 11.18 10.35
8/6/2022 3:00:00 PM 23.54 74.372 0.374 8.6 10.6 10.36
8/6/2022 3:15:00 PM 23.57 74.426 0.373 8.61 9.99 10.33
8/6/2022 3:30:00 PM 23.62 74.516 0.373 8.61 9.92 10.25
8/6/2022 3:45:00 PM 23.71 74.67799 0.373 8.62 10.01 10.18
8/6/2022 4:00:00 PM 23.82 74.876 0.373 8.61 9.15 10.09
8/6/2022 4:15:00 PM 23.95 75.11 0.373 8.62 9.09 10.05
8/6/2022 4:30:00 PM 24.02 75.236 0.373 8.61 8.8 9.91
8/6/2022 4:45:00 PM 24.1 75.38 0.373 8.62 9.09 9.85
8/6/2022 5:00:00 PM 24.12 75.416 0.373 8.6 8.26 9.71
8/6/2022 5:15:00 PM 24.04 75.272 0.373 8.56 8.16 9.39
8/6/2022 5:30:00 PM 23.98 75.164 0.373 8.52 7.86 9.16
8/6/2022 5:45:00 PM 23.89 75.002 0.374 8.46 7.44 8.86
8/6/2022 6:00:00 PM 23.8 74.84 0.374 8.39 7.66 8.57
8/6/2022 6:15:00 PM 23.79 74.82201 0.369 8.37 8.23 8.61
8/6/2022 6:30:00 PM 23.83 74.894 0.37 8.36 7.94 8.61
8/6/2022 6:45:00 PM 23.87 74.966 0.369 8.36 7.23 8.66
8/6/2022 7:00:00 PM 23.87 74.966 0.37 8.34 7.25 8.52
8/6/2022 7:15:00 PM 23.84 74.912 0.369 8.31 7.48 8.41
8/6/2022 7:30:00 PM 23.77 74.786 0.369 8.27 7.24 8.21
8/6/2022 7:45:00 PM 23.7 74.66 0.368 8.23 7.24 8.08
8/6/2022 8:00:00 PM 23.64 74.552 0.368 8.2 6.86 7.95
8/6/2022 8:15:00 PM 23.59 74.462 0.368 8.15 6.72 7.86
8/6/2022 8:30:00 PM 23.56 74.408 0.367 8.13 6.72 7.77
8/6/2022 8:45:00 PM 23.5 74.3 0.362 8.07 7.18 7.66
8/6/2022 9:00:00 PM 23.46 74.228 0.36 8.03 7.91 7.61
8/6/2022 9:15:00 PM 23.45 74.21 0.359 8.01 8.19 7.57
8/6/2022 9:30:00 PM 23.45 74.21 0.359 8 8.01 7.52
8/6/2022 9:45:00 PM 23.44 74.192 0.358 7.98 10.55 7.46
8/6/2022 10:00:00 PM 23.41 74.138 0.357 7.96 9.81 7.44
8/6/2022 10:15:00 PM 23.38 74.084 0.357 7.95 9.18 7.39
8/6/2022 10:30:00 PM 23.34 74.012 0.357 7.93 13.73 7.38
8/6/2022 10:45:00 PM 23.29 73.922 0.358 7.92 9.44 7.36
8/6/2022 11:00:00 PM 23.24 73.832 0.359 7.91 10.2 7.35
8/6/2022 11:15:00 PM 23.18 73.724 0.359 7.89 10.17 7.35
8/6/2022 11:30:00 PM 23.13 73.634 0.36 7.88 11.03 7.34
8/6/2022 11:45:00 PM 23.07 73.526 0.36 7.87 12.72 7.33
8/7/2022 12:00:00 AM 23.01 73.418 0.361 7.86 10.76 7.35
8/7/2022 12:15:00 AM 22.95 73.31 0.361 7.86 8.8 7.37
8/7/2022 12:30:00 AM 22.89 73.202 0.362 7.86 9.99 7.37
8/7/2022 12:45:00 AM 22.84 73.112 0.363 7.85 9.26 7.37
8/7/2022 1:00:00 AM 22.78 73.004 0.364 7.85 9.55 7.37
8/7/2022 1:15:00 AM 22.72 72.896 0.365 7.84 11.87 7.37
8/7/2022 1:30:00 AM 22.66 72.788 0.366 7.83 10.07 7.38
8/7/2022 1:45:00 AM 22.59 72.662 0.367 7.82 8.83 7.39
8/7/2022 2:00:00 AM 22.53 72.554 0.367 7.83 10.84 7.38
8/7/2022 2:15:00 AM 22.47 72.446 0.368 7.81 7.65 7.4
8/7/2022 2:30:00 AM 22.42 72.356 0.369 7.81 7.55 7.41
8/7/2022 2:45:00 AM 22.36 72.248 0.369 7.81 7.89 7.42
8/7/2022 3:00:00 AM 22.31 72.158 0.37 7.81 8.18 7.44
8/7/2022 3:15:00 AM 22.26 72.068 0.37 7.81 8.38 7.44
8/7/2022 3:30:00 AM 22.21 71.978 0.371 7.8 9.92 7.44
8/7/2022 3:45:00 AM 22.17 71.906 0.372 7.81 17.41 7.46
8/7/2022 4:00:00 AM 22.13 71.834 0.372 7.8 8.76 7.47
8/7/2022 4:15:00 AM 22.09 71.762 0.373 7.79 7.51 7.48
8/7/2022 4:30:00 AM 22.05 71.69 0.374 7.79 7.4 7.5
8/7/2022 4:45:00 AM 22.01 71.618 0.375 7.8 6.68 7.51
8/7/2022 5:00:00 AM 21.98 71.564 0.375 7.79 6.98 7.53
8/7/2022 5:15:00 AM 21.95 71.51 0.375 7.8 6.55 7.55
8/7/2022 5:30:00 AM 21.92 71.456 0.375 7.8 7.03 7.56
8/7/2022 5:45:00 AM 21.89 71.402 0.375 7.8 7.42 7.56
8/7/2022 6:00:00 AM 21.87 71.366 0.374 7.8 7.63 7.57
8/7/2022 6:15:00 AM 21.85 71.33 0.373 7.8 6.76 7.59
8/7/2022 6:30:00 AM 21.83 71.294 0.373 7.8 6.47 7.6
8/7/2022 6:45:00 AM 21.81 71.258 0.372 7.8 6.95 7.62
8/7/2022 7:00:00 AM 21.8 71.24 0.371 7.79 6.61 7.63
8/7/2022 7:15:00 AM 21.78 71.204 0.37 7.81 5.86 7.69
8/7/2022 7:30:00 AM 21.77 71.186 0.369 7.81 6.3 7.73
8/7/2022 7:45:00 AM 21.77 71.186 0.368 7.81 10.41 7.75
8/7/2022 8:00:00 AM 21.76 71.168 0.367 7.83 5.55 7.84
8/7/2022 8:15:00 AM 21.77 71.186 0.366 7.84 5.14 7.95
8/7/2022 8:30:00 AM 21.79 71.222 0.365 7.87 4.83 8.11
8/7/2022 8:45:00 AM 21.85 71.33 0.364 7.9 4.82 8.32
8/7/2022 9:00:00 AM 21.92 71.456 0.364 7.95 4.75 8.57
8/7/2022 9:15:00 AM 21.94 71.492 0.364 7.98 4.52 8.69
8/7/2022 9:30:00 AM 21.99 71.582 0.363 8.01 4.59 8.85
8/7/2022 9:45:00 AM 22.06 71.708 0.363 8.04 4.18 9.01
8/7/2022 10:00:00 AM 22.25 72.05 0.363 8.11 4.36 9.34
8/7/2022 10:15:00 AM 22.32 72.176 0.363 8.15 4.1 9.46
8/7/2022 10:30:00 AM 22.48 72.464 0.363 8.2 3.83 9.63
8/7/2022 10:45:00 AM 22.67 72.806 0.363 8.24 4.45 9.78
8/7/2022 11:00:00 AM 22.82 73.076 0.363 8.29 4.06 9.98
8/7/2022 11:15:00 AM 23.15 73.67 0.364 8.35 3.93 10.15
8/7/2022 11:30:00 AM 23.2 73.76 0.364 8.38 3.89 10.08
8/7/2022 11:45:00 AM 23.4 74.12 0.365 8.39 3.87 10.17
8/7/2022 12:00:00 PM 23.77 74.786 0.366 8.45 3.91 10.32
8/7/2022 12:15:00 PM 23.58 74.444 0.366 8.44 3.79 10.11
8/7/2022 12:30:00 PM 23.6 74.48 0.367 8.45 3.82 10.12
8/7/2022 12:45:00 PM 23.8 74.84 0.368 8.5 3.41 10.26
8/7/2022 1:00:00 PM 24.03 75.254 0.369 8.52 3.48 10.44
8/7/2022 1:15:00 PM 24.05 75.29 0.369 8.55 3.68 10.38
8/7/2022 1:30:00 PM 24.2 75.56 0.37 8.57 3.47 10.46
8/7/2022 1:45:00 PM 24.31 75.758 0.371 8.59 3.68 10.44
8/7/2022 2:00:00 PM 24.37 75.866 0.371 8.61 3.46 10.42
8/7/2022 2:15:00 PM 24.46 76.028 0.372 8.61 3.48 10.37
8/7/2022 2:30:00 PM 24.51 76.118 0.373 8.63 3.42 10.34
8/7/2022 2:45:00 PM 24.65 76.37 0.374 8.65 3.58 10.39
8/7/2022 3:00:00 PM 24.75 76.55 0.374 8.66 3.61 10.32
8/7/2022 3:15:00 PM 24.84 76.712 0.375 8.66 3.46 10.23
8/7/2022 3:30:00 PM 24.88 76.784 0.376 8.66 3.27 10.15
8/7/2022 3:45:00 PM 24.93 76.874 0.376 8.67 3.41 10.07
8/7/2022 4:00:00 PM 24.98 76.964 0.376 8.68 3.35 10.08
8/7/2022 4:15:00 PM 24.98 76.964 0.377 8.67 3.38 9.85
8/7/2022 4:30:00 PM 24.96 76.92799 0.378 8.65 3.43 9.68
8/7/2022 4:45:00 PM 24.94 76.892 0.378 8.64 3.54 9.53
8/7/2022 5:00:00 PM 24.87 76.766 0.379 8.6 3.23 9.23
8/7/2022 5:15:00 PM 24.87 76.766 0.379 8.57 3.47 9.16
8/7/2022 5:30:00 PM 24.93 76.874 0.379 8.59 3.6 9.3
8/7/2022 5:45:00 PM 24.94 76.892 0.38 8.59 3.36 9.25
8/7/2022 6:00:00 PM 24.99 76.982 0.38 8.6 3.58 9.29
8/7/2022 6:15:00 PM 25.02 77.036 0.38 8.6 3.75 9.27
8/7/2022 6:30:00 PM 25.01 77.018 0.38 8.59 3.48 9.11
8/7/2022 6:45:00 PM 25 77 0.38 8.57 4.94 8.96
8/7/2022 7:00:00 PM 24.95 76.91 0.38 8.53 3.34 8.72
8/7/2022 7:15:00 PM 24.89 76.802 0.38 8.5 3.37 8.53
8/7/2022 7:30:00 PM 24.83 76.694 0.38 8.46 3.45 8.31
8/7/2022 7:45:00 PM 24.78 76.604 0.379 8.42 3.5 8.13
8/7/2022 8:00:00 PM 24.74 76.532 0.379 8.38 3.44 7.97
8/7/2022 8:15:00 PM 24.73 76.514 0.379 8.35 3.92 7.84
8/7/2022 8:30:00 PM 24.72 76.496 0.378 8.32 3.72 7.69
8/7/2022 8:45:00 PM 24.71 76.478 0.378 8.29 4.15 7.59
8/7/2022 9:00:00 PM 24.7 76.46 0.377 8.25 4.26 7.49
8/7/2022 9:15:00 PM 24.68 76.424 0.377 8.22 4.05 7.41
8/7/2022 9:30:00 PM 24.64 76.352 0.377 8.19 4.44 7.33
8/7/2022 9:45:00 PM 24.6 76.28 0.376 8.16 6.08 7.25
8/7/2022 10:00:00 PM 24.55 76.19 0.376 8.13 4.83 7.21
8/7/2022 10:15:00 PM 24.5 76.1 0.376 8.11 7.88 7.17
8/7/2022 10:30:00 PM 24.45 76.01 0.375 8.09 4.65 7.17
8/7/2022 10:45:00 PM 24.4 75.92 0.375 8.07 5.08 7.14
8/7/2022 11:00:00 PM 24.34 75.812 0.375 8.05 4.97 7.14
8/7/2022 11:15:00 PM 24.28 75.704 0.375 8.03 5.88 7.14
8/7/2022 11:30:00 PM 24.22 75.596 0.376 8.01 6.14 7.12
8/7/2022 11:45:00 PM 24.17 75.506 0.376 8.01 4.82 7.13
8/8/2022 12:00:00 AM 24.1 75.38 0.377 7.99 4.66 7.14
8/8/2022 12:15:00 AM 24.03 75.254 0.377 7.98 5.29 7.13
8/8/2022 12:30:00 AM 23.97 75.146 0.378 7.97 4.65 7.1
8/8/2022 12:45:00 AM 23.9 75.02 0.378 7.96 5.37 7.11
8/8/2022 1:00:00 AM 23.83 74.894 0.379 7.95 5.78 7.11
8/8/2022 1:15:00 AM 23.75 74.75 0.38 7.93 6.57 7.12
8/8/2022 1:30:00 AM 23.67 74.606 0.381 7.92 23.07 7.12
8/8/2022 1:45:00 AM 23.59 74.462 0.383 7.92 4.77 7.15
8/8/2022 2:00:00 AM 23.5 74.3 0.384 7.91 5.29 7.17
8/8/2022 2:15:00 AM 23.42 74.156 0.385 7.9 5.36 7.17
8/8/2022 2:30:00 AM 23.33 73.994 0.387 7.89 5.2 7.19
8/8/2022 2:45:00 AM 23.25 73.85 0.388 7.88 5.38 7.19
8/8/2022 3:00:00 AM 23.16 73.688 0.389 7.88 5.8 7.19
8/8/2022 3:15:00 AM 23.08 73.544 0.389 7.87 4.85 7.21
8/8/2022 3:30:00 AM 22.99 73.382 0.39 7.87 4.71 7.24
8/8/2022 3:45:00 AM 22.92 73.256 0.391 7.86 5.63 7.26
8/8/2022 4:00:00 AM 22.84 73.112 0.392 7.86 4.98 7.28
8/8/2022 4:15:00 AM 22.76 72.968 0.393 7.85 5.27 7.29
8/8/2022 4:30:00 AM 22.68 72.824 0.394 7.85 5.03 7.31
8/8/2022 4:45:00 AM 22.61 72.698 0.394 7.85 4.69 7.32
8/8/2022 5:00:00 AM 22.54 72.57201 0.395 7.85 4.76 7.33
8/8/2022 5:15:00 AM 22.47 72.446 0.396 7.84 5.78 7.36
8/8/2022 5:30:00 AM 22.4 72.32 0.397 7.83 5.69 7.36
8/8/2022 5:45:00 AM 22.33 72.194 0.397 7.84 5.74 7.37
8/8/2022 6:00:00 AM 22.26 72.068 0.398 7.83 4.83 7.4
8/8/2022 6:15:00 AM 22.2 71.96 0.398 7.84 5.37 7.42
8/8/2022 6:30:00 AM 22.15 71.87 0.398 7.84 4.65 7.44
8/8/2022 6:45:00 AM 22.1 71.78 0.399 7.84 4.27 7.47
8/8/2022 7:00:00 AM 22.05 71.69 0.399 7.84 4.25 7.53
8/8/2022 7:15:00 AM 22.01 71.618 0.399 7.84 4.22 7.59
8/8/2022 7:30:00 AM 21.98 71.564 0.399 7.86 3.93 7.66
8/8/2022 7:45:00 AM 21.97 71.546 0.399 7.87 3.8 7.75
8/8/2022 8:00:00 AM 21.99 71.582 0.399 7.89 3.89 7.93
8/8/2022 8:15:00 AM 21.99 71.582 0.4 7.91 3.6 7.99
8/8/2022 8:30:00 AM 22.01 71.618 0.4 7.92 3.92 8.14
8/8/2022 8:45:00 AM 22.06 71.708 0.4 7.94 3.94 8.23
8/8/2022 9:00:00 AM 22.14 71.852 0.4 7.98 3.43 8.45
8/8/2022 9:15:00 AM 22.23 72.014 0.4 8.02 3.36 8.62
8/8/2022 9:30:00 AM 22.34 72.212 0.4 8.06 3.1 8.82
8/8/2022 9:45:00 AM 22.46 72.42799 0.4 8.1 3.62 8.96
8/8/2022 10:00:00 AM 22.59 72.662 0.4 8.14 3.11 9.14
8/8/2022 10:15:00 AM 22.76 72.968 0.4 8.18 3.35 9.31
8/8/2022 10:30:00 AM 22.94 73.292 0.401 8.22 3 9.49
8/8/2022 10:45:00 AM 23.15 73.67 0.401 8.26 2.89 9.65
8/8/2022 11:00:00 AM 23.31 73.958 0.401 8.3 3.13 9.74
8/8/2022 11:15:00 AM 23.67 74.606 0.401 8.36 3.19 10.07
8/8/2022 11:30:00 AM 23.87 74.966 0.401 8.4 2.92 10.11
8/8/2022 11:45:00 AM 24.08 75.344 0.401 8.44 2.94 10.32
8/8/2022 12:00:00 PM 24.25 75.65 0.401 8.47 3.19 10.39
8/8/2022 12:15:00 PM 24.32 75.776 0.401 8.5 2.83 10.4
8/8/2022 12:30:00 PM 24.57 76.226 0.401 8.54 3.82 10.52
8/8/2022 12:45:00 PM 24.51 76.118 0.402 8.54 2.92 10.36
8/8/2022 1:00:00 PM 24.89 76.802 0.402 8.59 2.84 10.7
8/8/2022 1:15:00 PM 24.75 76.55 0.402 8.58 3.01 10.36
8/8/2022 1:30:00 PM 24.92 76.856 0.402 8.61 2.87 10.56
8/8/2022 1:45:00 PM 25.09 77.162 0.403 8.63 2.86 10.52
8/8/2022 2:00:00 PM 25.26 77.468 0.404 8.65 3.11 10.6
8/8/2022 2:15:00 PM 25.12 77.216 0.405 8.64 3.03 10.29
8/8/2022 2:30:00 PM 25.3 77.54 0.405 8.66 2.79 10.44
8/8/2022 2:45:00 PM 25.38 77.684 0.405 8.67 2.75 10.38
8/8/2022 3:00:00 PM 25.44 77.792 0.406 8.68 2.81 10.33
8/8/2022 3:15:00 PM 25.56 78.008 0.406 8.69 3.02 10.31
8/8/2022 3:30:00 PM 25.69 78.242 0.407 8.7 2.73 10.22
8/8/2022 3:45:00 PM 25.83 78.494 0.407 8.71 2.95 10.21
8/8/2022 4:00:00 PM 25.93 78.674 0.408 8.73 2.79 10.23
8/8/2022 4:15:00 PM 25.98 78.764 0.409 8.73 2.96 10.13
8/8/2022 4:30:00 PM 26 78.8 0.409 8.74 2.94 10.12
8/8/2022 4:45:00 PM 25.97 78.746 0.41 8.73 2.83 9.97
8/8/2022 5:00:00 PM 25.93 78.674 0.411 8.73 2.99 9.92
8/8/2022 5:15:00 PM 25.87 78.566 0.412 8.72 3.1 9.8
8/8/2022 5:30:00 PM 25.74 78.332 0.413 8.69 2.95 9.49
8/8/2022 5:45:00 PM 25.62 78.116 0.414 8.67 2.89 9.38
8/8/2022 6:00:00 PM 25.53 77.954 0.414 8.64 2.84 9.2
8/8/2022 6:15:00 PM 25.44 77.792 0.415 8.61 3.38 8.92
8/8/2022 6:30:00 PM 25.39 77.702 0.416 8.58 3.15 8.75
8/8/2022 6:45:00 PM 25.36 77.648 0.417 8.56 3.09 8.66
8/8/2022 7:00:00 PM 25.3 77.54 0.417 8.52 3.36 8.39
8/8/2022 7:15:00 PM 25.26 77.468 0.418 8.49 3.48 8.3
8/8/2022 7:30:00 PM 25.23 77.414 0.418 8.47 3.48 8.16
8/8/2022 7:45:00 PM 25.2 77.36 0.419 8.44 3.21 8.04
8/8/2022 8:00:00 PM 25.16 77.288 0.419 8.41 3.34 7.89
8/8/2022 8:15:00 PM 25.12 77.216 0.419 8.37 3.35 7.75
8/8/2022 8:30:00 PM 25.08 77.144 0.42 8.34 3.57 7.6
8/8/2022 8:45:00 PM 25.03 77.054 0.42 8.31 7.34 7.46
8/8/2022 9:00:00 PM 25 77 0.421 8.27 3.63 7.35
8/8/2022 9:15:00 PM 24.97 76.946 0.421 8.24 3.87 7.24
8/8/2022 9:30:00 PM 24.94 76.892 0.421 8.21 3.58 7.18
8/8/2022 9:45:00 PM 24.91 76.838 0.422 8.19 3.82 7.12
8/8/2022 10:00:00 PM 24.88 76.784 0.422 8.17 6.2 7.04
8/8/2022 10:15:00 PM 24.85 76.73 0.422 8.15 4.22 7.03
8/8/2022 10:30:00 PM 24.82 76.676 0.423 8.13 3.98 7
8/8/2022 10:45:00 PM 24.79 76.622 0.423 8.11 4.01 6.98
8/8/2022 11:00:00 PM 24.76 76.568 0.424 8.09 3.98 6.96
8/8/2022 11:15:00 PM 24.72 76.496 0.424 8.08 4.4 6.94
8/8/2022 11:30:00 PM 24.69 76.442 0.424 8.07 4.07 6.94
8/8/2022 11:45:00 PM 24.64 76.352 0.425 8.05 4.14 6.94
8/9/2022 12:00:00 AM 24.59 76.262 0.426 8.04 4.46 6.92
8/9/2022 12:15:00 AM 24.53 76.154 0.426 8.03 4.41 6.92
8/9/2022 12:30:00 AM 24.47 76.046 0.427 8.02 4.17 6.9
8/9/2022 12:45:00 AM 24.41 75.938 0.427 8.01 4.3 6.92
8/9/2022 1:00:00 AM 24.36 75.848 0.428 8 4.26 6.92
8/9/2022 1:15:00 AM 24.31 75.758 0.429 7.98 4.41 6.91
8/9/2022 1:30:00 AM 24.26 75.668 0.429 7.98 3.95 6.92
8/9/2022 1:45:00 AM 24.21 75.578 0.43 7.97 4.82 6.94
8/9/2022 2:00:00 AM 24.16 75.488 0.431 7.96 4.61 6.93
8/9/2022 2:15:00 AM 24.11 75.398 0.432 7.96 4.43 6.96
8/9/2022 2:30:00 AM 24.06 75.308 0.433 7.94 4.42 6.96
8/9/2022 2:45:00 AM 24.01 75.218 0.434 7.94 4.58 6.97
8/9/2022 3:00:00 AM 23.96 75.128 0.436 7.93 6.23 6.97
8/9/2022 3:15:00 AM 23.91 75.038 0.437 7.93 4.47 6.98
8/9/2022 3:30:00 AM 23.86 74.948 0.438 7.93 5.42 6.98
8/9/2022 3:45:00 AM 23.8 74.84 0.439 7.92 4.27 7.01
8/9/2022 4:00:00 AM 23.75 74.75 0.44 7.91 4.3 7.02
8/9/2022 4:15:00 AM 23.7 74.66 0.441 7.91 4.48 7.02
8/9/2022 4:30:00 AM 23.66 74.588 0.442 7.91 4.6 7.04
8/9/2022 4:45:00 AM 23.61 74.498 0.442 7.89 4.58 7.05
8/9/2022 5:00:00 AM 23.57 74.426 0.443 7.89 4.31 7.05
8/9/2022 5:15:00 AM 23.54 74.372 0.444 7.89 5.18 7.07
8/9/2022 5:30:00 AM 23.5 74.3 0.444 7.89 4.54 7.08
8/9/2022 5:45:00 AM 23.47 74.246 0.445 7.88 7.68 7.09
8/9/2022 6:00:00 AM 23.44 74.192 0.445 7.89 4.69 7.06
8/9/2022 6:15:00 AM 23.4 74.12 0.445 7.89 4.37 7.1
8/9/2022 6:30:00 AM 23.36 74.048 0.446 7.89 4.48 7.12
8/9/2022 6:45:00 AM 23.32 73.976 0.446 7.89 4.29 7.14
8/9/2022 7:00:00 AM 23.29 73.922 0.446 7.89 3.91 7.19
8/9/2022 7:15:00 AM 23.28 73.904 0.446 7.9 4.04 7.29
8/9/2022 7:30:00 AM 23.26 73.868 0.446 7.91 3.71 7.34
8/9/2022 7:45:00 AM 23.26 73.868 0.446 7.91 3.48 7.42
8/9/2022 8:00:00 AM 23.25 73.85 0.446 7.94 3.91 7.56
8/9/2022 8:15:00 AM 23.27 73.886 0.446 7.96 3.52 7.72
8/9/2022 8:30:00 AM 23.29 73.922 0.446 7.98 3.24 7.91
8/9/2022 8:45:00 AM 23.33 73.994 0.446 8.02 2.97 8.12
8/9/2022 9:00:00 AM 23.38 74.084 0.446 8.06 3.17 8.36
8/9/2022 9:15:00 AM 23.4 74.12 0.446 8.08 2.99 8.5
8/9/2022 9:30:00 AM 23.38 74.084 0.446 8.08 3.12 8.4
8/9/2022 9:45:00 AM 23.39 74.102 0.446 8.1 2.87 8.42
8/9/2022 10:00:00 AM 23.42 74.156 0.446 8.1 3.05 8.51
8/9/2022 10:15:00 AM 23.47 74.246 0.446 8.14 4.58 8.75
8/9/2022 10:30:00 AM 23.57 74.426 0.446 8.19 2.74 9.05
8/9/2022 10:45:00 AM 23.73 74.714 0.446 8.24 2.93 9.33
8/9/2022 11:00:00 AM 23.89 75.002 0.446 8.3 3.2 9.61
8/9/2022 11:15:00 AM 24.31 75.758 0.446 8.37 3.01 10.02
8/9/2022 11:30:00 AM 24.33 75.794 0.446 8.41 2.8 10.02
8/9/2022 11:45:00 AM 24.37 75.866 0.446 8.42 3.68 9.98
8/9/2022 12:00:00 PM 24.84 76.712 0.446 8.49 5.38 10.43
8/9/2022 12:15:00 PM 24.8 76.64 0.446 8.51 3.28 10.3
8/9/2022 12:30:00 PM 24.91 76.838 0.447 8.51 2.76 10.31
8/9/2022 12:45:00 PM 25.07 77.126 0.446 8.57 3.05 10.48
8/9/2022 1:00:00 PM 24.86 76.748 0.447 8.54 3.14 10.14
8/9/2022 1:15:00 PM 24.77 76.586 0.445 8.53 3.73 9.81
8/9/2022 1:30:00 PM 24.76 76.568 0.445 8.52 3.59 9.88
8/9/2022 1:45:00 PM 24.77 76.586 0.446 8.56 3.01 9.97
8/9/2022 2:00:00 PM 24.69 76.442 0.443 8.51 3.94 9.5
8/9/2022 2:15:00 PM 24.71 76.478 0.443 8.52 6.46 9.66
8/9/2022 2:30:00 PM 24.82 76.676 0.445 8.56 2.89 9.95
8/9/2022 2:45:00 PM 24.8 76.64 0.445 8.56 3.18 9.84
8/9/2022 3:00:00 PM 24.85 76.73 0.446 8.57 5.16 9.95
8/9/2022 3:15:00 PM 24.85 76.73 0.447 8.58 3.02 9.92
8/9/2022 3:30:00 PM 24.86 76.748 0.447 8.58 2.88 9.85
8/9/2022 3:45:00 PM 24.79 76.622 0.448 8.55 3.21 9.54
8/9/2022 4:00:00 PM 24.79 76.622 0.448 8.57 2.84 9.69
8/9/2022 4:15:00 PM 24.75 76.55 0.449 8.56 3.18 9.59
8/9/2022 4:30:00 PM 24.76 76.568 0.449 8.57 2.92 9.73
8/9/2022 4:45:00 PM 24.69 76.442 0.449 8.56 2.8 9.54
8/9/2022 5:00:00 PM 24.63 76.334 0.45 8.55 3 9.46
8/9/2022 5:15:00 PM 24.59 76.262 0.45 8.54 2.91 9.3
8/9/2022 5:30:00 PM 24.58 76.244 0.451 8.53 2.96 9.19
8/9/2022 5:45:00 PM 24.53 76.154 0.452 8.5 2.92 9
8/9/2022 6:00:00 PM 24.52 76.136 0.452 8.49 3.15 8.91
8/9/2022 6:15:00 PM 24.48 76.064 0.453 8.46 2.9 8.73
8/9/2022 6:30:00 PM 24.46 76.028 0.453 8.46 2.96 8.71
8/9/2022 6:45:00 PM 24.43 75.974 0.453 8.43 3.29 8.6
8/9/2022 7:00:00 PM 24.4 75.92 0.454 8.41 2.89 8.51
8/9/2022 7:15:00 PM 24.33 75.794 0.455 8.39 2.96 8.39
8/9/2022 7:30:00 PM 24.31 75.758 0.455 8.37 2.89 8.29
8/9/2022 7:45:00 PM 24.26 75.668 0.456 8.35 3 8.19
8/9/2022 8:00:00 PM 24.2 75.56 0.456 8.31 3.04 8.02
8/9/2022 8:15:00 PM 24.15 75.47 0.456 8.29 2.89 7.88
8/9/2022 8:30:00 PM 24.08 75.344 0.457 8.25 2.99 7.74
8/9/2022 8:45:00 PM 24.03 75.254 0.457 8.23 3.34 7.64
8/9/2022 9:00:00 PM 23.98 75.164 0.457 8.19 4.07 7.53
8/9/2022 9:15:00 PM 23.93 75.074 0.458 8.17 3.63 7.45
8/9/2022 9:30:00 PM 23.88 74.984 0.458 8.15 4.59 7.37
8/9/2022 9:45:00 PM 23.84 74.912 0.458 8.13 3.86 7.33
8/9/2022 10:00:00 PM 23.8 74.84 0.458 8.11 3.78 7.31
8/9/2022 10:15:00 PM 23.76 74.768 0.458 8.09 3.75 7.28
8/9/2022 10:30:00 PM 23.73 74.714 0.458 8.08 5.25 7.29
8/9/2022 10:45:00 PM 23.7 74.66 0.458 8.08 8.31 7.35
8/9/2022 11:00:00 PM 23.66 74.588 0.458 8.06 10.38 7.33
8/9/2022 11:15:00 PM 23.63 74.534 0.458 8.07 9.52 7.39
8/9/2022 11:30:00 PM 23.62 74.516 0.458 8.08 9.35 7.44
8/9/2022 11:45:00 PM 23.63 74.534 0.457 8.07 8.94 7.46
8/10/2022 12:00:00 AM 23.64 74.552 0.456 8.08 9.88 7.45
8/10/2022 12:15:00 AM 23.63 74.534 0.456 8.06 8.83 7.45
8/10/2022 12:30:00 AM 23.6 74.48 0.457 8.05 9.24 7.44
8/10/2022 12:45:00 AM 23.55 74.39 0.458 8.04 7.07 7.44
8/10/2022 1:00:00 AM 23.5 74.3 0.459 8.02 7.62 7.44
8/10/2022 1:15:00 AM 23.44 74.192 0.461 8.01 7.51 7.45
8/10/2022 1:30:00 AM 23.39 74.102 0.462 7.99 7.4 7.46
8/10/2022 1:45:00 AM 23.33 73.994 0.463 7.99 6.33 7.46
8/10/2022 2:00:00 AM 23.27 73.886 0.464 7.98 6.83 7.47
8/10/2022 2:15:00 AM 23.21 73.778 0.465 7.97 7.13 7.47
8/10/2022 2:30:00 AM 23.15 73.67 0.466 7.97 6.99 7.45
8/10/2022 2:45:00 AM 23.09 73.562 0.468 7.96 6.55 7.48
8/10/2022 3:00:00 AM 23.03 73.454 0.47 7.96 6.29 7.5
8/10/2022 3:15:00 AM 22.97 73.346 0.473 7.95 7.03 7.51
8/10/2022 3:30:00 AM 22.91 73.238 0.476 7.95 6.5 7.52
8/10/2022 3:45:00 AM 22.86 73.148 0.48 7.95 6.45 7.54
8/10/2022 4:00:00 AM 22.81 73.058 0.485 7.94 6.19 7.54
8/10/2022 4:15:00 AM 22.77 72.986 0.489 7.94 6.22 7.55
8/10/2022 4:30:00 AM 22.73 72.914 0.493 7.95 6.59 7.55
8/10/2022 4:45:00 AM 22.69 72.842 0.497 7.94 6.04 7.55
8/10/2022 5:00:00 AM 22.66 72.788 0.501 7.95 5.9 7.56
8/10/2022 5:15:00 AM 22.62 72.716 0.503 7.95 5.97 7.55
8/10/2022 5:30:00 AM 22.58 72.644 0.506 7.95 6.81 7.56
8/10/2022 5:45:00 AM 22.54 72.57201 0.508 7.95 6.72 7.55
8/10/2022 6:00:00 AM 22.5 72.5 0.51 7.95 5.48 7.55
8/10/2022 6:15:00 AM 22.46 72.42799 0.512 7.95 7.33 7.54
8/10/2022 6:30:00 AM 22.42 72.356 0.513 7.95 5.4 7.57
8/10/2022 6:45:00 AM 22.38 72.284 0.514 7.95 5.07 7.58
8/10/2022 7:00:00 AM 22.34 72.212 0.515 7.95 6.31 7.57
8/10/2022 7:15:00 AM 22.31 72.158 0.515 7.95 6.19 7.64
8/10/2022 7:30:00 AM 22.28 72.104 0.516 7.96 6.09 7.69
8/10/2022 7:45:00 AM 22.26 72.068 0.516 7.97 5.69 7.78
8/10/2022 8:00:00 AM 22.24 72.032 0.517 7.99 4.17 7.84
8/10/2022 8:15:00 AM 22.22 71.996 0.518 8 3.93 7.94
8/10/2022 8:30:00 AM 22.23 72.014 0.518 8.01 4.58 8.09
8/10/2022 8:45:00 AM 22.22 71.996 0.518 8.04 3.68 8.23
8/10/2022 9:00:00 AM 22.22 71.996 0.519 8.06 3.6 8.42
8/10/2022 9:15:00 AM 22.26 72.068 0.52 8.11 3.52 8.7
8/10/2022 9:30:00 AM 22.26 72.068 0.521 8.13 3.18 8.84
8/10/2022 9:45:00 AM 22.31 72.158 0.522 8.18 3.53 9.16
8/10/2022 10:00:00 AM 22.33 72.194 0.523 8.21 3.39 9.28
8/10/2022 10:15:00 AM 22.37 72.266 0.524 8.25 3.25 9.48
8/10/2022 10:30:00 AM 22.41 72.338 0.525 8.29 3.18 9.68
8/10/2022 10:45:00 AM 22.44 72.392 0.526 8.31 3.05 9.79
8/10/2022 11:00:00 AM 22.46 72.42799 0.528 8.35 2.82 9.88
8/10/2022 11:15:00 AM 22.49 72.482 0.529 8.36 2.85 9.93
8/10/2022 11:30:00 AM 22.56 72.608 0.531 8.4 3.08 10.14
8/10/2022 11:45:00 AM 22.63 72.734 0.532 8.44 3.23 10.36
8/10/2022 12:00:00 PM 22.59 72.662 0.534 8.45 2.82 10.2
8/10/2022 12:15:00 PM 22.57 72.626 0.535 8.44 2.84 10.07
8/10/2022 12:30:00 PM 22.58 72.644 0.537 8.45 2.89 10.08
8/10/2022 12:45:00 PM 22.6 72.68 0.538 8.46 2.78 10.1
8/10/2022 1:00:00 PM 22.61 72.698 0.539 8.47 2.76 10.18
8/10/2022 1:15:00 PM 22.6 72.68 0.54 8.47 2.75 10.06
8/10/2022 1:30:00 PM 22.58 72.644 0.541 8.47 2.9 9.96
8/10/2022 1:45:00 PM 22.6 72.68 0.541 8.48 2.83 10.05
8/10/2022 2:00:00 PM 22.61 72.698 0.541 8.49 2.91 10.05
8/10/2022 2:15:00 PM 22.57 72.626 0.542 8.48 2.63 9.87
8/10/2022 2:30:00 PM 22.62 72.716 0.541 8.49 2.74 10.09
8/10/2022 2:45:00 PM 22.71 72.878 0.541 8.52 2.83 10.28
8/10/2022 3:00:00 PM 22.8 73.04 0.54 8.55 2.77 10.43
8/10/2022 3:15:00 PM 22.89 73.202 0.538 8.57 2.73 10.55
8/10/2022 3:30:00 PM 22.99 73.382 0.537 8.59 2.75 10.53
8/10/2022 3:45:00 PM 23.17 73.706 0.536 8.63 2.86 10.71
8/10/2022 4:00:00 PM 23.25 73.85 0.534 8.64 2.94 10.74
8/10/2022 4:15:00 PM 23.26 73.868 0.532 8.66 2.86 10.66
8/10/2022 4:30:00 PM 23.28 73.904 0.53 8.68 2.67 10.68
8/10/2022 4:45:00 PM 23.23 73.814 0.528 8.67 2.58 10.41
8/10/2022 5:00:00 PM 23.15 73.67 0.526 8.65 2.82 10.09
8/10/2022 5:15:00 PM 23.11 73.598 0.524 8.63 2.75 9.96
8/10/2022 5:30:00 PM 23.08 73.544 0.522 8.61 2.78 9.78
8/10/2022 5:45:00 PM 23.06 73.508 0.52 8.6 3.22 9.71
8/10/2022 6:00:00 PM 23.04 73.472 0.518 8.59 2.81 9.59
8/10/2022 6:15:00 PM 23.07 73.526 0.516 8.59 2.79 9.62
8/10/2022 6:30:00 PM 23.07 73.526 0.514 8.58 3.03 9.53
8/10/2022 6:45:00 PM 23.08 73.544 0.512 8.57 2.73 9.48
8/10/2022 7:00:00 PM 23.05 73.49 0.511 8.56 2.75 9.33
8/10/2022 7:15:00 PM 23 73.4 0.51 8.53 2.99 9.1
8/10/2022 7:30:00 PM 22.93 73.274 0.509 8.49 2.95 8.86
8/10/2022 7:45:00 PM 22.86 73.148 0.508 8.45 3.03 8.62
8/10/2022 8:00:00 PM 22.79 73.022 0.507 8.4 2.95 8.43
8/10/2022 8:15:00 PM 22.73 72.914 0.506 8.36 2.97 8.29
8/10/2022 8:30:00 PM 22.68 72.824 0.505 8.32 3.39 8.16
8/10/2022 8:45:00 PM 22.63 72.734 0.504 8.3 3.38 8.06
8/10/2022 9:00:00 PM 22.6 72.68 0.503 8.26 3.8 7.97
8/10/2022 9:15:00 PM 22.56 72.608 0.502 8.25 3.55 7.9
8/10/2022 9:30:00 PM 22.54 72.57201 0.501 8.23 3.55 7.81
8/10/2022 9:45:00 PM 22.51 72.518 0.501 8.21 3.62 7.77
8/10/2022 10:00:00 PM 22.48 72.464 0.5 8.19 3.65 7.73
8/10/2022 10:15:00 PM 22.45 72.41 0.499 8.18 3.81 7.69
8/10/2022 10:30:00 PM 22.42 72.356 0.499 8.16 3.76 7.66
8/10/2022 10:45:00 PM 22.38 72.284 0.498 8.15 5.19 7.63
8/10/2022 11:00:00 PM 22.35 72.23 0.498 8.13 3.94 7.61
8/10/2022 11:15:00 PM 22.31 72.158 0.497 8.11 4.04 7.6
8/10/2022 11:30:00 PM 22.27 72.086 0.497 8.11 3.8 7.58
8/10/2022 11:45:00 PM 22.22 71.996 0.497 8.09 3.88 7.57
8/11/2022 12:00:00 AM 22.18 71.924 0.496 8.08 3.84 7.58
8/11/2022 12:15:00 AM 22.12 71.816 0.496 8.08 4.36 7.55
8/11/2022 12:30:00 AM 22.08 71.744 0.496 8.07 4.59 7.56
8/11/2022 12:45:00 AM 22.03 71.654 0.495 8.05 4.03 7.56
8/11/2022 1:00:00 AM 21.98 71.564 0.495 8.05 4.13 7.55
8/11/2022 1:15:00 AM 21.92 71.456 0.495 8.04 4.02 7.56
8/11/2022 1:30:00 AM 21.85 71.33 0.494 8.03 4.01 7.56
8/11/2022 1:45:00 AM 21.79 71.222 0.494 8.03 4.08 7.56
8/11/2022 2:00:00 AM 21.73 71.114 0.494 8.02 3.92 7.57
8/11/2022 2:15:00 AM 21.66 70.988 0.493 8.02 3.91 7.58
8/11/2022 2:30:00 AM 21.59 70.862 0.493 8.01 4.35 7.59
8/11/2022 2:45:00 AM 21.53 70.754 0.493 8 4.34 7.6
8/11/2022 3:00:00 AM 21.46 70.628 0.493 7.99 6.36 7.6
8/11/2022 3:15:00 AM 21.39 70.502 0.492 7.99 4.81 7.62
8/11/2022 3:30:00 AM 21.32 70.376 0.492 7.98 4.47 7.63
8/11/2022 3:45:00 AM 21.25 70.25 0.492 7.97 4.42 7.62
8/11/2022 4:00:00 AM 21.18 70.124 0.491 7.97 4.4 7.64
8/11/2022 4:15:00 AM 21.1 69.98 0.491 7.96 7.29 7.61
8/11/2022 4:30:00 AM 21.03 69.854 0.49 7.95 4.21 7.67
8/11/2022 4:45:00 AM 20.95 69.71 0.49 7.95 4.03 7.69
8/11/2022 5:00:00 AM 20.87 69.566 0.489 7.95 4.08 7.71
8/11/2022 5:15:00 AM 20.79 69.422 0.488 7.95 4.08 7.72
8/11/2022 5:30:00 AM 20.7 69.26 0.488 7.94 4.22 7.72
8/11/2022 5:45:00 AM 20.62 69.116 0.487 7.94 4.77 7.74
8/11/2022 6:00:00 AM 20.53 68.954 0.486 7.94 18.2 7.4
8/11/2022 6:15:00 AM 20.44 68.792 0.485 7.93 9.73 7.75
8/11/2022 6:30:00 AM 20.35 68.63 0.484 7.94 6.12 7.79
8/11/2022 6:45:00 AM 20.27 68.486 0.483 7.93 6.61 7.82
8/11/2022 7:00:00 AM 20.19 68.342 0.482 7.93 3.76 7.88
8/11/2022 7:15:00 AM 20.13 68.234 0.481 7.94 3.55 7.94
8/11/2022 7:30:00 AM 20.07 68.126 0.48 7.95 3.65 8
8/11/2022 7:45:00 AM 20.02 68.036 0.478 7.96 3.58 8.07
8/11/2022 8:00:00 AM 19.98 67.964 0.477 7.96 3.23 8.15
8/11/2022 8:15:00 AM 19.96 67.92799 0.476 7.98 3.25 8.24
8/11/2022 8:30:00 AM 19.96 67.92799 0.474 8 3.3 8.36
8/11/2022 8:45:00 AM 19.97 67.946 0.473 8.01 3.12 8.51
8/11/2022 9:00:00 AM 20.02 68.036 0.472 8.05 3.05 8.7
8/11/2022 9:15:00 AM 20.1 68.18 0.47 8.08 2.93 8.91
8/11/2022 9:30:00 AM 20.19 68.342 0.469 8.11 3.52 9.07
8/11/2022 9:45:00 AM 20.29 68.522 0.467 8.15 2.87 9.27
8/11/2022 10:00:00 AM 20.42 68.756 0.466 8.19 2.83 9.45
8/11/2022 10:15:00 AM 20.59 69.062 0.464 8.22 2.65 9.61
8/11/2022 10:30:00 AM 20.82 69.476 0.463 8.26 2.59 9.85
8/11/2022 10:45:00 AM 21.03 69.854 0.461 8.31 2.71 10.04
8/11/2022 11:00:00 AM 21.25 70.25 0.46 8.34 2.96 10.22
8/11/2022 11:15:00 AM 21.69 71.042 0.458 8.41 2.75 10.55
8/11/2022 11:30:00 AM 21.92 71.456 0.457 8.45 2.65 10.7
8/11/2022 11:45:00 AM 21.87 71.366 0.456 8.47 2.64 10.67
8/11/2022 12:00:00 PM 22.15 71.87 0.455 8.52 2.63 10.91
8/11/2022 12:15:00 PM 22.37 72.266 0.454 8.54 2.69 10.96
8/11/2022 12:30:00 PM 22.08 71.744 0.453 8.54 7.1 10.75
8/11/2022 12:45:00 PM 22.2 71.96 0.452 8.58 2.67 10.97
8/11/2022 1:00:00 PM 22.63 72.734 0.451 8.62 2.53 11.16
8/11/2022 1:15:00 PM 22.31 72.158 0.45 8.61 2.58 10.75
8/11/2022 1:30:00 PM 22.53 72.554 0.449 8.64 2.54 11.01
8/11/2022 1:45:00 PM 22.77 72.986 0.449 8.66 2.49 11.06
8/11/2022 2:00:00 PM 22.83 73.094 0.448 8.68 2.48 11
8/11/2022 2:15:00 PM 22.79 73.022 0.448 8.68 2.59 10.95
8/11/2022 2:30:00 PM 22.89 73.202 0.447 8.71 2.44 11.04
8/11/2022 2:45:00 PM 22.9 73.22 0.447 8.72 2.53 10.97
8/11/2022 3:00:00 PM 22.89 73.202 0.447 8.73 2.55 10.92
8/11/2022 3:15:00 PM 22.86 73.148 0.446 8.73 2.56 10.85
8/11/2022 3:30:00 PM 22.8 73.04 0.446 8.73 2.83 10.71
8/11/2022 3:45:00 PM 22.77 72.986 0.446 8.71 2.63 10.5
8/11/2022 4:00:00 PM 22.81 73.058 0.446 8.72 2.58 10.57
8/11/2022 4:15:00 PM 22.78 73.004 0.446 8.71 2.61 10.33
8/11/2022 4:30:00 PM 22.8 73.04 0.447 8.7 2.45 10.35
8/11/2022 4:45:00 PM 22.8 73.04 0.447 8.7 2.44 10.22
8/11/2022 5:00:00 PM 22.85 73.13 0.447 8.71 2.53 10.27
8/11/2022 5:15:00 PM 22.86 73.148 0.447 8.7 2.52 10.17
8/11/2022 5:30:00 PM 22.91 73.238 0.447 8.71 2.68 10.21
8/11/2022 5:45:00 PM 22.86 73.148 0.447 8.7 2.62 10.01
8/11/2022 6:00:00 PM 22.86 73.148 0.447 8.69 2.73 9.92
8/11/2022 6:15:00 PM 22.81 73.058 0.448 8.67 2.71 9.7
8/11/2022 6:30:00 PM 22.76 72.968 0.448 8.65 2.67 9.58
8/11/2022 6:45:00 PM 22.65 72.77 0.449 8.62 2.51 9.37
8/11/2022 7:00:00 PM 22.53 72.554 0.449 8.58 2.63 9.11
8/11/2022 7:15:00 PM 22.43 72.374 0.45 8.54 2.92 8.94
8/11/2022 7:30:00 PM 22.34 72.212 0.45 8.5 2.71 8.78
8/11/2022 7:45:00 PM 22.26 72.068 0.45 8.47 2.61 8.63
8/11/2022 8:00:00 PM 22.2 71.96 0.45 8.43 2.72 8.49
8/11/2022 8:15:00 PM 22.14 71.852 0.45 8.41 3.03 8.37
8/11/2022 8:30:00 PM 22.08 71.744 0.45 8.39 2.71 8.25
8/11/2022 8:45:00 PM 22.02 71.636 0.45 8.35 3.4 8.14
8/11/2022 9:00:00 PM 21.95 71.51 0.45 8.33 3.32 8.05
8/11/2022 9:15:00 PM 21.89 71.402 0.45 8.31 3.41 7.96
8/11/2022 9:30:00 PM 21.82 71.276 0.45 8.28 3.2 7.9
8/11/2022 9:45:00 PM 21.74 71.132 0.45 8.26 5.19 7.83
8/11/2022 10:00:00 PM 21.67 71.006 0.45 8.25 3.34 7.81
8/11/2022 10:15:00 PM 21.59 70.862 0.45 8.23 5.05 7.79
8/11/2022 10:30:00 PM 21.51 70.718 0.45 8.22 3.53 7.79
8/11/2022 10:45:00 PM 21.43 70.574 0.45 8.2 3.64 7.76
8/11/2022 11:00:00 PM 21.35 70.43 0.45 8.19 3.66 7.75
8/11/2022 11:15:00 PM 21.29 70.32201 0.449 8.18 3.45 7.76
8/11/2022 11:30:00 PM 21.21 70.17799 0.449 8.17 3.36 7.73
8/11/2022 11:45:00 PM 21.14 70.052 0.449 8.16 3.34 7.73
8/12/2022 12:00:00 AM 21.09 69.962 0.449 8.15 3.23 7.73
8/12/2022 12:15:00 AM 21.02 69.836 0.449 8.15 3.19 7.73
8/12/2022 12:30:00 AM 20.95 69.71 0.45 8.14 3.27 7.74
8/12/2022 12:45:00 AM 20.88 69.584 0.45 8.13 3.34 7.74
8/12/2022 1:00:00 AM 20.8 69.44 0.45 8.12 3.47 7.75
8/12/2022 1:15:00 AM 20.73 69.314 0.45 8.11 3.75 7.75
8/12/2022 1:30:00 AM 20.65 69.17 0.451 8.09 3.61 7.75
8/12/2022 1:45:00 AM 20.57 69.026 0.451 8.07 4.05 7.76
8/12/2022 2:00:00 AM 20.49 68.882 0.451 8.06 3.69 7.77
8/12/2022 2:15:00 AM 20.41 68.738 0.452 8.06 3.86 7.8
8/12/2022 2:30:00 AM 20.33 68.594 0.452 8.06 3.68 7.82
8/12/2022 2:45:00 AM 20.24 68.432 0.453 8.06 3.53 7.85
8/12/2022 3:00:00 AM 20.14 68.252 0.454 8.05 3.7 7.85
8/12/2022 3:15:00 AM 20.05 68.09 0.454 8.04 3.52 7.86
8/12/2022 3:30:00 AM 19.96 67.92799 0.455 8.03 3.43 7.87
8/12/2022 3:45:00 AM 19.86 67.748 0.456 8.03 3.65 7.88
8/12/2022 4:00:00 AM 19.77 67.586 0.457 8 3.56 7.9
8/12/2022 4:15:00 AM 19.67 67.406 0.457 8.01 4.71 7.92
8/12/2022 4:30:00 AM 19.57 67.226 0.458 7.99 5.49 7.93
8/12/2022 4:45:00 AM 19.48 67.064 0.459 8 7.3 7.96
8/12/2022 5:00:00 AM 19.39 66.902 0.459 7.98 4.58 7.96
8/12/2022 5:15:00 AM 19.3 66.74 0.46 7.99 3.66 8
8/12/2022 5:30:00 AM 19.21 66.578 0.461 7.98 5.76 7.99
8/12/2022 5:45:00 AM 19.12 66.416 0.461 7.98 3.93 8.02
8/12/2022 6:00:00 AM 19.02 66.236 0.462 7.98 4.35 8.03
8/12/2022 6:15:00 AM 18.93 66.074 0.463 7.97 5.13 8.05
8/12/2022 6:30:00 AM 18.85 65.93 0.463 7.97 4.23 8.06
8/12/2022 6:45:00 AM 18.77 65.786 0.464 7.97 3.48 8.12
8/12/2022 7:00:00 AM 18.69 65.642 0.464 7.97 3.44 8.16
8/12/2022 7:15:00 AM 18.62 65.516 0.465 7.98 3.21 8.22
8/12/2022 7:30:00 AM 18.56 65.408 0.465 7.99 3.02 8.31
8/12/2022 7:45:00 AM 18.51 65.318 0.466 7.99 3.04 8.39
8/12/2022 8:00:00 AM 18.47 65.246 0.466 8.01 2.89 8.47
8/12/2022 8:15:00 AM 18.44 65.192 0.466 8.02 5.6 8.59
8/12/2022 8:30:00 AM 18.44 65.192 0.466 8.04 2.89 8.69
8/12/2022 8:45:00 AM 18.47 65.246 0.466 8.05 3.04 8.85
8/12/2022 9:00:00 AM 18.52 65.336 0.466 8.08 2.6 9.03
8/12/2022 9:15:00 AM 18.61 65.498 0.466 8.11 3.33 9.21
8/12/2022 9:30:00 AM 18.71 65.67799 0.465 8.14 2.68 9.4
8/12/2022 9:45:00 AM 18.82 65.876 0.465 8.18 3.46 9.59
8/12/2022 10:00:00 AM 18.94 66.092 0.464 8.22 2.71 9.77
8/12/2022 10:15:00 AM 19.1 66.38 0.464 8.25 2.4 9.96
8/12/2022 10:30:00 AM 19.28 66.704 0.464 8.3 2.41 10.14
8/12/2022 10:45:00 AM 19.57 67.226 0.463 8.34 2.26 10.4
8/12/2022 11:00:00 AM 19.95 67.91 0.463 8.39 2.31 10.62
8/12/2022 11:15:00 AM 20.31 68.558 0.462 8.43 2.2 10.84
8/12/2022 11:30:00 AM 20.61 69.098 0.461 8.48 2.3 10.98
8/12/2022 11:45:00 AM 20.92 69.656 0.461 8.52 2.29 11.16
8/12/2022 12:00:00 PM 21.28 70.304 0.461 8.57 2.48 11.38
8/12/2022 12:15:00 PM 21.49 70.682 0.461 8.6 2.23 11.44
8/12/2022 12:30:00 PM 21.69 71.042 0.461 8.63 2.34 11.52
8/12/2022 12:45:00 PM 21.87 71.366 0.46 8.65 2.2 11.58
8/12/2022 1:00:00 PM 21.98 71.564 0.461 8.67 2.23 11.62
8/12/2022 1:15:00 PM 22.08 71.744 0.461 8.68 2.66 11.59
8/12/2022 1:30:00 PM 22.12 71.816 0.461 8.69 2.23 11.5
8/12/2022 1:45:00 PM 22.16 71.888 0.461 8.7 2.59 11.47
8/12/2022 2:00:00 PM 22.18 71.924 0.461 8.71 2.39 11.37
8/12/2022 2:15:00 PM 22.26 72.068 0.462 8.71 2.89 11.25
8/12/2022 2:30:00 PM 22.26 72.068 0.462 8.71 2.4 11.1
8/12/2022 2:45:00 PM 22.3 72.14 0.462 8.71 2.33 11
8/12/2022 3:00:00 PM 22.36 72.248 0.463 8.72 2.2 10.9
8/12/2022 3:15:00 PM 22.45 72.41 0.463 8.72 15.71 10.8
8/12/2022 3:30:00 PM 22.58 72.644 0.463 8.73 2.22 10.72
8/12/2022 3:45:00 PM 22.64 72.752 0.463 8.74 2.38 10.71
8/12/2022 4:00:00 PM 22.73 72.914 0.464 8.75 2.23 10.67
8/12/2022 4:15:00 PM 22.79 73.022 0.464 8.75 2.34 10.62
8/12/2022 4:30:00 PM 22.83 73.094 0.464 8.75 2.26 10.52
8/12/2022 4:45:00 PM 22.8 73.04 0.465 8.75 2.17 10.38
8/12/2022 5:00:00 PM 22.76 72.968 0.465 8.73 2.49 10.22
8/12/2022 5:15:00 PM 22.65 72.77 0.466 8.72 2.37 10.09
8/12/2022 5:30:00 PM 22.57 72.626 0.466 8.7 2.29 9.95
8/12/2022 5:45:00 PM 22.48 72.464 0.466 8.68 2.96 9.82
8/12/2022 6:00:00 PM 22.32 72.176 0.467 8.67 2.22 9.69
8/12/2022 6:15:00 PM 22.21 71.978 0.467 8.64 2.38 9.54
8/12/2022 6:30:00 PM 22.11 71.798 0.467 8.62 2.42 9.41
8/12/2022 6:45:00 PM 21.99 71.582 0.468 8.58 4.66 9.22
8/12/2022 7:00:00 PM 21.86 71.348 0.469 8.54 2.57 9
8/12/2022 7:15:00 PM 21.73 71.114 0.469 8.5 2.59 8.83
8/12/2022 7:30:00 PM 21.61 70.898 0.469 8.46 2.42 8.66
8/12/2022 7:45:00 PM 21.49 70.682 0.469 8.42 2.69 8.57
8/12/2022 8:00:00 PM 21.39 70.502 0.469 8.38 2.53 8.43
8/12/2022 8:15:00 PM 21.29 70.32201 0.469 8.36 3.58 8.33
8/12/2022 8:30:00 PM 21.2 70.16 0.469 8.34 2.54 8.26
8/12/2022 8:45:00 PM 21.1 69.98 0.469 8.31 3.03 8.18
8/12/2022 9:00:00 PM 21.01 69.818 0.469 8.29 2.97 8.12
8/12/2022 9:15:00 PM 20.93 69.674 0.469 8.27 3.17 8.07
8/12/2022 9:30:00 PM 20.85 69.53 0.469 8.26 3.3 8.03
8/12/2022 9:45:00 PM 20.76 69.368 0.469 8.24 11.05 7.96
8/12/2022 10:00:00 PM 20.68 69.224 0.468 8.22 6.95 7.94
8/12/2022 10:15:00 PM 20.59 69.062 0.468 8.22 3.81 7.92
8/12/2022 10:30:00 PM 20.5 68.9 0.468 8.2 3.44 7.91
8/12/2022 10:45:00 PM 20.42 68.756 0.468 8.19 3.5 7.9
8/12/2022 11:00:00 PM 20.34 68.612 0.467 8.18 3.34 7.9
8/12/2022 11:15:00 PM 20.25 68.45 0.467 8.17 3.46 7.89
8/12/2022 11:30:00 PM 20.17 68.306 0.466 8.16 3.82 7.89
8/12/2022 11:45:00 PM 20.08 68.144 0.466 8.15 3.35 7.9
8/13/2022 12:00:00 AM 20 68 0.465 8.14 3.18 7.89
8/13/2022 12:15:00 AM 19.92 67.856 0.465 8.13 3.45 7.91
8/13/2022 12:30:00 AM 19.82 67.676 0.464 8.11 3.52 7.92
8/13/2022 12:45:00 AM 19.74 67.532 0.463 8.1 3.43 7.94
8/13/2022 1:00:00 AM 19.64 67.352 0.463 8.1 3.31 7.93
8/13/2022 1:15:00 AM 19.55 67.19 0.462 8.1 3.51 7.96
8/13/2022 1:30:00 AM 19.46 67.028 0.462 8.09 3.17 7.97
8/13/2022 1:45:00 AM 19.37 66.866 0.462 8.09 3.11 7.98
8/13/2022 2:00:00 AM 19.28 66.704 0.461 8.08 3.2 7.99
8/13/2022 2:15:00 AM 19.18 66.524 0.461 8.08 3.2 7.99
8/13/2022 2:30:00 AM 19.08 66.344 0.461 8.07 3.16 8.02
8/13/2022 2:45:00 AM 18.99 66.182 0.46 8.06 3.37 8.04
8/13/2022 3:00:00 AM 18.89 66.002 0.46 8.05 3.35 8.05
8/13/2022 3:15:00 AM 18.81 65.858 0.46 8.05 3.32 8.08
8/13/2022 3:30:00 AM 18.71 65.67799 0.46 8.03 3.78 8.09
8/13/2022 3:45:00 AM 18.61 65.498 0.46 8.03 3.4 8.11
8/13/2022 4:00:00 AM 18.51 65.318 0.46 8.03 4.28 8.13
8/13/2022 4:15:00 AM 18.4 65.12 0.461 8.02 3.34 8.16
8/13/2022 4:30:00 AM 18.3 64.94 0.461 8.01 3.32 8.19
8/13/2022 4:45:00 AM 18.19 64.742 0.462 8 3.82 8.2
8/13/2022 5:00:00 AM 18.09 64.562 0.462 8 3.54 8.23
8/13/2022 5:15:00 AM 17.99 64.382 0.463 8 3.79 8.25
8/13/2022 5:30:00 AM 17.88 64.184 0.463 8 3.48 8.28
8/13/2022 5:45:00 AM 17.77 63.986 0.464 7.98 4.58 8.29
8/13/2022 6:00:00 AM 17.66 63.788 0.465 7.99 3.51 8.34
8/13/2022 6:15:00 AM 17.56 63.608 0.466 7.98 3.57 8.36
8/13/2022 6:30:00 AM 17.46 63.428 0.466 7.99 3.32 8.38
8/13/2022 6:45:00 AM 17.35 63.23 0.467 7.98 3.36 8.41
8/13/2022 7:00:00 AM 17.26 63.068 0.468 7.99 3.09 8.49
8/13/2022 7:15:00 AM 17.16 62.888 0.469 7.99 9.34 8.57
8/13/2022 7:30:00 AM 17.08 62.744 0.469 8 3.26 8.64
8/13/2022 7:45:00 AM 17.02 62.636 0.47 8 2.85 8.72
8/13/2022 8:00:00 AM 16.96 62.528 0.471 8.01 2.81 8.81
8/13/2022 8:15:00 AM 16.92 62.456 0.472 8.03 2.66 8.91
8/13/2022 8:30:00 AM 16.9 62.42 0.473 8.05 2.55 9.04
8/13/2022 8:45:00 AM 16.91 62.438 0.473 8.06 2.48 9.21
8/13/2022 9:00:00 AM 16.96 62.528 0.474 8.09 2.58 9.38
8/13/2022 9:15:00 AM 17.05 62.69 0.474 8.13 2.36 9.6
8/13/2022 9:30:00 AM 17.16 62.888 0.475 8.16 2.27 9.77
8/13/2022 9:45:00 AM 17.28 63.104 0.475 8.2 2.3 9.94
8/13/2022 10:00:00 AM 17.42 63.356 0.475 8.22 2.22 10.12
8/13/2022 10:15:00 AM 17.59 63.662 0.476 8.27 2.26 10.3
8/13/2022 10:30:00 AM 17.84 64.112 0.476 8.3 2.2 10.5
8/13/2022 10:45:00 AM 18.17 64.706 0.476 8.35 2.19 10.72
8/13/2022 11:00:00 AM 18.55 65.39 0.476 8.39 2.18 10.92
8/13/2022 11:15:00 AM 18.91 66.038 0.476 8.43 2.15 11.14
8/13/2022 11:30:00 AM 19.36 66.848 0.476 8.48 2.12 11.32
8/13/2022 11:45:00 AM 19.8 67.64 0.476 8.52 2.07 11.55
8/13/2022 12:00:00 PM 20.16 68.288 0.476 8.58 2.11 11.73
8/13/2022 12:15:00 PM 20.38 68.684 0.476 8.61 2.14 11.8
8/13/2022 12:30:00 PM 20.56 69.008 0.476 8.63 2.36 11.82
8/13/2022 12:45:00 PM 20.73 69.314 0.476 8.66 2.31 11.92
8/13/2022 1:00:00 PM 20.86 69.548 0.476 8.68 2.16 11.9
8/13/2022 1:15:00 PM 20.95 69.71 0.476 8.69 2.08 11.89
8/13/2022 1:30:00 PM 20.98 69.764 0.476 8.69 2.18 11.8
8/13/2022 1:45:00 PM 21.06 69.908 0.476 8.71 2.28 11.74
8/13/2022 2:00:00 PM 21.12 70.016 0.476 8.72 2.07 11.69
8/13/2022 2:15:00 PM 21.18 70.124 0.476 8.72 2.18 11.59
8/13/2022 2:30:00 PM 21.18 70.124 0.477 8.73 2.21 11.46
8/13/2022 2:45:00 PM 21.2 70.16 0.477 8.73 2.09 11.31
8/13/2022 3:00:00 PM 21.27 70.286 0.477 8.74 2.12 11.2
8/13/2022 3:15:00 PM 21.36 70.448 0.477 8.74 2.27 11.21
8/13/2022 3:30:00 PM 21.48 70.664 0.478 8.76 2.15 11.21
8/13/2022 3:45:00 PM 21.59 70.862 0.478 8.77 2.26 11.2
8/13/2022 4:00:00 PM 21.67 71.006 0.478 8.79 2.42 11.19
8/13/2022 4:15:00 PM 21.73 71.114 0.478 8.79 2.22 11.11
8/13/2022 4:30:00 PM 21.81 71.258 0.479 8.8 2.14 11.08
8/13/2022 4:45:00 PM 21.81 71.258 0.479 8.81 2.27 11.06
8/13/2022 5:00:00 PM 21.82 71.276 0.479 8.81 2.2 11.01
8/13/2022 5:15:00 PM 21.74 71.132 0.48 8.8 2.55 10.82
8/13/2022 5:30:00 PM 21.63 70.934 0.481 8.78 2.24 10.64
8/13/2022 5:45:00 PM 21.58 70.844 0.482 8.77 2.21 10.5
8/13/2022 6:00:00 PM 21.48 70.664 0.483 8.75 2.71 10.33
8/13/2022 6:15:00 PM 21.35 70.43 0.484 8.72 2.39 10.1
8/13/2022 6:30:00 PM 21.24 70.232 0.485 8.7 2.33 9.95
8/13/2022 6:45:00 PM 21.11 69.998 0.486 8.67 2.28 9.75
8/13/2022 7:00:00 PM 20.98 69.764 0.487 8.63 2.66 9.55
8/13/2022 7:15:00 PM 20.87 69.566 0.488 8.6 11.16 9.4
8/13/2022 7:30:00 PM 20.76 69.368 0.489 8.55 3.11 9.21
8/13/2022 7:45:00 PM 20.65 69.17 0.49 8.51 3.01 9
8/13/2022 8:00:00 PM 20.56 69.008 0.49 8.49 2.48 8.86
8/13/2022 8:15:00 PM 20.48 68.864 0.491 8.45 2.9 8.73
8/13/2022 8:30:00 PM 20.39 68.702 0.492 8.42 2.55 8.58
8/13/2022 8:45:00 PM 20.32 68.576 0.492 8.39 2.75 8.47
8/13/2022 9:00:00 PM 20.24 68.432 0.493 8.36 2.8 8.37
8/13/2022 9:15:00 PM 20.18 68.324 0.493 8.34 3.05 8.29
8/13/2022 9:30:00 PM 20.12 68.216 0.493 8.32 3.17 8.23
8/13/2022 9:45:00 PM 20.07 68.126 0.493 8.3 3.22 8.17
8/13/2022 10:00:00 PM 20.02 68.036 0.494 8.28 3.18 8.15
8/13/2022 10:15:00 PM 19.98 67.964 0.494 8.27 3.22 8.12
8/13/2022 10:30:00 PM 19.93 67.874 0.494 8.25 3.33 8.07
8/13/2022 10:45:00 PM 19.89 67.802 0.494 8.24 3.97 8.06
8/13/2022 11:00:00 PM 19.84 67.712 0.495 8.23 3.99 8.03
8/13/2022 11:15:00 PM 19.8 67.64 0.495 8.22 3.36 8.03
8/13/2022 11:30:00 PM 19.76 67.568 0.495 8.21 4.07 8.02
8/13/2022 11:45:00 PM 19.71 67.478 0.495 8.19 3.5 8.02
8/14/2022 12:00:00 AM 19.67 67.406 0.495 8.19 3.25 8.01
8/14/2022 12:15:00 AM 19.63 67.334 0.496 8.18 3.13 8.01
8/14/2022 12:30:00 AM 19.58 67.244 0.496 8.17 3.16 8
8/14/2022 12:45:00 AM 19.54 67.172 0.496 8.17 3.12 8.01
8/14/2022 1:00:00 AM 19.5 67.1 0.496 8.16 2.96 8.01
8/14/2022 1:15:00 AM 19.46 67.028 0.496 8.16 3.06 8.01
8/14/2022 1:30:00 AM 19.42 66.956 0.496 8.15 3.08 8.01
8/14/2022 1:45:00 AM 19.36 66.848 0.497 8.14 3.12 8
8/14/2022 2:00:00 AM 19.31 66.758 0.497 8.13 3.01 7.99
8/14/2022 2:15:00 AM 19.26 66.668 0.497 8.13 3.07 8
8/14/2022 2:30:00 AM 19.21 66.578 0.497 8.12 3.24 8.01
8/14/2022 2:45:00 AM 19.15 66.47 0.497 8.12 3.14 8.01
8/14/2022 3:00:00 AM 19.11 66.398 0.497 8.1 3.2 8.02
8/14/2022 3:15:00 AM 19.04 66.272 0.497 8.1 3.37 8.03
8/14/2022 3:30:00 AM 18.99 66.182 0.497 8.1 3.07 8.04
8/14/2022 3:45:00 AM 18.92 66.056 0.498 8.09 3.2 8.04
8/14/2022 4:00:00 AM 18.85 65.93 0.498 8.08 3.58 8.06
8/14/2022 4:15:00 AM 18.78 65.804 0.498 8.06 3.45 8.06
8/14/2022 4:30:00 AM 18.7 65.66 0.498 8.06 3.21 8.06
8/14/2022 4:45:00 AM 18.63 65.534 0.499 8.06 3.07 8.09
8/14/2022 5:00:00 AM 18.55 65.39 0.499 8.05 3.63 8.11
8/14/2022 5:15:00 AM 18.47 65.246 0.5 8.04 3.27 8.11
8/14/2022 5:30:00 AM 18.4 65.12 0.501 8.04 3.35 8.14
8/14/2022 5:45:00 AM 18.32 64.976 0.501 8.02 3.64 8.17
8/14/2022 6:00:00 AM 18.24 64.832 0.502 8.02 3.55 8.18
8/14/2022 6:15:00 AM 18.16 64.688 0.503 8.02 3.46 8.19
8/14/2022 6:30:00 AM 18.1 64.58 0.504 8.02 3.36 8.22
8/14/2022 6:45:00 AM 18.03 64.454 0.504 8.01 3.81 8.23
8/14/2022 7:00:00 AM 17.98 64.364 0.505 8.02 4.31 8.29
8/14/2022 7:15:00 AM 17.93 64.274 0.506 8.03 2.88 8.39
8/14/2022 7:30:00 AM 17.89 64.202 0.507 8.04 2.92 8.5
8/14/2022 7:45:00 AM 17.85 64.13 0.507 8.05 2.73 8.61
8/14/2022 8:00:00 AM 17.84 64.112 0.508 8.07 2.82 8.8
8/14/2022 8:15:00 AM 17.83 64.094 0.508 8.09 2.51 8.93
8/14/2022 8:30:00 AM 17.81 64.058 0.509 8.1 2.45 9.02
8/14/2022 8:45:00 AM 17.83 64.094 0.509 8.12 2.65 9.17
8/14/2022 9:00:00 AM 17.88 64.184 0.509 8.14 2.43 9.32
8/14/2022 9:15:00 AM 17.94 64.292 0.51 8.17 2.42 9.49
8/14/2022 9:30:00 AM 18.01 64.418 0.51 8.2 2.25 9.67
8/14/2022 9:45:00 AM 18.14 64.652 0.51 8.23 2.2 9.91
8/14/2022 10:00:00 AM 18.24 64.832 0.51 8.26 2.18 10.06
8/14/2022 10:15:00 AM 18.41 65.138 0.51 8.3 2.2 10.26
8/14/2022 10:30:00 AM 18.66 65.588 0.51 8.34 2.19 10.47
8/14/2022 10:45:00 AM 19.06 66.308 0.509 8.41 2.23 10.91
8/14/2022 11:00:00 AM 19.13 66.434 0.509 8.45 2.19 11.05
8/14/2022 11:15:00 AM 19.52 67.136 0.508 8.52 2.24 11.49
8/14/2022 11:30:00 AM 20 68 0.508 8.58 2.19 11.76
8/14/2022 11:45:00 AM 20.18 68.324 0.507 8.63 2.21 11.96
8/14/2022 12:00:00 PM 20.57 69.026 0.506 8.67 2.11 12.19
8/14/2022 12:15:00 PM 20.84 69.512 0.506 8.71 2.22 12.4
8/14/2022 12:30:00 PM 20.89 69.602 0.505 8.74 2.29 12.49
8/14/2022 12:45:00 PM 21.02 69.836 0.504 8.77 2.4 12.64
8/14/2022 1:00:00 PM 20.95 69.71 0.503 8.8 2.37 12.59
8/14/2022 1:15:00 PM 20.87 69.566 0.503 8.82 2.12 12.56
8/14/2022 1:30:00 PM 20.87 69.566 0.502 8.83 2.15 12.6
8/14/2022 1:45:00 PM 20.92 69.656 0.501 8.86 2.51 12.67
8/14/2022 2:00:00 PM 20.86 69.548 0.5 8.87 2.15 12.5
8/14/2022 2:15:00 PM 20.82 69.476 0.5 8.87 2.12 12.33
8/14/2022 2:30:00 PM 20.82 69.476 0.5 8.88 2.2 12.21
8/14/2022 2:45:00 PM 20.87 69.566 0.499 8.88 2.31 12.16
8/14/2022 3:00:00 PM 20.96 69.728 0.498 8.9 2.13 12.23
8/14/2022 3:15:00 PM 21.01 69.818 0.498 8.91 2.01 12.21
8/14/2022 3:30:00 PM 21.03 69.854 0.498 8.91 1.99 12.09
8/14/2022 3:45:00 PM 21.04 69.872 0.498 8.92 2.1 12.05
8/14/2022 4:00:00 PM 21.02 69.836 0.498 8.92 2.24 11.87
8/14/2022 4:15:00 PM 20.96 69.728 0.498 8.9 2.04 11.57
8/14/2022 4:30:00 PM 20.91 69.638 0.499 8.89 2.55 11.39
8/14/2022 4:45:00 PM 20.81 69.458 0.5 8.87 2.32 11.05
8/14/2022 5:00:00 PM 20.74 69.332 0.5 8.85 2.14 10.92
8/14/2022 5:15:00 PM 20.67 69.206 0.5 8.83 2.16 10.79
8/14/2022 5:30:00 PM 20.59 69.062 0.501 8.81 2.23 10.61
8/14/2022 5:45:00 PM 20.53 68.954 0.502 8.79 2.45 10.48
8/14/2022 6:00:00 PM 20.44 68.792 0.503 8.76 2.19 10.23
8/14/2022 6:15:00 PM 20.36 68.648 0.504 8.72 2.2 10.03
8/14/2022 6:30:00 PM 20.31 68.558 0.506 8.69 2.24 9.79
8/14/2022 6:45:00 PM 20.24 68.432 0.506 8.65 2.27 9.51
8/14/2022 7:00:00 PM 20.18 68.324 0.505 8.61 3.04 9.29
8/14/2022 7:15:00 PM 20.12 68.216 0.504 8.58 2.55 9.08
8/14/2022 7:30:00 PM 20.01 68.018 0.491 8.52 4.2 8.9
8/14/2022 7:45:00 PM 20 68 0.496 8.5 3.63 8.73
8/14/2022 8:00:00 PM 19.96 67.92799 0.497 8.47 3.32 8.62
8/14/2022 8:15:00 PM 19.93 67.874 0.498 8.44 3.17 8.48
8/14/2022 8:30:00 PM 19.91 67.838 0.501 8.42 3.3 8.41
8/14/2022 8:45:00 PM 19.88 67.784 0.501 8.39 3.23 8.31
8/14/2022 9:00:00 PM 19.85 67.73 0.5 8.38 3.28 8.25
8/14/2022 9:15:00 PM 19.82 67.676 0.499 8.35 3.12 8.2
8/14/2022 9:30:00 PM 19.79 67.622 0.498 8.33 3.46 8.15
8/14/2022 9:45:00 PM 19.77 67.586 0.499 8.32 5.1 8.11
8/14/2022 10:00:00 PM 19.75 67.55 0.5 8.3 3.31 8.09
8/14/2022 10:15:00 PM 19.74 67.532 0.501 8.29 3.23 8.05
8/14/2022 10:30:00 PM 19.72 67.496 0.502 8.28 3.45 8.04
8/14/2022 10:45:00 PM 19.7 67.46 0.503 8.27 3.41 8.03
8/14/2022 11:00:00 PM 19.69 67.442 0.503 8.27 3.35 8.01
8/14/2022 11:15:00 PM 19.67 67.406 0.504 8.26 3.07 8.01
8/14/2022 11:30:00 PM 19.65 67.37 0.504 8.25 3.16 7.99
8/14/2022 11:45:00 PM 19.64 67.352 0.504 8.24 3.29 7.95
8/15/2022 12:00:00 AM 19.61 67.298 0.504 8.24 3.15 7.95
8/15/2022 12:15:00 AM 19.58 67.244 0.504 8.23 3.01 7.94
8/15/2022 12:30:00 AM 19.57 67.226 0.504 8.23 2.83 7.95
8/15/2022 12:45:00 AM 19.54 67.172 0.504 8.22 3.35 7.97
8/15/2022 1:00:00 AM 19.51 67.118 0.504 8.22 3.08 7.97
8/15/2022 1:15:00 AM 19.48 67.064 0.504 8.22 3.24 7.97
8/15/2022 1:30:00 AM 19.45 67.01 0.503 8.2 3.05 7.96
8/15/2022 1:45:00 AM 19.43 66.974 0.503 8.2 2.94 7.96
8/15/2022 2:00:00 AM 19.39 66.902 0.503 8.19 3.13 7.96
8/15/2022 2:15:00 AM 19.37 66.866 0.502 8.18 2.95 7.96
8/15/2022 2:30:00 AM 19.34 66.812 0.502 8.17 3 7.93
8/15/2022 2:45:00 AM 19.32 66.776 0.502 8.16 3.08 7.94
8/15/2022 3:00:00 AM 19.3 66.74 0.502 8.15 2.97 7.95
8/15/2022 3:15:00 AM 19.28 66.704 0.502 8.13 3.55 7.95
8/15/2022 3:30:00 AM 19.25 66.65 0.502 8.13 2.97 7.95
8/15/2022 3:45:00 AM 19.22 66.596 0.502 8.12 3.33 7.96
8/15/2022 4:00:00 AM 19.19 66.542 0.503 8.11 3.04 7.98
8/15/2022 4:15:00 AM 19.16 66.488 0.504 8.1 3.33 7.99
8/15/2022 4:30:00 AM 19.13 66.434 0.505 8.09 3.43 8
8/15/2022 4:45:00 AM 19.09 66.362 0.506 8.08 3.43 8.03
8/15/2022 5:00:00 AM 19.06 66.308 0.507 8.07 3.49 8.06
8/15/2022 5:15:00 AM 19.02 66.236 0.509 8.07 3.42 8.07
8/15/2022 5:30:00 AM 18.99 66.182 0.509 8.06 3.74 8.09
8/15/2022 5:45:00 AM 18.95 66.11 0.51 8.05 4.67 8.09
8/15/2022 6:00:00 AM 18.92 66.056 0.51 8.04 3.67 8.1
8/15/2022 6:15:00 AM 18.88 65.984 0.511 8.04 3.88 8.1
8/15/2022 6:30:00 AM 18.85 65.93 0.511 8.03 3.91 8.08
8/15/2022 6:45:00 AM 18.82 65.876 0.511 8.03 3.64 8.08
8/15/2022 7:00:00 AM 18.8 65.84 0.511 8.02 3.43 8.13
8/15/2022 7:15:00 AM 18.77 65.786 0.511 8.02 3.4 8.14
8/15/2022 7:30:00 AM 18.74 65.732 0.511 8.01 3.32 8.15
8/15/2022 7:45:00 AM 18.72 65.696 0.511 8.01 3.44 8.15
8/15/2022 8:00:00 AM 18.69 65.642 0.511 8.01 2.9 8.18
8/15/2022 8:15:00 AM 18.66 65.588 0.511 8.01 2.86 8.23
8/15/2022 8:30:00 AM 18.63 65.534 0.511 8.01 3.15 8.23
8/15/2022 8:45:00 AM 18.61 65.498 0.511 8.02 2.63 8.3
8/15/2022 9:00:00 AM 18.6 65.48 0.511 8.02 3.56 8.36
8/15/2022 9:15:00 AM 18.58 65.444 0.511 8.03 2.66 8.44
8/15/2022 9:30:00 AM 18.56 65.408 0.51 8.03 2.63 8.52
8/15/2022 9:45:00 AM 18.55 65.39 0.51 8.05 2.73 8.62
8/15/2022 10:00:00 AM 18.53 65.354 0.51 8.06 2.65 8.7
8/15/2022 10:15:00 AM 18.5 65.3 0.509 8.07 2.48 8.77
8/15/2022 10:30:00 AM 18.48 65.264 0.508 8.08 2.48 8.83
8/15/2022 10:45:00 AM 18.48 65.264 0.508 8.1 2.47 8.97
8/15/2022 11:00:00 AM 18.48 65.264 0.507 8.12 2.33 9.12
8/15/2022 11:15:00 AM 18.47 65.246 0.506 8.13 2.37 9.11
8/15/2022 11:30:00 AM 18.46 65.228 0.505 8.13 2.34 9.16
8/15/2022 11:45:00 AM 18.42 65.156 0.5 8.15 2.42 9.18
8/15/2022 12:00:00 PM 18.41 65.138 0.502 8.14 6.58 9.11
8/15/2022 12:15:00 PM 18.4 65.12 0.502 8.14 2.3 9.11
8/15/2022 12:30:00 PM 18.39 65.102 0.502 8.14 2.25 9.12
8/15/2022 12:45:00 PM 18.4 65.12 0.502 8.16 2.45 9.29
8/15/2022 1:00:00 PM 18.39 65.102 0.502 8.17 2.18 9.28
8/15/2022 1:15:00 PM 18.4 65.12 0.501 8.19 2.12 9.4
8/15/2022 1:30:00 PM 18.4 65.12 0.501 8.19 2.22 9.42
8/15/2022 1:45:00 PM 18.39 65.102 0.501 8.2 2.13 9.42
8/15/2022 2:00:00 PM 18.38 65.084 0.501 8.21 2.22 9.46
8/15/2022 2:15:00 PM 18.38 65.084 0.503 8.22 2.25 9.45
8/15/2022 2:30:00 PM 18.38 65.084 0.504 8.22 2.22 9.5
8/15/2022 2:45:00 PM 18.38 65.084 0.506 8.23 2.15 9.5
8/15/2022 3:00:00 PM 18.37 65.066 0.507 8.23 2.23 9.54
8/15/2022 3:15:00 PM 18.38 65.084 0.509 8.25 2.22 9.6
8/15/2022 3:30:00 PM 18.38 65.084 0.511 8.25 2.16 9.59
8/15/2022 3:45:00 PM 18.39 65.102 0.512 8.26 2.28 9.64
8/15/2022 4:00:00 PM 18.38 65.084 0.514 8.27 2.44 9.62
8/15/2022 4:15:00 PM 18.4 65.12 0.515 8.28 2.19 9.74
8/15/2022 4:30:00 PM 18.41 65.138 0.517 8.29 2.28 9.74
8/15/2022 4:45:00 PM 18.41 65.138 0.518 8.29 2.29 9.69
8/15/2022 5:00:00 PM 18.42 65.156 0.519 8.3 2.51 9.69
8/15/2022 5:15:00 PM 18.42 65.156 0.52 8.3 2.27 9.68
8/15/2022 5:30:00 PM 18.43 65.174 0.521 8.3 2.29 9.65
8/15/2022 5:45:00 PM 18.42 65.156 0.522 8.29 2.27 9.54
8/15/2022 6:00:00 PM 18.41 65.138 0.523 8.27 2.37 9.41
8/15/2022 6:15:00 PM 18.39 65.102 0.523 8.26 2.38 9.3
8/15/2022 6:30:00 PM 18.39 65.102 0.523 8.25 2.34 9.27
8/15/2022 6:45:00 PM 18.39 65.102 0.523 8.23 2.48 9.22
8/15/2022 7:00:00 PM 18.38 65.084 0.523 8.22 2.44 9.16
8/15/2022 7:15:00 PM 18.37 65.066 0.524 8.21 2.64 9.1
8/15/2022 7:30:00 PM 18.36 65.048 0.523 8.19 2.49 9.03
8/15/2022 7:45:00 PM 18.35 65.03 0.522 8.18 2.58 8.94
8/15/2022 8:00:00 PM 18.34 65.012 0.521 8.16 2.63 8.87
8/15/2022 8:15:00 PM 18.32 64.976 0.52 8.15 2.64 8.81
8/15/2022 8:30:00 PM 18.31 64.958 0.52 8.14 2.67 8.76
8/15/2022 8:45:00 PM 18.3 64.94 0.519 8.13 8.44 8.71
8/15/2022 9:00:00 PM 18.3 64.94 0.518 8.12 3.18 8.69
8/15/2022 9:15:00 PM 18.29 64.922 0.518 8.1 3.43 8.64
8/15/2022 9:30:00 PM 18.28 64.904 0.517 8.1 3.19 8.62
8/15/2022 9:45:00 PM 18.27 64.886 0.517 8.09 8.47 8.59
8/15/2022 10:00:00 PM 18.26 64.868 0.516 8.09 3.94 8.58
8/15/2022 10:15:00 PM 18.25 64.85 0.515 8.08 3.78 8.56
8/15/2022 10:30:00 PM 18.24 64.832 0.515 8.07 3.78 8.54
8/15/2022 10:45:00 PM 18.22 64.796 0.514 8.06 3.87 8.54
8/15/2022 11:00:00 PM 18.21 64.778 0.514 8.07 3.85 8.54
8/15/2022 11:15:00 PM 18.19 64.742 0.513 8.06 4.19 8.53
8/15/2022 11:30:00 PM 18.18 64.724 0.513 8.05 3.83 8.53
8/15/2022 11:45:00 PM 18.16 64.688 0.513 8.06 3.94 8.53
8/16/2022 12:00:00 AM 18.14 64.652 0.512 8.05 4.14 8.52
8/16/2022 12:15:00 AM 18.12 64.616 0.512 8.05 4.02 8.53
8/16/2022 12:30:00 AM 18.1 64.58 0.512 8.04 3.89 8.52
8/16/2022 12:45:00 AM 18.08 64.544 0.512 8.04 3.9 8.53
8/16/2022 1:00:00 AM 18.06 64.508 0.512 8.04 3.59 8.53
8/16/2022 1:15:00 AM 18.03 64.454 0.512 8.04 3.87 8.53
8/16/2022 1:30:00 AM 18.01 64.418 0.512 8.03 3.58 8.53
8/16/2022 1:45:00 AM 17.99 64.382 0.513 8.03 3.68 8.54
8/16/2022 2:00:00 AM 17.96 64.328 0.513 8.02 3.61 8.53
8/16/2022 2:15:00 AM 17.94 64.292 0.513 8.02 5.25 8.53
8/16/2022 2:30:00 AM 17.92 64.256 0.513 8.03 3.48 8.54
8/16/2022 2:45:00 AM 17.89 64.202 0.513 8.02 3.69 8.55
8/16/2022 3:00:00 AM 17.87 64.166 0.512 8.02 4.14 8.55
8/16/2022 3:15:00 AM 17.85 64.13 0.512 8.02 4.05 8.55
8/16/2022 3:30:00 AM 17.82 64.076 0.512 8.02 3.69 8.55
8/16/2022 3:45:00 AM 17.8 64.04 0.512 8 3.54 8.55
8/16/2022 4:00:00 AM 17.77 63.986 0.512 8.01 3.7 8.57
8/16/2022 4:15:00 AM 17.75 63.95 0.512 8.01 3.6 8.57
8/16/2022 4:30:00 AM 17.72 63.896 0.512 8 3.58 8.57
8/16/2022 4:45:00 AM 17.69 63.842 0.512 8 3.84 8.58
8/16/2022 5:00:00 AM 17.67 63.806 0.512 8 3.82 8.58
8/16/2022 5:15:00 AM 17.64 63.752 0.513 7.99 3.43 8.6
8/16/2022 5:30:00 AM 17.62 63.716 0.513 8 4.16 8.61
8/16/2022 5:45:00 AM 17.59 63.662 0.513 7.98 4.49 8.61
8/16/2022 6:00:00 AM 17.57 63.626 0.513 8 3.94 8.61
8/16/2022 6:15:00 AM 17.54 63.572 0.513 7.99 3.81 8.62
8/16/2022 6:30:00 AM 17.51 63.518 0.513 7.99 8.02 8.6
8/16/2022 6:45:00 AM 17.49 63.482 0.513 7.99 4.07 8.61
8/16/2022 7:00:00 AM 17.47 63.446 0.513 7.99 3.54 8.64
8/16/2022 7:15:00 AM 17.45 63.41 0.513 7.99 3.26 8.69
8/16/2022 7:30:00 AM 17.44 63.392 0.512 8.01 3.39 8.76
8/16/2022 7:45:00 AM 17.43 63.374 0.512 8.01 3.07 8.79
8/16/2022 8:00:00 AM 17.45 63.41 0.511 8.03 2.95 8.93
8/16/2022 8:15:00 AM 17.48 63.464 0.51 8.05 2.95 9.12
8/16/2022 8:30:00 AM 17.53 63.554 0.509 8.09 2.7 9.37
8/16/2022 8:45:00 AM 17.59 63.662 0.508 8.12 2.65 9.61
8/16/2022 9:00:00 AM 17.68 63.824 0.507 8.17 2.89 9.88
8/16/2022 9:15:00 AM 17.82 64.076 0.506 8.22 2.6 10.18
8/16/2022 9:30:00 AM 17.88 64.184 0.505 8.26 2.53 10.35
8/16/2022 9:45:00 AM 17.99 64.382 0.503 8.31 2.64 10.56
8/16/2022 10:00:00 AM 18.1 64.58 0.502 8.35 2.48 10.78
8/16/2022 10:15:00 AM 18.22 64.796 0.501 8.39 2.61 10.95
8/16/2022 10:30:00 AM 18.37 65.066 0.5 8.44 2.57 11.14
8/16/2022 10:45:00 AM 18.55 65.39 0.499 8.48 2.54 11.3
8/16/2022 11:00:00 AM 18.68 65.624 0.498 8.51 2.51 11.41
8/16/2022 11:15:00 AM 18.82 65.876 0.497 8.56 2.39 11.55
8/16/2022 11:30:00 AM 19.36 66.848 0.496 8.58 2.43 11.69
8/16/2022 11:45:00 AM 19.24 66.632 0.495 8.61 2.49 11.57
8/16/2022 12:00:00 PM 19.58 67.244 0.494 8.64 2.33 11.78
8/16/2022 12:15:00 PM 19.93 67.874 0.493 8.67 2.41 11.84
8/16/2022 12:30:00 PM 19.97 67.946 0.493 8.69 2.43 11.83
8/16/2022 12:45:00 PM 19.97 67.946 0.492 8.7 2.41 11.87
8/16/2022 1:00:00 PM 19.95 67.91 0.491 8.72 2.47 11.8
8/16/2022 1:15:00 PM 19.9 67.82 0.491 8.71 2.36 11.66
8/16/2022 1:30:00 PM 20.24 68.432 0.49 8.74 2.35 11.85
8/16/2022 1:45:00 PM 20.07 68.126 0.49 8.74 2.52 11.71
8/16/2022 2:00:00 PM 20.05 68.09 0.489 8.75 2.29 11.63
8/16/2022 2:15:00 PM 20.08 68.144 0.489 8.76 2.46 11.61
8/16/2022 2:30:00 PM 20.16 68.288 0.488 8.78 3.09 11.68
8/16/2022 2:45:00 PM 20.27 68.486 0.488 8.79 2.62 11.7
8/16/2022 3:00:00 PM 20.29 68.522 0.488 8.8 2.74 11.67
8/16/2022 3:15:00 PM 20.41 68.738 0.488 8.81 2.44 11.7
8/16/2022 3:30:00 PM 20.49 68.882 0.488 8.81 2.46 11.64
8/16/2022 3:45:00 PM 20.55 68.99 0.488 8.82 2.46 11.55
8/16/2022 4:00:00 PM 20.59 69.062 0.487 8.82 2.5 11.51
8/16/2022 4:15:00 PM 20.63 69.134 0.487 8.82 2.54 11.43
8/16/2022 4:30:00 PM 20.64 69.152 0.487 8.82 2.47 11.26
8/16/2022 4:45:00 PM 20.66 69.188 0.486 8.81 2.4 11.12
8/16/2022 5:00:00 PM 20.69 69.242 0.487 8.81 2.34 10.93
8/16/2022 5:15:00 PM 20.77 69.386 0.486 8.8 2.42 10.92
8/16/2022 5:30:00 PM 20.8 69.44 0.486 8.8 2.49 10.83
8/16/2022 5:45:00 PM 20.86 69.548 0.486 8.8 2.32 10.77
8/16/2022 6:00:00 PM 20.89 69.602 0.486 8.8 2.43 10.64
8/16/2022 6:15:00 PM 20.87 69.566 0.486 8.78 2.48 10.37
8/16/2022 6:30:00 PM 20.8 69.44 0.486 8.75 3.01 10.07
8/16/2022 6:45:00 PM 20.72 69.296 0.486 8.71 2.67 9.8
8/16/2022 7:00:00 PM 20.62 69.116 0.486 8.68 2.84 9.53
8/16/2022 7:15:00 PM 20.52 68.936 0.486 8.63 2.55 9.28
8/16/2022 7:30:00 PM 20.45 68.81 0.486 8.6 2.59 9.11
8/16/2022 7:45:00 PM 20.39 68.702 0.486 8.56 2.7 8.9
8/16/2022 8:00:00 PM 20.34 68.612 0.485 8.53 2.75 8.77
8/16/2022 8:15:00 PM 20.3 68.54 0.485 8.51 2.73 8.66
8/16/2022 8:30:00 PM 20.27 68.486 0.484 8.47 2.87 8.56
8/16/2022 8:45:00 PM 20.23 68.414 0.484 8.46 3.03 8.46
8/16/2022 9:00:00 PM 20.2 68.36 0.483 8.42 3.22 8.39
8/16/2022 9:15:00 PM 20.16 68.288 0.482 8.41 3.46 8.32
8/16/2022 9:30:00 PM 20.12 68.216 0.481 8.39 3.75 8.27
8/16/2022 9:45:00 PM 20.08 68.144 0.48 8.37 3.78 8.22
8/16/2022 10:00:00 PM 20.04 68.07201 0.479 8.35 3.63 8.19
8/16/2022 10:15:00 PM 19.99 67.982 0.477 8.34 4.09 8.18
8/16/2022 10:30:00 PM 19.94 67.892 0.474 8.33 3.96 8.17
8/16/2022 10:45:00 PM 19.91 67.838 0.472 8.31 4.21 8.15
8/16/2022 11:00:00 PM 19.89 67.802 0.472 8.31 5.9 8.14
8/16/2022 11:15:00 PM 19.87 67.766 0.47 8.3 5.78 8.15
8/16/2022 11:30:00 PM 19.86 67.748 0.47 8.28 6.74 8.16
8/16/2022 11:45:00 PM 19.83 67.694 0.468 8.28 6.56 8.17
8/17/2022 12:00:00 AM 19.8 67.64 0.467 8.27 6.22 8.17
8/17/2022 12:15:00 AM 19.76 67.568 0.468 8.26 6.67 8.18
8/17/2022 12:30:00 AM 19.72 67.496 0.468 8.25 12.89 8.21
8/17/2022 12:45:00 AM 19.67 67.406 0.467 8.21 15.43 8.24
8/17/2022 1:00:00 AM 19.6 67.28 0.467 8.19 16.13 8.28
8/17/2022 1:15:00 AM 19.51 67.118 0.466 8.15 15.58 8.3
8/17/2022 1:30:00 AM 19.44 66.992 0.465 8.12 14.54 8.3
8/17/2022 1:45:00 AM 19.37 66.866 0.462 8.09 14.35 8.31
8/17/2022 2:00:00 AM 19.29 66.722 0.456 8.06 14.47 8.31
8/17/2022 2:15:00 AM 19.2 66.56 0.448 8.03 14.4 8.32
8/17/2022 2:30:00 AM 19.12 66.416 0.438 8 15.89 8.33
8/17/2022 2:45:00 AM 19.04 66.272 0.428 7.98 17.75 8.34
8/17/2022 3:00:00 AM 18.97 66.146 0.42 7.95 21.84 8.35
8/17/2022 3:15:00 AM 18.93 66.074 0.419 7.95 22.02 8.36
8/17/2022 3:30:00 AM 18.91 66.038 0.427 7.95 22.41 8.39
8/17/2022 3:45:00 AM 18.91 66.038 0.441 7.96 21.7 8.41
8/17/2022 4:00:00 AM 18.92 66.056 0.455 7.96 21.75 8.42
8/17/2022 4:15:00 AM 18.92 66.056 0.465 7.97 22.14 8.43
8/17/2022 4:30:00 AM 18.92 66.056 0.471 7.98 20.08 8.44
8/17/2022 4:45:00 AM 18.9 66.02 0.475 7.97 20.34 8.43
8/17/2022 5:00:00 AM 18.89 66.002 0.478 7.98 20.14 8.45
8/17/2022 5:15:00 AM 18.87 65.966 0.483 7.98 19.67 8.45
8/17/2022 5:30:00 AM 18.85 65.93 0.489 7.96 18.68 8.45
8/17/2022 5:45:00 AM 18.83 65.894 0.496 7.97 18.18 8.45
8/17/2022 6:00:00 AM 18.81 65.858 0.503 7.96 24 8.45
8/17/2022 6:15:00 AM 18.79 65.82201 0.51 7.96 16.74 8.45
8/17/2022 6:30:00 AM 18.77 65.786 0.515 7.96 16.56 8.45
8/17/2022 6:45:00 AM 18.76 65.768 0.518 7.96 16.12 8.46
8/17/2022 7:00:00 AM 18.75 65.75 0.519 7.96 16.39 8.47
8/17/2022 7:15:00 AM 18.72 65.696 0.517 7.96 16.46 8.5
8/17/2022 7:30:00 AM 18.7 65.66 0.513 7.97 16.18 8.53
8/17/2022 7:45:00 AM 18.69 65.642 0.507 7.97 18.27 8.58
8/17/2022 8:00:00 AM 18.67 65.606 0.501 7.98 18.75 8.62
8/17/2022 8:15:00 AM 18.66 65.588 0.493 7.97 18.75 8.67
8/17/2022 8:30:00 AM 18.67 65.606 0.486 7.99 19.17 8.77
8/17/2022 8:45:00 AM 18.67 65.606 0.478 8.01 18.97 8.87
8/17/2022 9:00:00 AM 18.67 65.606 0.472 8.02 18.91 8.91
8/17/2022 9:15:00 AM 18.67 65.606 0.466 8.02 18.05 8.97
8/17/2022 9:30:00 AM 18.67 65.606 0.461 8.03 17.69 9.04
8/17/2022 9:45:00 AM 18.71 65.67799 0.457 8.05 17.22 9.18
8/17/2022 10:00:00 AM 18.74 65.732 0.454 8.07 16.17 9.28
8/17/2022 10:15:00 AM 18.83 65.894 0.451 8.1 15.94 9.48
8/17/2022 10:30:00 AM 19.03 66.254 0.448 8.14 15.57 9.69
8/17/2022 10:45:00 AM 19.19 66.542 0.446 8.19 14.52 9.84
8/17/2022 11:00:00 AM 19.36 66.848 0.445 8.23 13.75 10.02
8/17/2022 11:15:00 AM 19.6 67.28 0.443 8.27 13.31 10.17
8/17/2022 11:30:00 AM 19.81 67.658 0.443 8.31 13.23 10.31
8/17/2022 11:45:00 AM 20.15 68.27 0.442 8.35 12.33 10.52
8/17/2022 12:00:00 PM 20.08 68.144 0.441 8.38 11.91 10.54
8/17/2022 12:15:00 PM 20.1 68.18 0.441 8.42 11.15 10.62
8/17/2022 12:30:00 PM 20.38 68.684 0.44 8.45 11.27 10.73
8/17/2022 12:45:00 PM 20.49 68.882 0.44 8.47 10.53 10.76
8/17/2022 1:00:00 PM 20.54 68.972 0.439 8.48 10.15 10.68
8/17/2022 1:15:00 PM 20.58 69.044 0.438 8.5 10.46 10.61
8/17/2022 1:30:00 PM 20.5 68.9 0.437 8.48 10.85 10.46
8/17/2022 1:45:00 PM 20.4 68.72 0.436 8.46 10.03 10.25
8/17/2022 2:00:00 PM 20.34 68.612 0.434 8.43 9.64 10.09
8/17/2022 2:15:00 PM 20.3 68.54 0.432 8.41 9.66 9.95
8/17/2022 2:30:00 PM 20.28 68.504 0.43 8.4 9.43 9.88
8/17/2022 2:45:00 PM 20.27 68.486 0.427 8.39 9.33 9.8
8/17/2022 3:00:00 PM 20.18 68.324 0.418 8.36 10.04 9.69
8/17/2022 3:15:00 PM 20.15 68.27 0.416 8.36 9.63 9.6
8/17/2022 3:30:00 PM 20.07 68.126 0.412 8.33 9.23 9.49
8/17/2022 3:45:00 PM 20.02 68.036 0.409 8.32 8.73 9.43
8/17/2022 4:00:00 PM 20 68 0.407 8.31 9.97 9.42
8/17/2022 4:15:00 PM 19.97 67.946 0.405 8.31 8.61 9.36
8/17/2022 4:30:00 PM 19.95 67.91 0.403 8.3 8.34 9.32
8/17/2022 4:45:00 PM 19.94 67.892 0.401 8.3 7.86 9.27
8/17/2022 5:00:00 PM 19.92 67.856 0.4 8.29 7.9 9.25
8/17/2022 5:15:00 PM 19.89 67.802 0.398 8.28 7.82 9.17
8/17/2022 5:30:00 PM 19.87 67.766 0.398 8.27 7.46 9.11
8/17/2022 5:45:00 PM 19.84 67.712 0.397 8.25 7.44 8.99
8/17/2022 6:00:00 PM 19.81 67.658 0.396 8.22 7.11 8.9
8/17/2022 6:15:00 PM 19.78 67.604 0.396 8.21 7.31 8.88
8/17/2022 6:30:00 PM 19.77 67.586 0.395 8.21 7.09 8.9
8/17/2022 6:45:00 PM 19.77 67.586 0.395 8.21 6.78 8.98
8/17/2022 7:00:00 PM 19.76 67.568 0.394 8.21 6.68 9.02
8/17/2022 7:15:00 PM 19.73 67.514 0.393 8.22 6.49 9.03
8/17/2022 7:30:00 PM 19.68 67.424 0.392 8.2 6.71 8.97
8/17/2022 7:45:00 PM 19.63 67.334 0.391 8.18 6.08 8.89
8/17/2022 8:00:00 PM 19.57 67.226 0.391 8.17 6.25 8.8
8/17/2022 8:15:00 PM 19.51 67.118 0.391 8.14 6.09 8.71
8/17/2022 8:30:00 PM 19.44 66.992 0.391 8.11 7.68 8.62
8/17/2022 8:45:00 PM 19.38 66.884 0.39 8.09 6.74 8.54
8/17/2022 9:00:00 PM 19.33 66.794 0.39 8.07 7.18 8.48
8/17/2022 9:15:00 PM 19.29 66.722 0.39 8.06 7.21 8.45
8/17/2022 9:30:00 PM 19.24 66.632 0.391 8.04 7.25 8.42
8/17/2022 9:45:00 PM 19.19 66.542 0.391 8.03 9.3 8.39
8/17/2022 10:00:00 PM 19.13 66.434 0.391 8.02 8.46 8.38
8/17/2022 10:15:00 PM 19.06 66.308 0.391 7.99 8.59 8.37
8/17/2022 10:30:00 PM 19 66.2 0.391 7.99 8.53 8.35
8/17/2022 10:45:00 PM 18.94 66.092 0.392 7.98 8.62 8.35
8/17/2022 11:00:00 PM 18.88 65.984 0.392 7.97 8.53 8.34
8/17/2022 11:15:00 PM 18.82 65.876 0.392 7.97 7.97 8.35
8/17/2022 11:30:00 PM 18.76 65.768 0.392 7.95 7.89 8.34
8/17/2022 11:45:00 PM 18.72 65.696 0.392 7.95 7.93 8.34
8/18/2022 12:00:00 AM 18.68 65.624 0.392 7.95 7.64 8.33
8/18/2022 12:15:00 AM 18.64 65.552 0.392 7.95 10.84 8.32
8/18/2022 12:30:00 AM 18.6 65.48 0.392 7.94 9.48 8.33
8/18/2022 12:45:00 AM 18.57 65.426 0.392 7.95 7.38 8.35
8/18/2022 1:00:00 AM 18.51 65.318 0.391 7.94 7.5 8.35
8/18/2022 1:15:00 AM 18.46 65.228 0.392 7.94 7.56 8.35
8/18/2022 1:30:00 AM 18.39 65.102 0.392 7.93 6.9 8.37
8/18/2022 1:45:00 AM 18.33 64.994 0.392 7.91 6.95 8.37
8/18/2022 2:00:00 AM 18.27 64.886 0.392 7.92 7.41 8.37
8/18/2022 2:15:00 AM 18.22 64.796 0.392 7.93 6.32 8.39
8/18/2022 2:30:00 AM 18.15 64.67 0.392 7.92 6.84 8.39
8/18/2022 2:45:00 AM 18.08 64.544 0.392 7.92 6.47 8.39
8/18/2022 3:00:00 AM 18.03 64.454 0.392 7.92 6.12 8.4
8/18/2022 3:15:00 AM 17.98 64.364 0.393 7.91 6.36 8.4
8/18/2022 3:30:00 AM 17.94 64.292 0.393 7.91 6.14 8.41
8/18/2022 3:45:00 AM 17.87 64.166 0.394 7.9 6.12 8.43
8/18/2022 4:00:00 AM 17.81 64.058 0.394 7.91 6.11 8.44
8/18/2022 4:15:00 AM 17.75 63.95 0.394 7.9 5.9 8.45
8/18/2022 4:30:00 AM 17.68 63.824 0.394 7.91 6.08 8.47
8/18/2022 4:45:00 AM 17.62 63.716 0.394 7.9 6.08 8.48
8/18/2022 5:00:00 AM 17.55 63.59 0.394 7.9 10.75 8.49
8/18/2022 5:15:00 AM 17.49 63.482 0.394 7.89 5.85 8.51
8/18/2022 5:30:00 AM 17.44 63.392 0.394 7.89 5.87 8.53
8/18/2022 5:45:00 AM 17.39 63.302 0.393 7.9 6.36 8.53
8/18/2022 6:00:00 AM 17.34 63.212 0.393 7.9 6.21 8.54
8/18/2022 6:15:00 AM 17.29 63.122 0.393 7.89 6.05 8.55
8/18/2022 6:30:00 AM 17.24 63.032 0.393 7.9 6.18 8.57
8/18/2022 6:45:00 AM 17.19 62.942 0.392 7.89 5.64 8.59
8/18/2022 7:00:00 AM 17.14 62.852 0.392 7.91 6.08 8.64
8/18/2022 7:15:00 AM 17.1 62.78 0.392 7.91 5.62 8.7
8/18/2022 7:30:00 AM 17.07 62.726 0.392 7.92 5.08 8.77
8/18/2022 7:45:00 AM 17.06 62.708 0.392 7.94 7.08 8.89
8/18/2022 8:00:00 AM 17.05 62.69 0.391 7.96 4.78 9.01
8/18/2022 8:15:00 AM 17.06 62.708 0.391 7.97 4.62 9.15
8/18/2022 8:30:00 AM 17.06 62.708 0.391 8 4.34 9.27
8/18/2022 8:45:00 AM 17.06 62.708 0.391 8 4.34 9.28
8/18/2022 9:00:00 AM 17.1 62.78 0.391 8.02 4.22 9.41
8/18/2022 9:15:00 AM 17.18 62.924 0.391 8.06 3.92 9.53
8/18/2022 9:30:00 AM 17.26 63.068 0.392 8.09 3.8 9.64
8/18/2022 9:45:00 AM 17.36 63.248 0.392 8.11 3.91 9.75
8/18/2022 10:00:00 AM 17.5 63.5 0.393 8.14 3.76 9.89
8/18/2022 10:15:00 AM 17.68 63.824 0.393 8.17 3.65 10.04
8/18/2022 10:30:00 AM 17.93 64.274 0.394 8.21 3.51 10.21
8/18/2022 10:45:00 AM 18.23 64.814 0.395 8.27 3.43 10.39
8/18/2022 11:00:00 AM 18.53 65.354 0.395 8.32 3.23 10.53
8/18/2022 11:15:00 AM 18.85 65.93 0.395 8.35 3.41 10.71
8/18/2022 11:30:00 AM 19.18 66.524 0.396 8.4 3.3 10.84
8/18/2022 11:45:00 AM 19.5 67.1 0.396 8.44 3.11 10.97
8/18/2022 12:00:00 PM 19.74 67.532 0.396 8.47 3.04 11.06
8/18/2022 12:15:00 PM 19.76 67.568 0.396 8.49 3.17 11.02
8/18/2022 12:30:00 PM 20.09 68.162 0.396 8.52 3.21 11.18
8/18/2022 12:45:00 PM 20.07 68.126 0.395 8.54 5.58 11.11
8/18/2022 1:00:00 PM 20.43 68.774 0.394 8.56 3.32 11.28
8/18/2022 1:15:00 PM 20.32 68.576 0.393 8.57 3.29 11.08
8/18/2022 1:30:00 PM 20.59 69.062 0.392 8.6 5.93 11.22
8/18/2022 1:45:00 PM 20.53 68.954 0.39 8.61 3.39 11.07
8/18/2022 2:00:00 PM 20.69 69.242 0.388 8.62 3.68 11.11
8/18/2022 2:15:00 PM 20.57 69.026 0.387 8.62 3.13 10.83
8/18/2022 2:30:00 PM 20.53 68.954 0.386 8.6 2.9 10.73
8/18/2022 2:45:00 PM 20.5 68.9 0.384 8.6 4.68 10.57
8/18/2022 3:00:00 PM 20.51 68.918 0.383 8.6 2.87 10.59
8/18/2022 3:15:00 PM 20.49 68.882 0.382 8.6 2.92 10.52
8/18/2022 3:30:00 PM 20.58 69.044 0.38 8.62 3.07 10.62
8/18/2022 3:45:00 PM 20.71 69.278 0.379 8.63 2.79 10.71
8/18/2022 4:00:00 PM 20.82 69.476 0.378 8.64 3 10.66
8/18/2022 4:15:00 PM 20.9 69.62 0.377 8.65 2.96 10.63
8/18/2022 4:30:00 PM 20.98 69.764 0.377 8.65 3.02 10.52
8/18/2022 4:45:00 PM 21.03 69.854 0.376 8.65 2.86 10.39
8/18/2022 5:00:00 PM 21.07 69.926 0.375 8.63 2.9 10.27
8/18/2022 5:15:00 PM 21.07 69.926 0.375 8.63 3.41 10.15
8/18/2022 5:30:00 PM 21.04 69.872 0.375 8.61 2.82 10.02
8/18/2022 5:45:00 PM 21.01 69.818 0.375 8.6 2.91 9.87
8/18/2022 6:00:00 PM 20.97 69.746 0.375 8.56 3.01 9.73
8/18/2022 6:15:00 PM 20.92 69.656 0.375 8.55 3.1 9.57
8/18/2022 6:30:00 PM 20.86 69.548 0.375 8.51 2.92 9.43
8/18/2022 6:45:00 PM 20.8 69.44 0.376 8.49 2.88 9.27
8/18/2022 7:00:00 PM 20.72 69.296 0.376 8.45 3.04 9.11
8/18/2022 7:15:00 PM 20.64 69.152 0.376 8.4 4.24 8.97
8/18/2022 7:30:00 PM 20.58 69.044 0.377 8.37 2.96 8.85
8/18/2022 7:45:00 PM 20.51 68.918 0.377 8.34 2.88 8.75
8/18/2022 8:00:00 PM 20.45 68.81 0.377 8.31 2.93 8.66
8/18/2022 8:15:00 PM 20.39 68.702 0.378 8.28 3.06 8.57
8/18/2022 8:30:00 PM 20.34 68.612 0.378 8.26 3.36 8.49
8/18/2022 8:45:00 PM 20.29 68.522 0.379 8.24 4.09 8.41
8/18/2022 9:00:00 PM 20.24 68.432 0.38 8.21 3.47 8.35
8/18/2022 9:15:00 PM 20.21 68.378 0.381 8.19 3.76 8.28
8/18/2022 9:30:00 PM 20.16 68.288 0.381 8.17 4.05 8.24
8/18/2022 9:45:00 PM 20.13 68.234 0.382 8.15 5.19 8.2
8/18/2022 10:00:00 PM 20.08 68.144 0.383 8.13 5.3 8.16
8/18/2022 10:15:00 PM 20.04 68.07201 0.384 8.13 7.3 8.12
8/18/2022 10:30:00 PM 20 68 0.384 8.11 6.04 8.11
8/18/2022 10:45:00 PM 19.95 67.91 0.385 8.09 4.66 8.09
8/18/2022 11:00:00 PM 19.9 67.82 0.386 8.09 4.57 8.07
8/18/2022 11:15:00 PM 19.85 67.73 0.387 8.07 4.57 8.07
8/18/2022 11:30:00 PM 19.8 67.64 0.388 8.07 4.52 8.03
8/18/2022 11:45:00 PM 19.74 67.532 0.389 8.05 7.56 8.05
8/19/2022 12:00:00 AM 19.68 67.424 0.39 8.05 5.29 8.06
8/19/2022 12:15:00 AM 19.61 67.298 0.391 8.05 4.54 8.08
8/19/2022 12:30:00 AM 19.54 67.172 0.392 8.04 4.65 8.08
8/19/2022 12:45:00 AM 19.47 67.046 0.393 8.02 4.75 8.09
8/19/2022 1:00:00 AM 19.4 66.92 0.394 8.02 4.81 8.11
8/19/2022 1:15:00 AM 19.32 66.776 0.396 8 5.22 8.12
8/19/2022 1:30:00 AM 19.24 66.632 0.397 8 4.79 8.12
8/19/2022 1:45:00 AM 19.16 66.488 0.399 7.99 4.79 8.16
8/19/2022 2:00:00 AM 19.07 66.326 0.4 7.97 4.74 8.16
8/19/2022 2:15:00 AM 18.99 66.182 0.401 7.97 4.48 8.18
8/19/2022 2:30:00 AM 18.9 66.02 0.403 7.96 4.47 8.2
8/19/2022 2:45:00 AM 18.81 65.858 0.404 7.96 4.31 8.2
8/19/2022 3:00:00 AM 18.72 65.696 0.405 7.94 4.11 8.22
8/19/2022 3:15:00 AM 18.64 65.552 0.407 7.94 4.12 8.22
8/19/2022 3:30:00 AM 18.56 65.408 0.408 7.94 4.02 8.24
8/19/2022 3:45:00 AM 18.48 65.264 0.409 7.93 4.17 8.23
8/19/2022 4:00:00 AM 18.4 65.12 0.409 7.94 5.02 8.28
8/19/2022 4:15:00 AM 18.32 64.976 0.41 7.94 4.22 8.3
8/19/2022 4:30:00 AM 18.24 64.832 0.411 7.92 3.82 8.31
8/19/2022 4:45:00 AM 18.17 64.706 0.412 7.92 4 8.32
8/19/2022 5:00:00 AM 18.09 64.562 0.413 7.92 3.67 8.35
8/19/2022 5:15:00 AM 18.02 64.436 0.414 7.92 3.97 8.36
8/19/2022 5:30:00 AM 17.94 64.292 0.415 7.92 4.05 8.37
8/19/2022 5:45:00 AM 17.87 64.166 0.415 7.92 4.39 8.38
8/19/2022 6:00:00 AM 17.79 64.022 0.416 7.92 4.41 8.42
8/19/2022 6:15:00 AM 17.72 63.896 0.417 7.92 44.02 8.44
8/19/2022 6:30:00 AM 17.65 63.77 0.417 7.91 21.03 8.44
8/19/2022 6:45:00 AM 17.58 63.644 0.418 7.91 3.92 8.48
8/19/2022 7:00:00 AM 17.52 63.536 0.418 7.91 4.1 8.52
8/19/2022 7:15:00 AM 17.48 63.464 0.418 7.92 4.26 8.59
8/19/2022 7:30:00 AM 17.43 63.374 0.418 7.93 4.5 8.65
8/19/2022 7:45:00 AM 17.4 63.32 0.418 7.95 3.71 8.72
8/19/2022 8:00:00 AM 17.37 63.266 0.419 7.96 3.43 8.81
8/19/2022 8:15:00 AM 17.35 63.23 0.419 7.97 4.18 8.91
8/19/2022 8:30:00 AM 17.36 63.248 0.419 7.99 2.91 9.03
8/19/2022 8:45:00 AM 17.39 63.302 0.419 8.01 2.9 9.18
8/19/2022 9:00:00 AM 17.44 63.392 0.419 8.04 2.81 9.34
8/19/2022 9:15:00 AM 17.54 63.572 0.419 8.07 2.71 9.53
8/19/2022 9:30:00 AM 17.64 63.752 0.419 8.1 2.74 9.71
8/19/2022 9:45:00 AM 17.76 63.968 0.42 8.14 2.69 9.87
8/19/2022 10:00:00 AM 17.89 64.202 0.42 8.18 2.59 10.01
8/19/2022 10:15:00 AM 18.07 64.526 0.42 8.22 2.56 10.17
8/19/2022 10:30:00 AM 18.33 64.994 0.421 8.26 2.55 10.4
8/19/2022 10:45:00 AM 18.65 65.57 0.421 8.31 2.63 10.57
8/19/2022 11:00:00 AM 19.01 66.218 0.422 8.36 2.47 10.79
8/19/2022 11:15:00 AM 19.38 66.884 0.423 8.4 2.7 10.96
8/19/2022 11:30:00 AM 19.8 67.64 0.424 8.45 2.59 11.2
8/19/2022 11:45:00 AM 20.19 68.342 0.425 8.5 2.65 11.39
8/19/2022 12:00:00 PM 20.47 68.846 0.426 8.53 2.73 11.51
8/19/2022 12:15:00 PM 20.75 69.35 0.426 8.57 2.64 11.59
8/19/2022 12:30:00 PM 20.83 69.494 0.428 8.59 2.65 11.59
8/19/2022 12:45:00 PM 21.16 70.088 0.429 8.62 2.61 11.76
8/19/2022 1:00:00 PM 21.16 70.088 0.43 8.64 2.4 11.63
8/19/2022 1:15:00 PM 21.23 70.214 0.431 8.64 2.58 11.67
8/19/2022 1:30:00 PM 21.19 70.142 0.432 8.66 2.45 11.55
8/19/2022 1:45:00 PM 21.07 69.926 0.433 8.65 2.61 11.33
8/19/2022 2:00:00 PM 21.24 70.232 0.433 8.68 2.49 11.39
8/19/2022 2:15:00 PM 21.09 69.962 0.435 8.65 2.57 11.05
8/19/2022 2:30:00 PM 21.17 70.106 0.435 8.66 2.37 11.06
8/19/2022 2:45:00 PM 21.16 70.088 0.437 8.67 2.35 10.95
8/19/2022 3:00:00 PM 21.29 70.32201 0.437 8.67 2.33 10.96
8/19/2022 3:15:00 PM 21.47 70.646 0.438 8.68 2.3 10.99
8/19/2022 3:30:00 PM 21.65 70.97 0.439 8.71 2.58 11.01
8/19/2022 3:45:00 PM 21.77 71.186 0.439 8.72 2.45 10.98
8/19/2022 4:00:00 PM 21.88 71.384 0.44 8.72 2.45 10.96
8/19/2022 4:15:00 PM 21.96 71.528 0.44 8.72 2.45 10.91
8/19/2022 4:30:00 PM 22 71.6 0.441 8.73 2.44 10.8
8/19/2022 4:45:00 PM 22 71.6 0.441 8.72 2.81 10.64
8/19/2022 5:00:00 PM 22.01 71.618 0.442 8.7 2.81 10.48
8/19/2022 5:15:00 PM 21.94 71.492 0.443 8.69 2.59 10.28
8/19/2022 5:30:00 PM 21.89 71.402 0.444 8.67 2.52 10.13
8/19/2022 5:45:00 PM 21.84 71.312 0.444 8.65 2.63 10
8/19/2022 6:00:00 PM 21.78 71.204 0.445 8.63 2.56 9.83
8/19/2022 6:15:00 PM 21.71 71.078 0.445 8.6 2.77 9.65
8/19/2022 6:30:00 PM 21.65 70.97 0.446 8.57 2.56 9.49
8/19/2022 6:45:00 PM 21.59 70.862 0.446 8.54 2.49 9.32
8/19/2022 7:00:00 PM 21.54 70.772 0.447 8.5 2.5 9.15
8/19/2022 7:15:00 PM 21.48 70.664 0.447 8.48 2.47 8.97
8/19/2022 7:30:00 PM 21.43 70.574 0.447 8.44 2.72 8.81
8/19/2022 7:45:00 PM 21.37 70.466 0.448 8.41 2.62 8.65
8/19/2022 8:00:00 PM 21.32 70.376 0.448 8.36 2.56 8.52
8/19/2022 8:15:00 PM 21.27 70.286 0.448 8.34 2.68 8.4
8/19/2022 8:30:00 PM 21.23 70.214 0.448 8.31 3.54 8.27
8/19/2022 8:45:00 PM 21.2 70.16 0.447 8.29 3.31 8.19
8/19/2022 9:00:00 PM 21.17 70.106 0.447 8.26 3.29 8.12
8/19/2022 9:15:00 PM 21.15 70.07 0.447 8.24 3.93 8.04
8/19/2022 9:30:00 PM 21.12 70.016 0.447 8.22 3.73 7.98
8/19/2022 9:45:00 PM 21.1 69.98 0.446 8.21 3.87 7.94
8/19/2022 10:00:00 PM 21.07 69.926 0.446 8.19 3.78 7.91
8/19/2022 10:15:00 PM 21.05 69.89 0.446 8.18 9.23 7.88
8/19/2022 10:30:00 PM 21.02 69.836 0.445 8.17 4.02 7.85
8/19/2022 10:45:00 PM 20.99 69.782 0.445 8.15 4.4 7.84
8/19/2022 11:00:00 PM 20.96 69.728 0.445 8.15 4.45 7.82
8/19/2022 11:15:00 PM 20.94 69.692 0.444 8.14 3.85 7.81
8/19/2022 11:30:00 PM 20.92 69.656 0.444 8.13 6.93 7.79
8/19/2022 11:45:00 PM 20.9 69.62 0.444 8.12 4.26 7.78
8/20/2022 12:00:00 AM 20.87 69.566 0.444 8.11 4.18 7.75
8/20/2022 12:15:00 AM 20.85 69.53 0.443 8.1 6 7.76
8/20/2022 12:30:00 AM 20.81 69.458 0.443 8.09 4.55 7.76
8/20/2022 12:45:00 AM 20.77 69.386 0.443 8.09 5.61 7.76
8/20/2022 1:00:00 AM 20.72 69.296 0.443 8.07 5.58 7.74
8/20/2022 1:15:00 AM 20.67 69.206 0.443 8.07 6.05 7.77
8/20/2022 1:30:00 AM 20.62 69.116 0.443 8.06 5.01 7.76
8/20/2022 1:45:00 AM 20.56 69.008 0.443 8.05 6.36 7.75
8/20/2022 2:00:00 AM 20.5 68.9 0.443 8.04 4.85 7.76
8/20/2022 2:15:00 AM 20.44 68.792 0.443 8.03 4.73 7.78
8/20/2022 2:30:00 AM 20.38 68.684 0.443 8.02 4.15 7.8
8/20/2022 2:45:00 AM 20.3 68.54 0.444 8.01 4.2 7.81
8/20/2022 3:00:00 AM 20.24 68.432 0.444 8.01 4.17 7.81
8/20/2022 3:15:00 AM 20.16 68.288 0.445 8 4.38 7.82
8/20/2022 3:30:00 AM 20.09 68.162 0.445 7.99 4.16 7.84
8/20/2022 3:45:00 AM 20.02 68.036 0.446 7.99 4.23 7.85
8/20/2022 4:00:00 AM 19.95 67.91 0.447 7.98 3.96 7.86
8/20/2022 4:15:00 AM 19.88 67.784 0.448 7.96 4.14 7.87
8/20/2022 4:30:00 AM 19.8 67.64 0.449 7.96 3.77 7.89
8/20/2022 4:45:00 AM 19.73 67.514 0.45 7.95 3.58 7.92
8/20/2022 5:00:00 AM 19.65 67.37 0.451 7.95 4.76 7.96
8/20/2022 5:15:00 AM 19.57 67.226 0.452 7.93 4.52 7.96
8/20/2022 5:30:00 AM 19.5 67.1 0.453 7.93 4.03 7.98
8/20/2022 5:45:00 AM 19.44 66.992 0.454 7.93 4.53 7.98
8/20/2022 6:00:00 AM 19.37 66.866 0.456 7.93 4.82 8
8/20/2022 6:15:00 AM 19.3 66.74 0.457 7.93 4.54 8.01
8/20/2022 6:30:00 AM 19.25 66.65 0.458 7.92 3.85 8.02
8/20/2022 6:45:00 AM 19.18 66.524 0.459 7.93 3.45 8.06
8/20/2022 7:00:00 AM 19.12 66.416 0.46 7.93 3.59 8.1
8/20/2022 7:15:00 AM 19.08 66.344 0.462 7.94 3.32 8.2
8/20/2022 7:30:00 AM 19.04 66.272 0.463 7.94 3.71 8.27
8/20/2022 7:45:00 AM 19.02 66.236 0.464 7.96 3.56 8.41
8/20/2022 8:00:00 AM 19 66.2 0.465 7.96 3.24 8.51
8/20/2022 8:15:00 AM 19.01 66.218 0.465 8 3.07 8.69
8/20/2022 8:30:00 AM 19.01 66.218 0.466 8.02 3.17 8.84
8/20/2022 8:45:00 AM 19.02 66.236 0.467 8.04 2.88 9
8/20/2022 9:00:00 AM 19.07 66.326 0.467 8.07 2.82 9.18
8/20/2022 9:15:00 AM 19.14 66.452 0.468 8.11 2.88 9.36
8/20/2022 9:30:00 AM 19.23 66.614 0.468 8.14 3.02 9.55
8/20/2022 9:45:00 AM 19.32 66.776 0.469 8.17 2.74 9.68
8/20/2022 10:00:00 AM 19.43 66.974 0.469 8.21 3.18 9.87
8/20/2022 10:15:00 AM 19.59 67.262 0.469 8.25 2.69 10.07
8/20/2022 10:30:00 AM 19.8 67.64 0.469 8.29 2.63 10.32
8/20/2022 10:45:00 AM 20.12 68.216 0.469 8.36 2.52 10.66
8/20/2022 11:00:00 AM 20.2 68.36 0.47 8.38 2.51 10.69
8/20/2022 11:15:00 AM 20.15 68.27 0.47 8.4 2.56 10.6
8/20/2022 11:30:00 AM 20.4 68.72 0.47 8.43 2.41 10.86
8/20/2022 11:45:00 AM 20.61 69.098 0.47 8.45 2.52 10.88
8/20/2022 12:00:00 PM 20.74 69.332 0.47 8.47 2.49 10.97
8/20/2022 12:15:00 PM 20.92 69.656 0.47 8.5 2.97 11.08
8/20/2022 12:30:00 PM 21.25 70.25 0.47 8.53 2.36 11.28
8/20/2022 12:45:00 PM 21.53 70.754 0.47 8.58 2.38 11.47
8/20/2022 1:00:00 PM 21.82 71.276 0.47 8.6 2.4 11.63
8/20/2022 1:15:00 PM 21.87 71.366 0.47 8.63 2.51 11.54
8/20/2022 1:30:00 PM 22.03 71.654 0.47 8.64 2.42 11.55
8/20/2022 1:45:00 PM 22.2 71.96 0.471 8.67 2.49 11.61
8/20/2022 2:00:00 PM 22.23 72.014 0.471 8.67 2.4 11.48
8/20/2022 2:15:00 PM 22.26 72.068 0.471 8.68 2.53 11.4
8/20/2022 2:30:00 PM 22.26 72.068 0.472 8.69 2.46 11.32
8/20/2022 2:45:00 PM 22.31 72.158 0.472 8.7 2.39 11.25
8/20/2022 3:00:00 PM 22.4 72.32 0.472 8.71 2.32 11.13
8/20/2022 3:15:00 PM 22.5 72.5 0.473 8.7 2.5 10.99
8/20/2022 3:30:00 PM 22.61 72.698 0.473 8.71 2.36 10.91
8/20/2022 3:45:00 PM 22.74 72.932 0.474 8.72 2.4 10.81
8/20/2022 4:00:00 PM 22.86 73.148 0.475 8.72 2.31 10.75
8/20/2022 4:15:00 PM 22.93 73.274 0.475 8.72 2.33 10.63
8/20/2022 4:30:00 PM 22.98 73.364 0.476 8.71 2.34 10.52
8/20/2022 4:45:00 PM 23 73.4 0.476 8.71 2.59 10.35
8/20/2022 5:00:00 PM 23.02 73.436 0.477 8.7 2.4 10.23
8/20/2022 5:15:00 PM 23.02 73.436 0.478 8.69 2.52 10.09
8/20/2022 5:30:00 PM 22.98 73.364 0.479 8.68 2.45 10.03
8/20/2022 5:45:00 PM 22.93 73.274 0.479 8.66 2.48 9.91
8/20/2022 6:00:00 PM 22.86 73.148 0.48 8.64 2.39 9.78
8/20/2022 6:15:00 PM 22.76 72.968 0.481 8.62 2.53 9.6
8/20/2022 6:30:00 PM 22.67 72.806 0.482 8.59 2.53 9.42
8/20/2022 6:45:00 PM 22.55 72.59 0.483 8.56 2.45 9.21
8/20/2022 7:00:00 PM 22.43 72.374 0.484 8.51 2.5 9
8/20/2022 7:15:00 PM 22.32 72.176 0.485 8.48 2.65 8.83
8/20/2022 7:30:00 PM 22.2 71.96 0.486 8.42 2.53 8.64
8/20/2022 7:45:00 PM 22.1 71.78 0.487 8.39 2.67 8.47
8/20/2022 8:00:00 PM 22.02 71.636 0.487 8.35 2.71 8.33
8/20/2022 8:15:00 PM 21.94 71.492 0.488 8.32 3.07 8.21
8/20/2022 8:30:00 PM 21.88 71.384 0.488 8.29 3.12 8.09
8/20/2022 8:45:00 PM 21.82 71.276 0.488 8.27 3.06 8.01
8/20/2022 9:00:00 PM 21.76 71.168 0.489 8.24 3.39 7.95
8/20/2022 9:15:00 PM 21.71 71.078 0.489 8.23 3.24 7.89
8/20/2022 9:30:00 PM 21.67 71.006 0.489 8.21 3.93 7.86
8/20/2022 9:45:00 PM 21.62 70.916 0.489 8.2 5.26 7.79
8/20/2022 10:00:00 PM 21.58 70.844 0.489 8.18 5.71 7.76
8/20/2022 10:15:00 PM 21.55 70.79 0.489 8.17 4.27 7.74
8/20/2022 10:30:00 PM 21.51 70.718 0.489 8.16 4.22 7.72
8/20/2022 10:45:00 PM 21.48 70.664 0.489 8.16 4.93 7.71
8/20/2022 11:00:00 PM 21.45 70.61 0.488 8.15 6.63 7.67
8/20/2022 11:15:00 PM 21.42 70.556 0.488 8.14 4.36 7.67
8/20/2022 11:30:00 PM 21.38 70.484 0.488 8.13 4.65 7.66
8/20/2022 11:45:00 PM 21.35 70.43 0.488 8.13 4.25 7.64
8/21/2022 12:00:00 AM 21.33 70.394 0.487 8.12 5.8 7.65
8/21/2022 12:15:00 AM 21.3 70.34 0.487 8.11 4.31 7.64
8/21/2022 12:30:00 AM 21.28 70.304 0.487 8.11 3.85 7.64
8/21/2022 12:45:00 AM 21.25 70.25 0.487 8.1 7.7 7.64
8/21/2022 1:00:00 AM 21.22 70.196 0.487 8.09 6.5 7.63
8/21/2022 1:15:00 AM 21.18 70.124 0.487 8.08 3.94 7.62
8/21/2022 1:30:00 AM 21.15 70.07 0.487 8.08 4.19 7.63
8/21/2022 1:45:00 AM 21.11 69.998 0.487 8.07 4.15 7.61
8/21/2022 2:00:00 AM 21.09 69.962 0.487 8.07 3.48 7.64
8/21/2022 2:15:00 AM 21.06 69.908 0.487 8.06 3.58 7.63
8/21/2022 2:30:00 AM 21.02 69.836 0.487 8.06 3.6 7.64
8/21/2022 2:45:00 AM 20.99 69.782 0.487 8.04 3.65 7.65
8/21/2022 3:00:00 AM 20.96 69.728 0.487 8.05 4.05 7.64
8/21/2022 3:15:00 AM 20.94 69.692 0.488 8.04 3.49 7.66
8/21/2022 3:30:00 AM 20.91 69.638 0.488 8.03 3.65 7.65
8/21/2022 3:45:00 AM 20.88 69.584 0.489 8.03 3.53 7.65
8/21/2022 4:00:00 AM 20.86 69.548 0.489 8.02 3.74 7.65
8/21/2022 4:15:00 AM 20.83 69.494 0.49 8 3.4 7.65
8/21/2022 4:30:00 AM 20.79 69.422 0.49 8 4.38 7.68
8/21/2022 4:45:00 AM 20.75 69.35 0.489 8 3.68 7.72
8/21/2022 5:00:00 AM 20.7 69.26 0.487 8 3.84 7.74
8/21/2022 5:15:00 AM 20.66 69.188 0.489 8 3.49 7.73
8/21/2022 5:30:00 AM 20.61 69.098 0.489 7.99 3.4 7.74
8/21/2022 5:45:00 AM 20.57 69.026 0.489 7.98 4.01 7.73
8/21/2022 6:00:00 AM 20.51 68.918 0.49 7.98 3.88 7.73
8/21/2022 6:15:00 AM 20.45 68.81 0.491 7.98 4.16 7.74
8/21/2022 6:30:00 AM 20.4 68.72 0.492 7.96 6.68 7.7
8/21/2022 6:45:00 AM 20.35 68.63 0.492 7.96 4.07 7.77
8/21/2022 7:00:00 AM 20.3 68.54 0.493 7.96 3.93 7.81
8/21/2022 7:15:00 AM 20.26 68.468 0.493 7.97 3.31 7.89
8/21/2022 7:30:00 AM 20.23 68.414 0.494 7.98 3.39 7.99
8/21/2022 7:45:00 AM 20.22 68.396 0.495 7.99 3.39 8.15
8/21/2022 8:00:00 AM 20.23 68.414 0.496 8.02 3.2 8.36
8/21/2022 8:15:00 AM 20.23 68.414 0.496 8.04 3.18 8.5
8/21/2022 8:30:00 AM 20.26 68.468 0.497 8.07 3.13 8.76
8/21/2022 8:45:00 AM 20.29 68.522 0.498 8.11 2.96 9.03
8/21/2022 9:00:00 AM 20.38 68.684 0.498 8.16 3 9.35
8/21/2022 9:15:00 AM 20.42 68.756 0.498 8.2 2.95 9.58
8/21/2022 9:30:00 AM 20.45 68.81 0.499 8.24 2.81 9.75
8/21/2022 9:45:00 AM 20.53 68.954 0.499 8.29 3.37 10.03
8/21/2022 10:00:00 AM 20.56 69.008 0.499 8.32 2.72 10.07
8/21/2022 10:15:00 AM 20.63 69.134 0.499 8.35 2.69 10.26
8/21/2022 10:30:00 AM 20.77 69.386 0.499 8.4 2.86 10.59
8/21/2022 10:45:00 AM 20.88 69.584 0.499 8.44 2.64 10.79
8/21/2022 11:00:00 AM 20.86 69.548 0.499 8.45 2.75 10.67
8/21/2022 11:15:00 AM 20.94 69.692 0.498 8.49 2.52 10.89
8/21/2022 11:30:00 AM 21.01 69.818 0.498 8.51 2.56 10.89
8/21/2022 11:45:00 AM 21.05 69.89 0.498 8.53 2.68 11
8/21/2022 12:00:00 PM 21 69.8 0.498 8.52 2.41 10.72
8/21/2022 12:15:00 PM 20.87 69.566 0.493 8.49 2.82 10.2
8/21/2022 12:30:00 PM 20.84 69.512 0.495 8.48 2.52 10.08
8/21/2022 12:45:00 PM 20.75 69.35 0.487 8.44 3.09 9.71
8/21/2022 1:00:00 PM 20.7 69.26 0.487 8.41 3.17 9.62
8/21/2022 1:15:00 PM 20.73 69.314 0.487 8.4 5.66 9.63
8/21/2022 1:30:00 PM 21.17 70.106 0.486 8.45 3.09 10.2
8/21/2022 1:45:00 PM 21.28 70.304 0.487 8.47 2.94 10.26
8/21/2022 2:00:00 PM 21.43 70.574 0.486 8.5 3.32 10.48
8/21/2022 2:15:00 PM 21.49 70.682 0.485 8.52 3.32 10.49
8/21/2022 2:30:00 PM 21.57 70.826 0.485 8.52 3.35 10.51
8/21/2022 2:45:00 PM 21.63 70.934 0.486 8.52 3.37 10.41
8/21/2022 3:00:00 PM 21.72 71.096 0.471 8.48 4.92 10.23
8/21/2022 3:15:00 PM 21.79 71.222 0.463 8.47 5.05 10.23
8/21/2022 3:30:00 PM 21.92 71.456 0.459 8.51 5.79 10.31
8/21/2022 3:45:00 PM 22.01 71.618 0.458 8.53 7.09 10.25
8/21/2022 4:00:00 PM 22.1 71.78 0.458 8.55 9.29 10.17
8/21/2022 4:15:00 PM 22.08 71.744 0.457 8.55 11.12 9.95
8/21/2022 4:30:00 PM 22.03 71.654 0.46 8.54 11.23 9.71
8/21/2022 4:45:00 PM 22.02 71.636 0.46 8.53 10.87 9.7
8/21/2022 5:00:00 PM 21.98 71.564 0.462 8.51 10.4 9.47
8/21/2022 5:15:00 PM 21.94 71.492 0.464 8.5 9.48 9.36
8/21/2022 5:30:00 PM 21.89 71.402 0.464 8.47 9.1 9.2
8/21/2022 5:45:00 PM 21.83 71.294 0.467 8.44 8.48 8.98
8/21/2022 6:00:00 PM 21.77 71.186 0.467 8.41 8.17 8.79
8/21/2022 6:15:00 PM 21.71 71.078 0.47 8.37 8.09 8.64
8/21/2022 6:30:00 PM 21.66 70.988 0.469 8.34 8.17 8.49
8/21/2022 6:45:00 PM 21.62 70.916 0.468 8.31 8.04 8.39
8/21/2022 7:00:00 PM 21.59 70.862 0.469 8.3 8.32 8.3
8/21/2022 7:15:00 PM 21.57 70.826 0.47 8.27 7.37 8.25
8/21/2022 7:30:00 PM 21.56 70.808 0.471 8.25 7.65 8.19
8/21/2022 7:45:00 PM 21.55 70.79 0.471 8.24 7.55 8.13
8/21/2022 8:00:00 PM 21.53 70.754 0.472 8.22 7.73 8.09
8/21/2022 8:15:00 PM 21.53 70.754 0.475 8.22 7.11 8.04
8/21/2022 8:30:00 PM 21.51 70.718 0.473 8.19 7.65 8.02
8/21/2022 8:45:00 PM 21.49 70.682 0.473 8.18 8.35 7.99
8/21/2022 9:00:00 PM 21.47 70.646 0.473 8.17 9.6 7.98
8/21/2022 9:15:00 PM 21.45 70.61 0.476 8.16 9.18 7.96
8/21/2022 9:30:00 PM 21.42 70.556 0.477 8.15 10.5 7.95
8/21/2022 9:45:00 PM 21.39 70.502 0.481 8.14 8.53 7.95
8/21/2022 10:00:00 PM 21.36 70.448 0.484 8.15 9.45 7.96
8/21/2022 10:15:00 PM 21.31 70.358 0.484 8.14 8.73 7.96
8/21/2022 10:30:00 PM 21.26 70.268 0.487 8.13 8.71 7.95
8/21/2022 10:45:00 PM 21.2 70.16 0.485 8.13 8.32 7.96
8/21/2022 11:00:00 PM 21.15 70.07 0.485 8.11 9.63 7.96
8/21/2022 11:15:00 PM 21.1 69.98 0.486 8.1 11.4 7.97
8/21/2022 11:30:00 PM 21.04 69.872 0.49 8.1 22.92 8.02
8/21/2022 11:45:00 PM 20.96 69.728 0.494 8.07 31.79 8.06
8/22/2022 12:00:00 AM 20.86 69.548 0.488 8.04 36.49 8.1
8/22/2022 12:15:00 AM 20.78 69.404 0.47 8.01 39.69 8.17
8/22/2022 12:30:00 AM 20.68 69.224 0.44 7.97 55.69 8.26
8/22/2022 12:45:00 AM 20.6 69.08 0.422 7.94 43.34 8.31
8/22/2022 1:00:00 AM 20.57 69.026 0.428 7.93 41.15 8.3
8/22/2022 1:15:00 AM 20.53 68.954 0.442 7.93 38.68 8.29
8/22/2022 1:30:00 AM 20.45 68.81 0.444 7.92 39.77 8.3
8/22/2022 1:45:00 AM 20.18 68.324 0.387 7.86 159.62 8.42
8/22/2022 2:00:00 AM 20.21 68.378 0.392 7.86 171.02 8.42
8/22/2022 2:15:00 AM 20.23 68.414 0.41 7.88 156 8.4
8/22/2022 2:30:00 AM 20.24 68.432 0.424 7.87 128.49 8.37
8/22/2022 2:45:00 AM 20.23 68.414 0.422 7.85 121.42 8.34
8/22/2022 3:00:00 AM 20.23 68.414 0.41 7.84 107.98 8.32
8/22/2022 3:15:00 AM 20.23 68.414 0.392 7.83 103.16 8.29
8/22/2022 3:30:00 AM 20.24 68.432 0.371 7.8 95.1 8.26
8/22/2022 3:45:00 AM 20.38 68.684 0.335 7.71 123.69 8.09
8/22/2022 4:00:00 AM 20.49 68.882 0.292 7.67 138.83 7.95
8/22/2022 4:15:00 AM 20.5 68.9 0.264 7.62 139.02 7.87
8/22/2022 4:30:00 AM 20.52 68.936 0.256 7.62 140.24 7.83
8/22/2022 4:45:00 AM 20.47 68.846 0.259 7.59 138.75 7.83
8/22/2022 5:00:00 AM 20.42 68.756 0.259 7.59 137.18 7.86
8/22/2022 5:15:00 AM 20.38 68.684 0.251 7.61 131.42 7.91
8/22/2022 5:30:00 AM 20.3 68.54 0.239 7.62 126.11 7.97
8/22/2022 5:45:00 AM 20.21 68.378 0.226 7.62 122.69 8.04
8/22/2022 6:00:00 AM 20.11 68.198 0.216 7.64 116.88 8.09
8/22/2022 6:15:00 AM 20.01 68.018 0.208 7.63 110.1 8.14
8/22/2022 6:30:00 AM 19.93 67.874 0.202 7.64 102.68 8.18
8/22/2022 6:45:00 AM 19.86 67.748 0.198 7.64 96.57 8.22
8/22/2022 7:00:00 AM 19.8 67.64 0.196 7.64 93.01 8.26
8/22/2022 7:15:00 AM 19.76 67.568 0.196 7.64 89.78 8.29
8/22/2022 7:30:00 AM 19.72 67.496 0.197 7.64 86.81 8.31
8/22/2022 7:45:00 AM 19.7 67.46 0.198 7.65 83.78 8.33
8/22/2022 8:00:00 AM 19.68 67.424 0.201 7.67 82.92 8.36
8/22/2022 8:15:00 AM 19.67 67.406 0.204 7.67 81.14 8.37
8/22/2022 8:30:00 AM 19.67 67.406 0.208 7.68 81.14 8.39
8/22/2022 8:45:00 AM 19.66 67.388 0.212 7.68 79.79 8.4
8/22/2022 9:00:00 AM 19.65 67.37 0.215 7.67 77.77 8.42
8/22/2022 9:15:00 AM 19.64 67.352 0.219 7.69 75.51 8.44
8/22/2022 9:30:00 AM 19.65 67.37 0.221 7.7 73.11 8.47
8/22/2022 9:45:00 AM 19.65 67.37 0.223 7.69 71.68 8.49
8/22/2022 10:00:00 AM 19.64 67.352 0.225 7.71 65.91 8.51
8/22/2022 10:15:00 AM 19.67 67.406 0.226 7.73 64.15 8.55
8/22/2022 10:30:00 AM 19.7 67.46 0.228 7.73 61.53 8.6
8/22/2022 10:45:00 AM 19.72 67.496 0.229 7.75 58.36 8.63
8/22/2022 11:00:00 AM 19.7 67.46 0.231 7.76 55.66 8.64
8/22/2022 11:15:00 AM 19.7 67.46 0.233 7.75 52.3 8.66
8/22/2022 11:30:00 AM 19.75 67.55 0.235 7.78 51.66 8.73
8/22/2022 11:45:00 AM 19.85 67.73 0.236 7.78 48.43 8.79
8/22/2022 12:00:00 PM 19.91 67.838 0.238 7.81 45.34 8.82
8/22/2022 12:15:00 PM 20.03 68.054 0.239 7.82 43.91 8.9
8/22/2022 12:30:00 PM 20.13 68.234 0.24 7.84 42.57 8.97
8/22/2022 12:45:00 PM 20.1 68.18 0.241 7.87 41.19 8.99
8/22/2022 1:00:00 PM 20.04 68.07201 0.242 7.87 39.9 8.93
8/22/2022 1:15:00 PM 20.02 68.036 0.243 7.85 36.95 8.86
8/22/2022 1:30:00 PM 19.95 67.91 0.232 7.83 37.31 8.83
8/22/2022 1:45:00 PM 19.94 67.892 0.23 7.81 40.31 8.79
8/22/2022 2:00:00 PM 20.02 68.036 0.23 7.77 55.53 8.71
8/22/2022 2:15:00 PM 20.3 68.54 0.221 7.74 113.91 8.61
8/22/2022 2:30:00 PM 20.36 68.648 0.22 7.75 157.32 8.61
8/22/2022 2:45:00 PM 20.42 68.756 0.22 7.8 188.5 8.63
8/22/2022 3:00:00 PM 20.45 68.81 0.222 7.78 157.96 8.67
8/22/2022 3:15:00 PM 20.39 68.702 0.23 7.81 118.17 8.7
8/22/2022 3:30:00 PM 20.41 68.738 0.236 7.82 93.04 8.72
8/22/2022 3:45:00 PM 20.41 68.738 0.243 7.82 86.51 8.68
8/22/2022 4:00:00 PM 20.36 68.648 0.247 7.82 76.72 8.65
8/22/2022 4:15:00 PM 20.34 68.612 0.25 7.83 70.22 8.64
8/22/2022 4:30:00 PM 20.37 68.666 0.252 7.81 59.63 8.65
8/22/2022 4:45:00 PM 20.39 68.702 0.255 7.83 53.1 8.68
8/22/2022 5:00:00 PM 20.41 68.738 0.26 7.85 223.67 8.69
8/22/2022 5:15:00 PM 20.45 68.81 0.266 7.87 39.49 8.75
8/22/2022 5:30:00 PM 20.48 68.864 0.273 7.89 40.16 8.76
8/22/2022 5:45:00 PM 20.49 68.882 0.277 7.88 34.66 8.72
8/22/2022 6:00:00 PM 20.5 68.9 0.277 7.89 34.01 8.66
8/22/2022 6:15:00 PM 20.51 68.918 0.274 7.86 32.49 8.63
8/22/2022 6:30:00 PM 20.5 68.9 0.271 7.87 30.62 8.62
8/22/2022 6:45:00 PM 20.47 68.846 0.271 7.87 29.55 8.6
8/22/2022 7:00:00 PM 20.44 68.792 0.273 7.85 29.52 8.58
8/22/2022 7:15:00 PM 20.39 68.702 0.281 7.84 37.55 8.56
8/22/2022 7:30:00 PM 20.35 68.63 0.297 7.83 60.03 8.53
8/22/2022 7:45:00 PM 20.38 68.684 0.309 7.77 68.16 8.51
8/22/2022 8:00:00 PM 20.39 68.702 0.313 7.78 77.24 8.47
8/22/2022 8:15:00 PM 20.37 68.666 0.319 7.78 79.9 8.44
8/22/2022 8:30:00 PM 20.37 68.666 0.313 7.78 83.7 8.41
8/22/2022 8:45:00 PM 20.37 68.666 0.306 7.76 89.41 8.37
8/22/2022 9:00:00 PM 20.37 68.666 0.309 7.77 89.25 8.36
8/22/2022 9:15:00 PM 20.39 68.702 0.321 7.75 86.08 8.33
8/22/2022 9:30:00 PM 20.4 68.72 0.334 7.76 76.35 8.31
8/22/2022 9:45:00 PM 20.41 68.738 0.343 7.77 68.9 8.3
8/22/2022 10:00:00 PM 20.42 68.756 0.347 7.77 63.65 8.28
8/22/2022 10:15:00 PM 20.44 68.792 0.344 7.77 57.55 8.26
8/22/2022 10:30:00 PM 20.45 68.81 0.336 7.76 56.15 8.25
8/22/2022 10:45:00 PM 20.47 68.846 0.323 7.76 53.65 8.24
8/22/2022 11:00:00 PM 20.49 68.882 0.309 7.76 53.45 8.22
8/22/2022 11:15:00 PM 20.5 68.9 0.296 7.77 51.09 8.21
8/22/2022 11:30:00 PM 20.5 68.9 0.287 7.76 48.36 8.2
8/22/2022 11:45:00 PM 20.5 68.9 0.279 7.76 48.4 8.16
8/23/2022 12:00:00 AM 20.5 68.9 0.274 7.75 47.68 8.2
8/23/2022 12:15:00 AM 20.48 68.864 0.27 7.75 47.19 8.19
8/23/2022 12:30:00 AM 20.46 68.828 0.268 7.75 43.2 8.2
8/23/2022 12:45:00 AM 20.43 68.774 0.267 7.75 44.86 8.2
8/23/2022 1:00:00 AM 20.4 68.72 0.266 7.74 41.1 8.2
8/23/2022 1:15:00 AM 20.36 68.648 0.265 7.74 39.47 8.21
8/23/2022 1:30:00 AM 20.33 68.594 0.265 7.74 39.4 8.2
8/23/2022 1:45:00 AM 20.3 68.54 0.266 7.73 38.87 8.21
8/23/2022 2:00:00 AM 20.28 68.504 0.267 7.72 36.24 8.22
8/23/2022 2:15:00 AM 20.24 68.432 0.269 7.74 33.9 8.23
8/23/2022 2:30:00 AM 20.21 68.378 0.272 7.73 36.19 8.24
8/23/2022 2:45:00 AM 20.17 68.306 0.274 7.73 35.14 8.25
8/23/2022 3:00:00 AM 20.13 68.234 0.276 7.72 32.96 8.24
8/23/2022 3:15:00 AM 20.09 68.162 0.278 7.74 33.02 8.26
8/23/2022 3:30:00 AM 20.05 68.09 0.279 7.73 30.69 8.26
8/23/2022 3:45:00 AM 20.01 68.018 0.28 7.73 31.52 8.28
8/23/2022 4:00:00 AM 19.99 67.982 0.281 7.74 29.17 8.28
8/23/2022 4:15:00 AM 19.96 67.92799 0.282 7.75 29.05 8.29
8/23/2022 4:30:00 AM 19.93 67.874 0.283 7.75 28.47 8.3
8/23/2022 4:45:00 AM 19.9 67.82 0.283 7.75 28.02 8.3
8/23/2022 5:00:00 AM 19.88 67.784 0.284 7.75 27.03 8.32
8/23/2022 5:15:00 AM 19.85 67.73 0.285 7.76 27.18 8.33
8/23/2022 5:30:00 AM 19.83 67.694 0.286 7.76 30.67 8.34
8/23/2022 5:45:00 AM 19.8 67.64 0.288 7.76 29.03 8.34
8/23/2022 6:00:00 AM 19.76 67.568 0.29 7.75 27.17 8.37
8/23/2022 6:15:00 AM 19.74 67.532 0.293 7.77 27.21 8.37
8/23/2022 6:30:00 AM 19.71 67.478 0.296 7.78 24.77 8.37
8/23/2022 6:45:00 AM 19.68 67.424 0.299 7.78 24.51 8.39
8/23/2022 7:00:00 AM 19.66 67.388 0.302 7.77 23.87 8.41
8/23/2022 7:15:00 AM 19.63 67.334 0.305 7.79 23.6 8.4
8/23/2022 7:30:00 AM 19.61 67.298 0.306 7.79 22.85 8.43
8/23/2022 7:45:00 AM 19.6 67.28 0.307 7.8 22.23 8.45
8/23/2022 8:00:00 AM 19.59 67.262 0.306 7.79 21.33 8.49
8/23/2022 8:15:00 AM 19.61 67.298 0.306 7.83 19.16 8.56
8/23/2022 8:30:00 AM 19.61 67.298 0.306 7.82 18.2 8.6
8/23/2022 8:45:00 AM 19.59 67.262 0.305 7.83 18.86 8.6
8/23/2022 9:00:00 AM 19.58 67.244 0.305 7.84 18.2 8.63
8/23/2022 9:15:00 AM 19.58 67.244 0.305 7.85 17.49 8.66
8/23/2022 9:30:00 AM 19.57 67.226 0.305 7.86 16.78 8.68
8/23/2022 9:45:00 AM 19.58 67.244 0.306 7.87 15.65 8.73
8/23/2022 10:00:00 AM 19.58 67.244 0.308 7.88 14.54 8.77
8/23/2022 10:15:00 AM 19.63 67.334 0.31 7.89 15.2 8.91
8/23/2022 10:30:00 AM 19.65 67.37 0.312 7.92 15.01 8.98
8/23/2022 10:45:00 AM 19.64 67.352 0.313 7.93 13.97 8.95
8/23/2022 11:00:00 AM 19.63 67.334 0.315 7.93 13.05 8.94
8/23/2022 11:15:00 AM 19.66 67.388 0.315 7.95 13.1 9
8/23/2022 11:30:00 AM 19.79 67.622 0.315 7.99 13.08 9.14
8/23/2022 11:45:00 AM 19.9 67.82 0.315 8.01 12.93 9.31
8/23/2022 12:00:00 PM 19.91 67.838 0.315 8.06 11.8 9.33
8/23/2022 12:15:00 PM 19.98 67.964 0.315 8.08 11.97 9.43
8/23/2022 12:30:00 PM 20.06 68.108 0.315 8.1 11.09 9.5
8/23/2022 12:45:00 PM 20.06 68.108 0.314 8.09 11.57 9.41
8/23/2022 1:00:00 PM 20.01 68.018 0.314 8.08 12.18 9.3
8/23/2022 1:15:00 PM 20.09 68.162 0.315 8.12 11.29 9.43
8/23/2022 1:30:00 PM 20.29 68.522 0.315 8.15 10.75 9.56
8/23/2022 1:45:00 PM 20.42 68.756 0.316 8.17 10.41 9.57
8/23/2022 2:00:00 PM 20.53 68.954 0.318 8.19 11.24 9.58
8/23/2022 2:15:00 PM 20.67 69.206 0.318 8.22 10.88 9.63
8/23/2022 2:30:00 PM 20.82 69.476 0.319 8.24 10.07 9.7
8/23/2022 2:45:00 PM 20.92 69.656 0.319 8.26 10.05 9.74
8/23/2022 3:00:00 PM 20.98 69.764 0.319 8.28 9.71 9.71
8/23/2022 3:15:00 PM 21.06 69.908 0.318 8.29 9.41 9.68
8/23/2022 3:30:00 PM 21.16 70.088 0.318 8.31 9.34 9.69
8/23/2022 3:45:00 PM 21.22 70.196 0.318 8.33 9.31 9.67
8/23/2022 4:00:00 PM 21.23 70.214 0.317 8.33 10.16 9.64
8/23/2022 4:15:00 PM 21.26 70.268 0.318 8.32 9.39 9.62
8/23/2022 4:30:00 PM 21.26 70.268 0.319 8.33 9.2 9.54
8/23/2022 4:45:00 PM 21.3 70.34 0.32 8.32 8.71 9.53
8/23/2022 5:00:00 PM 21.32 70.376 0.321 8.34 8.96 9.5
8/23/2022 5:15:00 PM 21.31 70.358 0.324 8.32 8.58 9.44
8/23/2022 5:30:00 PM 21.29 70.32201 0.326 8.31 8.1 9.35
8/23/2022 5:45:00 PM 21.29 70.32201 0.327 8.3 8.66 9.28
8/23/2022 6:00:00 PM 21.28 70.304 0.328 8.28 8.06 9.18
8/23/2022 6:15:00 PM 21.27 70.286 0.329 8.26 8.27 9.13
8/23/2022 6:30:00 PM 21.24 70.232 0.33 8.25 7.74 9.04
8/23/2022 6:45:00 PM 21.22 70.196 0.33 8.23 8.13 8.98
8/23/2022 7:00:00 PM 21.19 70.142 0.33 8.22 7.89 8.91
8/23/2022 7:15:00 PM 21.15 70.07 0.331 8.19 7.67 8.82
8/23/2022 7:30:00 PM 21.11 69.998 0.332 8.17 7.62 8.73
8/23/2022 7:45:00 PM 21.06 69.908 0.333 8.14 7.67 8.67
8/23/2022 8:00:00 PM 21.01 69.818 0.335 8.13 7.46 8.6
8/23/2022 8:15:00 PM 20.95 69.71 0.336 8.11 7.95 8.53
8/23/2022 8:30:00 PM 20.89 69.602 0.338 8.07 8.1 8.48
8/23/2022 8:45:00 PM 20.83 69.494 0.339 8.06 8.04 8.44
8/23/2022 9:00:00 PM 20.77 69.386 0.34 8.05 8.72 8.41
8/23/2022 9:15:00 PM 20.71 69.278 0.341 8.03 9.43 8.38
8/23/2022 9:30:00 PM 20.65 69.17 0.342 8.01 9.76 8.36
8/23/2022 9:45:00 PM 20.59 69.062 0.342 8.01 9.3 8.35
8/23/2022 10:00:00 PM 20.53 68.954 0.342 7.98 8.91 8.33
8/23/2022 10:15:00 PM 20.47 68.846 0.343 7.99 9.32 8.33
8/23/2022 10:30:00 PM 20.41 68.738 0.344 7.96 8.63 8.33
8/23/2022 10:45:00 PM 20.35 68.63 0.345 7.96 8.9 8.32
8/23/2022 11:00:00 PM 20.29 68.522 0.346 7.95 8.42 8.32
8/23/2022 11:15:00 PM 20.23 68.414 0.348 7.93 8.51 8.31
8/23/2022 11:30:00 PM 20.16 68.288 0.35 7.93 8.31 8.31
8/23/2022 11:45:00 PM 20.1 68.18 0.351 7.92 7.89 8.3
8/24/2022 12:00:00 AM 20.04 68.07201 0.352 7.91 8.17 8.31
8/24/2022 12:15:00 AM 19.98 67.964 0.354 7.91 8.34 8.3
8/24/2022 12:30:00 AM 19.92 67.856 0.354 7.9 9.63 8.3
8/24/2022 12:45:00 AM 19.86 67.748 0.355 7.9 9.02 8.31
8/24/2022 1:00:00 AM 19.8 67.64 0.355 7.89 8.62 8.32
8/24/2022 1:15:00 AM 19.75 67.55 0.355 7.89 8.28 8.33
8/24/2022 1:30:00 AM 19.69 67.442 0.355 7.89 8.02 8.33
8/24/2022 1:45:00 AM 19.64 67.352 0.356 7.89 8.2 8.34
8/24/2022 2:00:00 AM 19.58 67.244 0.356 7.88 8.08 8.35
8/24/2022 2:15:00 AM 19.53 67.154 0.357 7.88 7.87 8.35
8/24/2022 2:30:00 AM 19.47 67.046 0.357 7.86 8.15 8.36
8/24/2022 2:45:00 AM 19.42 66.956 0.358 7.87 7.92 8.36
8/24/2022 3:00:00 AM 19.36 66.848 0.359 7.88 7.96 8.36
8/24/2022 3:15:00 AM 19.31 66.758 0.36 7.86 8 8.36
8/24/2022 3:30:00 AM 19.26 66.668 0.36 7.88 8.17 8.38
8/24/2022 3:45:00 AM 19.2 66.56 0.361 7.88 8.3 8.4
8/24/2022 4:00:00 AM 19.15 66.47 0.361 7.87 8.77 8.41
8/24/2022 4:15:00 AM 19.1 66.38 0.362 7.87 11.75 8.4
8/24/2022 4:30:00 AM 19.06 66.308 0.362 7.87 7.95 8.43
8/24/2022 4:45:00 AM 19 66.2 0.362 7.87 7.91 8.43
8/24/2022 5:00:00 AM 18.95 66.11 0.363 7.87 8.15 8.46
8/24/2022 5:15:00 AM 18.9 66.02 0.363 7.87 7.77 8.47
8/24/2022 5:30:00 AM 18.84 65.912 0.363 7.86 7.92 8.47
8/24/2022 5:45:00 AM 18.79 65.82201 0.363 7.86 7.72 8.49
8/24/2022 6:00:00 AM 18.73 65.714 0.363 7.86 7.91 8.5
8/24/2022 6:15:00 AM 18.68 65.624 0.363 7.87 7.87 8.51
8/24/2022 6:30:00 AM 18.62 65.516 0.364 7.87 7.29 8.51
8/24/2022 6:45:00 AM 18.57 65.426 0.364 7.87 8.25 8.54
8/24/2022 7:00:00 AM 18.51 65.318 0.364 7.88 6.98 8.58
8/24/2022 7:15:00 AM 18.47 65.246 0.364 7.88 6.75 8.61
8/24/2022 7:30:00 AM 18.43 65.174 0.364 7.87 6.75 8.66
8/24/2022 7:45:00 AM 18.39 65.102 0.365 7.9 5.98 8.71
8/24/2022 8:00:00 AM 18.36 65.048 0.365 7.9 6.88 8.76
8/24/2022 8:15:00 AM 18.34 65.012 0.366 7.9 5.39 8.81
8/24/2022 8:30:00 AM 18.33 64.994 0.366 7.93 5.29 8.89
8/24/2022 8:45:00 AM 18.34 65.012 0.366 7.94 5.14 8.97
8/24/2022 9:00:00 AM 18.38 65.084 0.366 7.96 5.05 9.1
8/24/2022 9:15:00 AM 18.45 65.21 0.366 8 5.29 9.21
8/24/2022 9:30:00 AM 18.52 65.336 0.366 8 4.85 9.31
8/24/2022 9:45:00 AM 18.6 65.48 0.366 8.04 5.03 9.4
8/24/2022 10:00:00 AM 18.72 65.696 0.366 8.06 4.51 9.53
8/24/2022 10:15:00 AM 18.88 65.984 0.366 8.11 4.73 9.66
8/24/2022 10:30:00 AM 19.1 66.38 0.366 8.14 4.31 9.79
8/24/2022 10:45:00 AM 19.31 66.758 0.367 8.18 4.34 9.87
8/24/2022 11:00:00 AM 19.52 67.136 0.367 8.21 4.43 9.99
8/24/2022 11:15:00 AM 19.77 67.586 0.367 8.25 4.37 10.1
8/24/2022 11:30:00 AM 19.94 67.892 0.368 8.28 3.9 10.16
8/24/2022 11:45:00 AM 19.87 67.766 0.368 8.29 12.47 10.09
8/24/2022 12:00:00 PM 20.14 68.252 0.368 8.32 4.28 10.25
8/24/2022 12:15:00 PM 20.22 68.396 0.368 8.34 4.6 10.3
8/24/2022 12:30:00 PM 20.19 68.342 0.367 8.35 3.93 10.28
8/24/2022 12:45:00 PM 20.4 68.72 0.367 8.39 4.29 10.4
8/24/2022 1:00:00 PM 20.25 68.45 0.367 8.38 4.33 10.27
8/24/2022 1:15:00 PM 20.5 68.9 0.367 8.41 4.02 10.4
8/24/2022 1:30:00 PM 20.55 68.99 0.367 8.42 4.49 10.33
8/24/2022 1:45:00 PM 20.67 69.206 0.367 8.44 3.91 10.4
8/24/2022 2:00:00 PM 20.73 69.314 0.368 8.46 4.23 10.34
8/24/2022 2:15:00 PM 20.71 69.278 0.368 8.46 3.8 10.27
8/24/2022 2:30:00 PM 20.74 69.332 0.369 8.45 3.93 10.24
8/24/2022 2:45:00 PM 20.77 69.386 0.369 8.47 3.94 10.22
8/24/2022 3:00:00 PM 20.85 69.53 0.369 8.48 3.91 10.23
8/24/2022 3:15:00 PM 20.94 69.692 0.369 8.49 3.68 10.22
8/24/2022 3:30:00 PM 21.02 69.836 0.369 8.51 3.72 10.24
8/24/2022 3:45:00 PM 21.1 69.98 0.369 8.52 4.18 10.16
8/24/2022 4:00:00 PM 21.14 70.052 0.369 8.51 3.83 10.08
8/24/2022 4:15:00 PM 21.17 70.106 0.369 8.51 3.82 9.99
8/24/2022 4:30:00 PM 21.25 70.25 0.37 8.52 3.62 9.99
8/24/2022 4:45:00 PM 21.3 70.34 0.37 8.52 3.85 9.93
8/24/2022 5:00:00 PM 21.36 70.448 0.371 8.52 3.93 9.88
8/24/2022 5:15:00 PM 21.44 70.592 0.372 8.53 4.55 9.85
8/24/2022 5:30:00 PM 21.5 70.7 0.372 8.54 4.87 9.85
8/24/2022 5:45:00 PM 21.48 70.664 0.373 8.52 3.59 9.68
8/24/2022 6:00:00 PM 21.48 70.664 0.373 8.5 3.42 9.57
8/24/2022 6:15:00 PM 21.46 70.628 0.373 8.48 3.81 9.41
8/24/2022 6:30:00 PM 21.43 70.574 0.374 8.45 3.7 9.27
8/24/2022 6:45:00 PM 21.41 70.538 0.374 8.43 3.88 9.16
8/24/2022 7:00:00 PM 21.39 70.502 0.375 8.41 4.12 9.02
8/24/2022 7:15:00 PM 21.38 70.484 0.375 8.38 4.03 8.91
8/24/2022 7:30:00 PM 21.35 70.43 0.376 8.36 3.98 8.79
8/24/2022 7:45:00 PM 21.32 70.376 0.377 8.33 3.87 8.69
8/24/2022 8:00:00 PM 21.3 70.34 0.378 8.31 3.85 8.58
8/24/2022 8:15:00 PM 21.26 70.268 0.379 8.28 4.21 8.48
8/24/2022 8:30:00 PM 21.23 70.214 0.38 8.26 4.41 8.39
8/24/2022 8:45:00 PM 21.19 70.142 0.38 8.23 4.68 8.32
8/24/2022 9:00:00 PM 21.15 70.07 0.381 8.21 4.39 8.27
8/24/2022 9:15:00 PM 21.11 69.998 0.381 8.19 4.94 8.24
8/24/2022 9:30:00 PM 21.07 69.926 0.382 8.17 4.53 8.22
8/24/2022 9:45:00 PM 21.02 69.836 0.383 8.15 5.44 8.2
8/24/2022 10:00:00 PM 20.99 69.782 0.384 8.14 5.41 8.18
8/24/2022 10:15:00 PM 20.95 69.71 0.384 8.12 5.05 8.18
8/24/2022 10:30:00 PM 20.91 69.638 0.385 8.11 5.5 8.17
8/24/2022 10:45:00 PM 20.86 69.548 0.386 8.1 5.52 8.17
8/24/2022 11:00:00 PM 20.81 69.458 0.387 8.08 5.05 8.13
8/24/2022 11:15:00 PM 20.75 69.35 0.388 8.07 5.71 8.15
8/24/2022 11:30:00 PM 20.67 69.206 0.388 8.06 5.58 8.15
8/24/2022 11:45:00 PM 20.6 69.08 0.389 8.05 6.53 8.11
8/25/2022 12:00:00 AM 20.52 68.936 0.39 8.04 5.7 8.13
8/25/2022 12:15:00 AM 20.45 68.81 0.39 8.03 5.3 8.14
8/25/2022 12:30:00 AM 20.37 68.666 0.391 8.01 6.8 8.15
8/25/2022 12:45:00 AM 20.29 68.522 0.391 8 5.93 8.16
8/25/2022 1:00:00 AM 20.21 68.378 0.392 7.98 7.98 8.17
8/25/2022 1:15:00 AM 20.13 68.234 0.393 7.98 5.77 8.19
8/25/2022 1:30:00 AM 20.05 68.09 0.393 7.96 5.37 8.18
8/25/2022 1:45:00 AM 19.97 67.946 0.394 7.96 5 8.2
8/25/2022 2:00:00 AM 19.9 67.82 0.395 7.95 5.94 8.21
8/25/2022 2:15:00 AM 19.82 67.676 0.396 7.95 7.52 8.21
8/25/2022 2:30:00 AM 19.75 67.55 0.396 7.94 5.37 8.23
8/25/2022 2:45:00 AM 19.68 67.424 0.397 7.94 5.28 8.24
8/25/2022 3:00:00 AM 19.61 67.298 0.397 7.92 5.29 8.26
8/25/2022 3:15:00 AM 19.54 67.172 0.398 7.93 5.76 8.27
8/25/2022 3:30:00 AM 19.48 67.064 0.398 7.91 5.76 8.28
8/25/2022 3:45:00 AM 19.41 66.938 0.399 7.92 5.62 8.29
8/25/2022 4:00:00 AM 19.35 66.83 0.4 7.92 5.1 8.3
8/25/2022 4:15:00 AM 19.29 66.722 0.4 7.91 5.35 8.3
8/25/2022 4:30:00 AM 19.23 66.614 0.401 7.92 5.05 8.32
8/25/2022 4:45:00 AM 19.17 66.506 0.402 7.91 5.21 8.34
8/25/2022 5:00:00 AM 19.12 66.416 0.403 7.92 5.22 8.34
8/25/2022 5:15:00 AM 19.06 66.308 0.404 7.91 5.81 8.36
8/25/2022 5:30:00 AM 19.01 66.218 0.405 7.91 5.2 8.38
8/25/2022 5:45:00 AM 18.96 66.128 0.405 7.9 5.49 8.38
8/25/2022 6:00:00 AM 18.91 66.038 0.406 7.91 5.05 8.39
8/25/2022 6:15:00 AM 18.86 65.948 0.407 7.91 5.6 8.4
8/25/2022 6:30:00 AM 18.81 65.858 0.407 7.91 6.1 8.41
8/25/2022 6:45:00 AM 18.76 65.768 0.408 7.91 5.52 8.43
8/25/2022 7:00:00 AM 18.72 65.696 0.409 7.91 5.25 8.46
8/25/2022 7:15:00 AM 18.68 65.624 0.41 7.92 5.54 8.5
8/25/2022 7:30:00 AM 18.66 65.588 0.411 7.92 4.95 8.54
8/25/2022 7:45:00 AM 18.64 65.552 0.411 7.94 4.5 8.6
8/25/2022 8:00:00 AM 18.63 65.534 0.412 7.95 4.39 8.67
8/25/2022 8:15:00 AM 18.62 65.516 0.413 7.96 5.24 8.75
8/25/2022 8:30:00 AM 18.63 65.534 0.413 7.98 4.05 8.85
8/25/2022 8:45:00 AM 18.66 65.588 0.414 8 3.67 8.94
8/25/2022 9:00:00 AM 18.71 65.67799 0.415 8.01 3.43 9.08
8/25/2022 9:15:00 AM 18.79 65.82201 0.415 8.05 3.73 9.25
8/25/2022 9:30:00 AM 18.88 65.984 0.416 8.07 3.9 9.37
8/25/2022 9:45:00 AM 18.97 66.146 0.417 8.1 3.55 9.48
8/25/2022 10:00:00 AM 19.1 66.38 0.417 8.12 3.79 9.62
8/25/2022 10:15:00 AM 19.26 66.668 0.418 8.17 3.66 9.75
8/25/2022 10:30:00 AM 19.51 67.118